Darstellungsparameter: Aktuell verwendete Einstellungen:
Skalierung der Graphiken ... ?
xyx+y,   Skalierungsfaktor:      Skalierung: Modus: x, Faktor: 1
Darstellungszeitraum ... ?
Vom - - bis: - -   Zeitraum: 06.09.2019 - 03.10.2019
Min/Max/Avg-Anzeige ... ?
Zeige MMA aktuell
Zeige MMA Monat
Zeige MMA alles
Zeige --A aktuell
Zeige --A Monat
Zeige --A alles
Keine MMA-Anzeige
MMA:
Keine MMA-Graphiken
MMA-Basis: 06.09.2019 - 03.10.2019
Quicknavigation für Darstellung... ?
Tage:      1T, 2T, 3T, 5T -1T -2T -3T -5T +1T +2T +3T +5T
Wochen: 1W, 2W, 3W -1W -2W -3W +1W +2W +3W
Monate: 1M, 3M, 6M -1M -3M -6M +1M +3M +6M
Jahre:    1J, 3J, 5J, 10J -1J -3J -5J -10J +1J +3J +5J +10J
Nutze für die Darstellung ... ?
Originaldaten oder Mittelwerte auf ...
Stundenbasis Tagesbasis Wochenbasis
Monatsbasis Jahresbasis      Datenbasis: Original-Daten
Darstellen als:
Statistik (Auto) Statistik J:M      Darstellung:
Zur Graphik,    zurück zur Übersicht aller Sensoren.
 
Tabellarische Datenbersicht: ?
 
Sensor: Nr:Datum:Temp:Feuchte:
Aussen-T/F 1 06-09-2019 00:09:17 11.9 C 31 %
2 06-09-2019 00:21:17 11.5 C 32 %
3 06-09-2019 00:33:18 11.4 C 34 %
4 06-09-2019 00:45:17 11.1 C 34 %
5 06-09-2019 00:57:17 11.2 C 35 %
6 06-09-2019 01:09:18 11.8 C 32 %
7 06-09-2019 01:21:17 11.2 C 34 %
8 06-09-2019 01:33:18 10.8 C 35 %
9 06-09-2019 01:45:17 10.5 C 38 %
10 06-09-2019 01:57:17 10.3 C 39 %
11 06-09-2019 02:09:18 10.3 C 39 %
12 06-09-2019 02:21:17 10.2 C 40 %
13 06-09-2019 02:33:18 10.5 C 39 %
14 06-09-2019 02:45:17 10.2 C 39 %
15 06-09-2019 02:57:17 9.9 C 40 %
16 06-09-2019 03:09:18 9.7 C 41 %
17 06-09-2019 03:21:17 9.7 C 42 %
18 06-09-2019 03:33:17 9.4 C 42 %
19 06-09-2019 03:45:17 9.6 C 44 %
20 06-09-2019 03:57:17 9.5 C 43 %
21 06-09-2019 04:09:18 8.9 C 43 %
22 06-09-2019 04:21:17 9 C 45 %
23 06-09-2019 04:33:18 8.9 C 45 %
24 06-09-2019 04:45:17 8.6 C 45 %
25 06-09-2019 04:57:17 8.4 C 46 %
Sensor: Nr:Datum:Temp:Feuchte:
Aussen-T/F 26 06-09-2019 05:09:17 8.2 C 46 %
27 06-09-2019 05:21:17 8 C 46 %
28 06-09-2019 05:33:17 7.8 C 47 %
29 06-09-2019 05:45:18 7.8 C 48 %
30 06-09-2019 05:57:18 7.5 C 48 %
31 06-09-2019 06:09:17 7.6 C 49 %
32 06-09-2019 06:21:18 7.4 C 49 %
33 06-09-2019 06:33:17 7.3 C 49 %
34 06-09-2019 06:45:18 7.4 C 50 %
35 06-09-2019 06:57:18 7.3 C 50 %
36 06-09-2019 07:09:17 7.3 C 50 %
37 06-09-2019 07:21:18 7.4 C 50 %
38 06-09-2019 07:33:17 7.4 C 50 %
39 06-09-2019 07:45:18 7.5 C 50 %
40 06-09-2019 07:57:18 7.7 C 50 %
41 06-09-2019 08:09:17 8.1 C 50 %
42 06-09-2019 08:21:17 8.2 C 49 %
43 06-09-2019 08:33:18 8.2 C 49 %
44 06-09-2019 08:45:17 8.3 C 49 %
45 06-09-2019 08:57:17 8.5 C 49 %
46 06-09-2019 09:09:18 8.7 C 49 %
47 06-09-2019 09:21:17 8.9 C 50 %
48 06-09-2019 09:33:17 9.2 C 49 %
49 06-09-2019 09:45:17 9.3 C 49 %
50 06-09-2019 09:57:17 9.5 C 49 %
Sensor: Nr:Datum:Temp:Feuchte:
Aussen-T/F 51 06-09-2019 10:09:17 9.6 C 49 %
52 06-09-2019 10:21:17 10.4 C 46 %
53 06-09-2019 10:33:17 11.1 C 42 %
54 06-09-2019 10:45:17 11.5 C 39 %
55 06-09-2019 10:57:17 12.7 C 35 %
56 06-09-2019 11:09:18 12.8 C 33 %
57 06-09-2019 11:21:17 13.3 C 28 %
58 06-09-2019 11:33:17 14 C 23 %
59 06-09-2019 11:45:17 14 C 23 %
60 06-09-2019 11:57:17 14.4 C 22 %
61 06-09-2019 12:09:17 14.7 C 20 %
62 06-09-2019 12:21:17 15 C 20 %
63 06-09-2019 12:33:17 15.3 C 20 %
64 06-09-2019 12:45:18 15.5 C 20 %
65 06-09-2019 12:57:18 15.8 C 20 %
66 06-09-2019 13:09:17 15.7 C 20 %
67 06-09-2019 13:21:18 16.2 C 20 %
68 06-09-2019 13:33:17 16.5 C 20 %
69 06-09-2019 13:45:17 16.9 C 20 %
70 06-09-2019 13:57:17 17.4 C 20 %
71 06-09-2019 14:09:17 18 C 20 %
72 06-09-2019 14:21:17 18.3 C 20 %
73 06-09-2019 14:33:17 18.6 C 20 %
74 06-09-2019 14:45:17 19.2 C 20 %
75 06-09-2019 14:57:17 19.5 C 20 %
Sensor: Nr:Datum:Temp:Feuchte:
Aussen-T/F 76 06-09-2019 15:09:18 20.1 C 20 %
77 06-09-2019 15:21:17 20.2 C 20 %
78 06-09-2019 15:33:18 20.4 C 20 %
79 06-09-2019 15:45:17 20.7 C 20 %
80 06-09-2019 15:57:17 21.1 C 20 %
81 06-09-2019 16:09:18 21.2 C 20 %
82 06-09-2019 16:21:17 21.9 C 20 %
83 06-09-2019 16:33:18 22.1 C 20 %
84 06-09-2019 16:45:17 22.6 C 20 %
85 06-09-2019 16:57:17 22.9 C 20 %
86 06-09-2019 17:09:18 23 C 20 %
87 06-09-2019 17:21:17 23 C 20 %
88 06-09-2019 17:33:18 23.5 C 20 %
89 06-09-2019 17:45:17 23.2 C 20 %
90 06-09-2019 17:57:17 22.9 C 20 %
91 06-09-2019 18:09:18 23 C 20 %
92 06-09-2019 18:21:17 23 C 20 %
93 06-09-2019 18:33:18 23.7 C 20 %
94 06-09-2019 18:45:17 22.7 C 20 %
95 06-09-2019 18:57:17 21.6 C 20 %
96 06-09-2019 19:09:17 19.3 C 20 %
97 06-09-2019 19:21:17 18.1 C 20 %
98 06-09-2019 19:33:17 16.8 C 20 %
99 06-09-2019 19:45:17 16.1 C 20 %
100 06-09-2019 19:57:18 15.8 C 20 %
Sensor: Nr:Datum:Temp:Feuchte:
Aussen-T/F 101 06-09-2019 20:09:17 16 C 20 %
102 06-09-2019 20:21:17 15.9 C 20 %
103 06-09-2019 20:33:17 15.6 C 20 %
104 06-09-2019 20:45:18 14.9 C 20 %
105 06-09-2019 20:57:18 14.5 C 20 %
106 06-09-2019 21:09:17 14.2 C 20 %
107 06-09-2019 21:21:18 14.1 C 20 %
108 06-09-2019 21:33:17 13.7 C 20 %
109 06-09-2019 21:45:18 13.5 C 20 %
110 06-09-2019 21:57:18 13.2 C 20 %
111 06-09-2019 22:09:17 12.4 C 20 %
112 06-09-2019 22:21:17 12 C 20 %
113 06-09-2019 22:33:17 12 C 20 %
114 06-09-2019 22:45:17 12 C 20 %
115 06-09-2019 22:57:18 12.6 C 20 %
116 06-09-2019 23:09:17 12.9 C 20 %
117 06-09-2019 23:21:17 13.2 C 20 %
118 06-09-2019 23:33:18 12.9 C 20 %
119 06-09-2019 23:45:17 12.6 C 20 %
120 06-09-2019 23:57:17 12.2 C 22 %
121 07-09-2019 00:09:18 12.1 C 25 %
122 07-09-2019 00:21:17 12.1 C 25 %
123 07-09-2019 00:33:17 12.2 C 24 %
124 07-09-2019 00:45:17 12.4 C 23 %
125 07-09-2019 00:57:17 12.6 C 20 %
Sensor: Nr:Datum:Temp:Feuchte:
Aussen-T/F 126 07-09-2019 01:09:17 12.8 C 20 %
127 07-09-2019 01:21:17 12.6 C 21 %
128 07-09-2019 01:33:17 12.2 C 22 %
129 07-09-2019 01:45:17 12.2 C 22 %
130 07-09-2019 01:57:17 11.8 C 25 %
131 07-09-2019 02:09:18 12.4 C 22 %
132 07-09-2019 02:21:17 12.3 C 23 %
133 07-09-2019 02:33:17 12.3 C 24 %
134 07-09-2019 02:45:17 12.4 C 23 %
135 07-09-2019 02:57:17 12.5 C 21 %
136 07-09-2019 03:09:18 12.4 C 22 %
137 07-09-2019 03:21:17 12.5 C 21 %
138 07-09-2019 03:33:18 12.7 C 21 %
139 07-09-2019 03:45:17 12.6 C 22 %
140 07-09-2019 03:57:17 13 C 20 %
141 07-09-2019 04:09:17 12.8 C 22 %
142 07-09-2019 04:21:17 12.6 C 24 %
143 07-09-2019 04:33:18 12.7 C 21 %
144 07-09-2019 04:45:17 12.9 C 22 %
145 07-09-2019 04:57:17 12.7 C 21 %
146 07-09-2019 05:09:17 12.9 C 20 %
147 07-09-2019 05:21:17 12.6 C 25 %
148 07-09-2019 05:33:17 12.3 C 25 %
149 07-09-2019 05:45:18 12.3 C 25 %
150 07-09-2019 05:57:18 12.3 C 26 %
Sensor: Nr:Datum:Temp:Feuchte:
Aussen-T/F 151 07-09-2019 06:09:17 12.2 C 26 %
152 07-09-2019 06:21:17 12.2 C 26 %
153 07-09-2019 06:33:17 12.2 C 27 %
154 07-09-2019 06:45:17 12.1 C 28 %
155 07-09-2019 06:57:17 12 C 28 %
156 07-09-2019 07:09:17 11.8 C 29 %
157 07-09-2019 07:21:17 11 C 36 %
158 07-09-2019 07:33:17 11 C 41 %
159 07-09-2019 07:45:18 11 C 42 %
160 07-09-2019 07:57:18 11.1 C 47 %
161 07-09-2019 08:09:17 11.1 C 48 %
162 07-09-2019 08:21:17 11.3 C 50 %
163 07-09-2019 08:33:17 11.4 C 50 %
164 07-09-2019 08:45:18 11.3 C 50 %
165 07-09-2019 08:57:18 11.2 C 50 %
166 07-09-2019 09:09:17 11.3 C 50 %
167 07-09-2019 09:21:17 11.5 C 50 %
168 07-09-2019 09:33:17 11.5 C 50 %
169 07-09-2019 09:45:17 11.7 C 50 %
170 07-09-2019 09:57:17 11.7 C 50 %
171 07-09-2019 10:09:17 11.7 C 50 %
172 07-09-2019 10:21:17 11.9 C 49 %
173 07-09-2019 10:33:18 12 C 50 %
174 07-09-2019 10:45:17 11.9 C 50 %
175 07-09-2019 10:57:17 12.2 C 50 %
Sensor: Nr:Datum:Temp:Feuchte:
Aussen-T/F 176 07-09-2019 11:09:17 12.4 C 49 %
177 07-09-2019 11:21:17 12.6 C 49 %
178 07-09-2019 11:33:18 12.7 C 48 %
179 07-09-2019 11:45:17 12.8 C 48 %
180 07-09-2019 11:57:17 12.9 C 48 %
181 07-09-2019 12:09:18 13 C 47 %
182 07-09-2019 12:21:17 13 C 47 %
183 07-09-2019 12:33:17 13.2 C 46 %
184 07-09-2019 12:45:17 13.5 C 46 %
185 07-09-2019 12:57:17 13.6 C 46 %
186 07-09-2019 13:09:18 13.9 C 46 %
187 07-09-2019 13:21:17 14 C 45 %
188 07-09-2019 13:33:17 13.9 C 45 %
189 07-09-2019 13:45:17 13.9 C 45 %
190 07-09-2019 13:57:17 13.8 C 45 %
191 07-09-2019 14:09:17 13.9 C 45 %
192 07-09-2019 14:21:17 14.1 C 44 %
193 07-09-2019 14:33:17 14.4 C 44 %
194 07-09-2019 14:45:17 14.4 C 42 %
195 07-09-2019 14:57:17 14.2 C 42 %
196 07-09-2019 15:09:18 14.3 C 41 %
197 07-09-2019 15:21:18 14.6 C 41 %
198 07-09-2019 15:33:17 15 C 39 %
199 07-09-2019 15:45:18 15 C 37 %
200 07-09-2019 15:57:18 15.2 C 36 %
Sensor: Nr:Datum:Temp:Feuchte:
Aussen-T/F 201 07-09-2019 16:09:17 15.4 C 35 %
202 07-09-2019 16:21:17 15 C 36 %
203 07-09-2019 16:33:17 15.2 C 38 %
204 07-09-2019 16:45:17 15.3 C 38 %
205 07-09-2019 16:57:17 15.4 C 38 %
206 07-09-2019 17:09:17 15.6 C 39 %
207 07-09-2019 17:21:17 15.5 C 38 %
208 07-09-2019 17:33:17 14.8 C 37 %
209 07-09-2019 17:45:18 14.5 C 40 %
210 07-09-2019 17:57:18 14.2 C 42 %
211 07-09-2019 18:09:17 14 C 42 %
212 07-09-2019 18:21:18 14 C 43 %
213 07-09-2019 18:33:17 14 C 43 %
214 07-09-2019 18:45:18 13.8 C 45 %
215 07-09-2019 18:57:18 13.5 C 46 %
216 07-09-2019 19:09:17 13.4 C 43 %
217 07-09-2019 19:21:17 12.9 C 46 %
218 07-09-2019 19:33:18 12.6 C 48 %
219 07-09-2019 19:45:17 12.5 C 50 %
220 07-09-2019 19:57:17 12.3 C 50 %
221 07-09-2019 20:09:17 12.1 C 50 %
222 07-09-2019 20:21:17 12.1 C 50 %
223 07-09-2019 20:33:17 12 C 50 %
224 07-09-2019 20:45:18 11.8 C 52 %
225 07-09-2019 20:57:18 11.7 C 52 %
Sensor: Nr:Datum:Temp:Feuchte:
Aussen-T/F 226 07-09-2019 21:09:17 11.5 C 52 %
227 07-09-2019 21:21:17 11.4 C 52 %
228 07-09-2019 21:33:17 11.4 C 52 %
229 07-09-2019 21:45:17 11.5 C 52 %
230 07-09-2019 21:57:17 11.5 C 52 %
231 07-09-2019 22:09:17 11.4 C 52 %
232 07-09-2019 22:21:18 11.4 C 52 %
233 07-09-2019 22:33:17 11.4 C 52 %
234 07-09-2019 22:45:17 11.4 C 52 %
235 07-09-2019 22:57:17 11.4 C 52 %
236 07-09-2019 23:09:17 11.4 C 52 %
237 07-09-2019 23:21:18 11.4 C 53 %
238 07-09-2019 23:33:17 11.4 C 53 %
239 07-09-2019 23:45:17 11.4 C 53 %
240 07-09-2019 23:57:18 11.4 C 53 %
241 08-09-2019 00:09:17 11.4 C 53 %
242 08-09-2019 00:21:18 11.4 C 54 %
243 08-09-2019 00:33:17 11.4 C 54 %
244 08-09-2019 00:45:17 11.4 C 55 %
245 08-09-2019 00:57:17 11.4 C 56 %
246 08-09-2019 01:09:17 11.6 C 58 %
247 08-09-2019 01:21:17 11.6 C 57 %
248 08-09-2019 01:33:17 11.4 C 55 %
249 08-09-2019 01:45:17 11.2 C 53 %
250 08-09-2019 01:57:17 11 C 53 %
Sensor: Nr:Datum:Temp:Feuchte:
Aussen-T/F 251 08-09-2019 02:09:18 10.9 C 58 %
252 08-09-2019 02:21:17 10.9 C 60 %
253 08-09-2019 02:33:18 10.6 C 58 %
254 08-09-2019 02:45:17 10.5 C 59 %
255 08-09-2019 02:57:17 10.7 C 62 %
256 08-09-2019 03:09:18 10.7 C 64 %
257 08-09-2019 03:21:17 11.1 C 64 %
258 08-09-2019 03:33:18 11.1 C 64 %
259 08-09-2019 03:45:17 11.1 C 63 %
260 08-09-2019 03:57:17 11.2 C 64 %
261 08-09-2019 04:09:18 11.2 C 64 %
262 08-09-2019 04:21:17 11.4 C 64 %
263 08-09-2019 04:33:18 11.6 C 64 %
264 08-09-2019 04:45:17 11.6 C 63 %
265 08-09-2019 04:57:17 11.6 C 61 %
266 08-09-2019 05:09:18 11.7 C 57 %
267 08-09-2019 05:21:17 11.7 C 55 %
268 08-09-2019 05:33:17 11.7 C 54 %
269 08-09-2019 05:45:17 11.7 C 53 %
270 08-09-2019 05:57:17 11.8 C 52 %
271 08-09-2019 06:09:17 11.8 C 51 %
272 08-09-2019 06:21:17 11.8 C 51 %
273 08-09-2019 06:33:17 11.9 C 50 %
274 08-09-2019 06:45:18 12 C 49 %
275 08-09-2019 06:57:18 12 C 49 %
Sensor: Nr:Datum:Temp:Feuchte:
Aussen-T/F 276 08-09-2019 07:09:17 12.1 C 48 %
277 08-09-2019 07:21:18 12.1 C 48 %
278 08-09-2019 07:33:17 12 C 48 %
279 08-09-2019 07:45:17 12.1 C 47 %
280 08-09-2019 07:57:17 12.2 C 47 %
281 08-09-2019 08:09:18 12.3 C 47 %
282 08-09-2019 08:21:17 12.3 C 46 %
283 08-09-2019 08:33:17 12.3 C 45 %
284 08-09-2019 08:45:17 12 C 46 %
285 08-09-2019 08:57:17 12.1 C 48 %
286 08-09-2019 09:09:17 12 C 47 %
287 08-09-2019 09:21:17 11.9 C 49 %
288 08-09-2019 09:33:17 11.8 C 49 %
289 08-09-2019 09:45:17 11.9 C 49 %
290 08-09-2019 09:57:17 12 C 48 %
291 08-09-2019 10:09:17 12.1 C 49 %
292 08-09-2019 10:21:17 12.1 C 50 %
293 08-09-2019 10:33:18 12.1 C 51 %
294 08-09-2019 10:45:17 12.1 C 51 %
295 08-09-2019 10:57:17 12.1 C 51 %
296 08-09-2019 11:09:18 12.2 C 52 %
297 08-09-2019 11:21:17 12.2 C 51 %
298 08-09-2019 11:33:18 12.2 C 51 %
299 08-09-2019 11:45:17 12.3 C 51 %
300 08-09-2019 11:57:17 12.5 C 50 %
Sensor: Nr:Datum:Temp:Feuchte:
Aussen-T/F 301 08-09-2019 12:09:18 12.7 C 49 %
302 08-09-2019 12:21:17 12.8 C 47 %
303 08-09-2019 12:33:18 13.2 C 43 %
304 08-09-2019 12:45:17 13.6 C 40 %
305 08-09-2019 12:57:17 14.1 C 37 %
306 08-09-2019 13:09:18 16 C 32 %
307 08-09-2019 13:21:17 16.4 C 31 %
308 08-09-2019 13:34:03 16.9 C 29 %
309 08-09-2019 13:57:18 18.7 C 25 %
310 08-09-2019 14:08:17 16.5 C 28 %
311 08-09-2019 14:20:17 17.2 C 27 %
312 08-09-2019 14:30:17 17.8 C 26 %
313 08-09-2019 14:41:17 16.8 C 26 %
314 08-09-2019 14:52:18 16.8 C 27 %
315 08-09-2019 15:03:17 19.8 C 22 %
316 08-09-2019 15:14:17 20.3 C 20 %
317 08-09-2019 15:25:17 18.6 C 20 %
318 08-09-2019 15:36:18 18.1 C 23 %
319 08-09-2019 15:47:17 17.7 C 23 %
320 08-09-2019 15:58:17 18.2 C 22 %
321 08-09-2019 16:09:17 17.7 C 23 %
322 08-09-2019 16:20:18 16.6 C 28 %
323 08-09-2019 16:31:17 14.3 C 39 %
324 08-09-2019 16:42:17 13.9 C 46 %
325 08-09-2019 16:53:18 13.3 C 46 %
Sensor: Nr:Datum:Temp:Feuchte:
Aussen-T/F 326 08-09-2019 17:04:17 13 C 50 %
327 08-09-2019 17:15:17 12.6 C 52 %
328 08-09-2019 17:26:17 12.8 C 52 %
329 08-09-2019 17:37:18 12.8 C 52 %
330 08-09-2019 17:48:18 12.9 C 50 %
331 08-09-2019 17:59:18 12.7 C 46 %
332 08-09-2019 18:11:17 12.5 C 46 %
333 08-09-2019 18:21:17 12.4 C 50 %
334 08-09-2019 18:32:17 12.2 C 50 %
335 08-09-2019 18:43:17 12.3 C 52 %
336 08-09-2019 18:54:17 12.4 C 52 %
337 08-09-2019 19:06:17 12.5 C 53 %
338 08-09-2019 19:16:18 12.6 C 53 %
339 08-09-2019 19:27:18 12.7 C 53 %
340 08-09-2019 19:38:17 12.7 C 53 %
341 08-09-2019 19:49:18 12.6 C 53 %
342 08-09-2019 20:00:17 12.5 C 54 %
343 08-09-2019 20:11:17 12.3 C 55 %
344 08-09-2019 20:23:17 12.1 C 48 %
345 08-09-2019 20:33:17 12.1 C 47 %
346 08-09-2019 20:44:18 12.1 C 46 %
347 08-09-2019 20:56:17 11.8 C 48 %
348 08-09-2019 21:06:18 11.7 C 50 %
349 08-09-2019 21:17:18 11.7 C 51 %
350 08-09-2019 21:28:18 11.6 C 52 %
Sensor: Nr:Datum:Temp:Feuchte:
Aussen-T/F 351 08-09-2019 21:39:17 11.5 C 52 %
352 08-09-2019 21:50:18 11.6 C 53 %
353 08-09-2019 22:01:17 11.5 C 52 %
354 08-09-2019 22:12:17 11.5 C 53 %
355 08-09-2019 22:24:17 11.5 C 53 %
356 08-09-2019 22:34:17 11.4 C 54 %
357 08-09-2019 22:45:18 11.5 C 55 %
358 08-09-2019 22:56:18 11.4 C 56 %
359 08-09-2019 23:07:17 11.4 C 56 %
360 08-09-2019 23:19:17 11.4 C 56 %
361 08-09-2019 23:29:17 11.4 C 57 %
362 08-09-2019 23:40:17 11.4 C 56 %
363 08-09-2019 23:52:17 11.3 C 57 %
364 09-09-2019 00:03:17 11.2 C 59 %
365 09-09-2019 00:14:17 11.1 C 60 %
366 09-09-2019 00:25:17 11.1 C 62 %
367 09-09-2019 00:35:18 11.1 C 63 %
368 09-09-2019 00:47:17 11 C 63 %
369 09-09-2019 00:58:17 11 C 63 %
370 09-09-2019 01:09:17 11 C 64 %
371 09-09-2019 01:20:17 11 C 64 %
372 09-09-2019 01:31:17 10.9 C 63 %
373 09-09-2019 01:42:17 10.8 C 63 %
374 09-09-2019 01:53:17 11 C 64 %
375 09-09-2019 02:04:18 11 C 64 %
Sensor: Nr:Datum:Temp:Feuchte:
Aussen-T/F 376 09-09-2019 02:15:17 11 C 63 %
377 09-09-2019 02:26:17 11 C 63 %
378 09-09-2019 02:37:17 10.9 C 63 %
379 09-09-2019 02:48:17 10.9 C 62 %
380 09-09-2019 02:59:17 10.9 C 62 %
381 09-09-2019 03:10:17 11 C 62 %
382 09-09-2019 03:21:18 11 C 62 %
383 09-09-2019 03:32:17 11 C 61 %
384 09-09-2019 03:43:17 11 C 60 %
385 09-09-2019 03:54:18 11 C 60 %
386 09-09-2019 04:05:17 10.9 C 60 %
387 09-09-2019 04:16:17 10.9 C 59 %
388 09-09-2019 04:27:17 10.9 C 59 %
389 09-09-2019 04:38:17 11 C 58 %
390 09-09-2019 04:49:18 11 C 57 %
391 09-09-2019 05:00:17 10.9 C 56 %
392 09-09-2019 05:11:17 10.9 C 57 %
393 09-09-2019 05:22:17 10.9 C 57 %
394 09-09-2019 05:33:17 10.9 C 57 %
395 09-09-2019 05:44:17 10.9 C 57 %
396 09-09-2019 05:55:17 10.9 C 56 %
397 09-09-2019 06:06:17 10.9 C 56 %
398 09-09-2019 06:17:17 10.9 C 55 %
399 09-09-2019 06:28:17 10.9 C 55 %
400 09-09-2019 06:39:18 10.9 C 54 %
Sensor: Nr:Datum:Temp:Feuchte:
Aussen-T/F 401 09-09-2019 06:50:17 10.9 C 55 %
402 09-09-2019 07:01:17 10.9 C 57 %
403 09-09-2019 07:12:18 10.9 C 58 %
404 09-09-2019 07:23:17 10.9 C 57 %
405 09-09-2019 07:34:18 10.9 C 57 %
406 09-09-2019 07:45:17 11 C 55 %
407 09-09-2019 07:56:17 10.9 C 55 %
408 09-09-2019 08:07:18 10.9 C 54 %
409 09-09-2019 08:18:17 10.9 C 54 %
410 09-09-2019 08:29:17 10.9 C 54 %
411 09-09-2019 08:40:17 11 C 53 %
412 09-09-2019 08:51:17 11.1 C 53 %
413 09-09-2019 09:02:18 11.4 C 50 %
414 09-09-2019 09:13:18 11.6 C 49 %
415 09-09-2019 09:24:17 11.7 C 46 %
416 09-09-2019 09:35:17 12.1 C 43 %
417 09-09-2019 09:46:17 12.2 C 41 %
418 09-09-2019 09:57:17 12.1 C 40 %
419 09-09-2019 10:08:17 11.8 C 42 %
420 09-09-2019 10:19:18 11.5 C 45 %
421 09-09-2019 10:30:17 11.9 C 47 %
422 09-09-2019 10:41:17 12.1 C 46 %
423 09-09-2019 10:52:18 12.4 C 46 %
424 09-09-2019 11:03:17 13 C 44 %
425 09-09-2019 11:14:17 13.1 C 40 %
Sensor: Nr:Datum:Temp:Feuchte:
Aussen-T/F 426 09-09-2019 11:25:17 13.4 C 36 %
427 09-09-2019 11:36:17 13.5 C 33 %
428 09-09-2019 11:47:18 14 C 32 %
429 09-09-2019 11:58:18 14.3 C 32 %
430 09-09-2019 12:09:17 14.2 C 32 %
431 09-09-2019 12:20:17 13.8 C 32 %
432 09-09-2019 12:31:17 13.8 C 32 %
433 09-09-2019 12:42:17 14.3 C 32 %
434 09-09-2019 12:53:18 15.4 C 30 %
435 09-09-2019 13:04:17 15.5 C 29 %
436 09-09-2019 13:15:18 15.8 C 28 %
437 09-09-2019 13:26:18 16.2 C 27 %
438 09-09-2019 13:37:17 15 C 28 %
439 09-09-2019 13:48:18 15.8 C 26 %
440 09-09-2019 13:59:18 16 C 25 %
441 09-09-2019 14:10:17 16.2 C 25 %
442 09-09-2019 14:21:18 15.4 C 23 %
443 09-09-2019 14:32:17 16 C 25 %
444 09-09-2019 14:43:17 15.5 C 24 %
445 09-09-2019 14:54:18 15.5 C 25 %
446 09-09-2019 15:05:17 15.4 C 25 %
447 09-09-2019 15:16:17 15.4 C 27 %
448 09-09-2019 15:27:17 16 C 25 %
449 09-09-2019 15:38:17 16.4 C 25 %
450 09-09-2019 15:49:17 17.1 C 22 %
Sensor: Nr:Datum:Temp:Feuchte:
Aussen-T/F 451 09-09-2019 16:00:17 16.5 C 23 %
452 09-09-2019 16:11:17 16.3 C 23 %
453 09-09-2019 16:22:17 16 C 25 %
454 09-09-2019 16:46:17 30.3 C 33 %
455 09-09-2019 16:49:17 30.3 C 33 %
456 09-09-2019 16:52:17 30.3 C 33 %
457 09-09-2019 16:55:17 30.3 C 33 %
458 09-09-2019 16:58:18 30.3 C 33 %
459 09-09-2019 17:01:17 30.3 C 33 %
460 09-09-2019 17:04:17 30.3 C 33 %
461 09-09-2019 17:07:17 30.3 C 33 %
462 09-09-2019 17:10:17 30.3 C 33 %
463 09-09-2019 17:13:17 30.3 C 33 %
464 09-09-2019 17:16:17 30.3 C 33 %
465 09-09-2019 17:19:17 30.3 C 33 %
466 09-09-2019 17:22:17 30.3 C 33 %
467 09-09-2019 17:25:17 30.3 C 33 %
468 09-09-2019 17:28:17 30.3 C 33 %
469 09-09-2019 17:31:18 30.3 C 33 %
470 09-09-2019 17:34:18 30.3 C 33 %
471 09-09-2019 17:37:18 30.3 C 33 %
472 09-09-2019 17:40:18 30.3 C 33 %
473 09-09-2019 17:43:18 30.3 C 33 %
474 09-09-2019 17:46:17 30.3 C 33 %
475 09-09-2019 17:49:17 30.3 C 33 %
Sensor: Nr:Datum:Temp:Feuchte:
Aussen-T/F 476 09-09-2019 17:52:17 30.3 C 33 %
477 09-09-2019 17:55:17 30.3 C 33 %
478 09-09-2019 17:58:17 30.3 C 33 %
479 09-09-2019 18:14:17 30.3 C 33 %
480 09-09-2019 18:24:17 16.8 C 20 %
481 09-09-2019 18:34:17 16.4 C 20 %
482 09-09-2019 18:44:18 16 C 20 %
483 09-09-2019 18:54:17 15 C 20 %
484 09-09-2019 19:04:18 14.2 C 20 %
485 09-09-2019 19:14:18 13.6 C 20 %
486 09-09-2019 19:24:17 13.1 C 20 %
487 09-09-2019 19:34:18 12.7 C 20 %
488 09-09-2019 19:44:18 12 C 20 %
489 09-09-2019 19:54:17 11.9 C 20 %
490 09-09-2019 20:04:18 11.8 C 20 %
491 09-09-2019 20:14:18 11.5 C 20 %
492 09-09-2019 20:24:17 11.5 C 20 %
493 09-09-2019 20:34:17 11.1 C 20 %
494 09-09-2019 20:44:17 10.8 C 20 %
495 09-09-2019 20:54:17 10.6 C 20 %
496 09-09-2019 21:04:17 10.3 C 20 %
497 09-09-2019 21:14:17 10 C 20 %
498 09-09-2019 21:24:17 10.4 C 20 %
499 09-09-2019 21:34:17 10 C 20 %
500 09-09-2019 21:44:17 9.9 C 20 %
Sensor: Nr:Datum:Temp:Feuchte:
Aussen-T/F 501 09-09-2019 21:54:17 9.6 C 20 %
502 09-09-2019 22:04:17 9.3 C 20 %
503 09-09-2019 22:14:17 9.5 C 20 %
504 09-09-2019 22:24:18 9.5 C 20 %
505 09-09-2019 22:34:17 9.1 C 20 %
506 09-09-2019 22:44:17 9 C 20 %
507 09-09-2019 22:54:18 8.8 C 21 %
508 09-09-2019 23:04:17 8.8 C 23 %
509 09-09-2019 23:14:17 8.7 C 23 %
510 09-09-2019 23:24:17 8.7 C 25 %
511 09-09-2019 23:34:17 8.5 C 25 %
512 09-09-2019 23:44:17 8.2 C 25 %
513 09-09-2019 23:54:17 8.1 C 25 %
514 10-09-2019 00:04:17 7.9 C 25 %
515 10-09-2019 00:14:17 8 C 25 %
516 10-09-2019 00:24:17 7.9 C 25 %
517 10-09-2019 00:34:17 8.1 C 26 %
518 10-09-2019 00:44:17 8 C 26 %
519 10-09-2019 00:54:17 8 C 26 %
520 10-09-2019 01:04:17 7.8 C 26 %
521 10-09-2019 01:14:17 7.7 C 26 %
522 10-09-2019 01:24:17 7.8 C 26 %
523 10-09-2019 01:34:17 7.8 C 27 %
524 10-09-2019 01:44:17 7.7 C 26 %
525 10-09-2019 01:54:17 7.6 C 26 %
Sensor: Nr:Datum:Temp:Feuchte:
Aussen-T/F 526 10-09-2019 02:04:18 7.5 C 26 %
527 10-09-2019 02:14:18 7.4 C 26 %
528 10-09-2019 02:24:17 7.8 C 27 %
529 10-09-2019 02:34:17 8 C 27 %
530 10-09-2019 02:44:17 7.9 C 27 %
531 10-09-2019 02:54:17 8.1 C 28 %
532 10-09-2019 03:04:17 8.1 C 27 %
533 10-09-2019 03:14:17 8.1 C 27 %
534 10-09-2019 03:24:17 7.9 C 27 %
535 10-09-2019 03:34:17 8.1 C 28 %
536 10-09-2019 03:44:17 8.2 C 28 %
537 10-09-2019 03:54:17 8.2 C 28 %
538 10-09-2019 04:04:18 8.2 C 28 %
539 10-09-2019 04:14:18 8.2 C 28 %
540 10-09-2019 04:24:17 8.2 C 28 %
541 10-09-2019 04:34:17 8.2 C 28 %
542 10-09-2019 04:44:17 8.2 C 28 %
543 10-09-2019 04:54:17 8.2 C 28 %
544 10-09-2019 05:04:17 8.1 C 28 %
545 10-09-2019 05:14:17 8.1 C 28 %
546 10-09-2019 05:24:17 8 C 28 %
547 10-09-2019 05:34:17 8 C 28 %
548 10-09-2019 05:44:17 7.9 C 28 %
549 10-09-2019 05:54:17 7.9 C 28 %
550 10-09-2019 06:04:18 7.8 C 27 %
Sensor: Nr:Datum:Temp:Feuchte:
Aussen-T/F 551 10-09-2019 06:14:18 7.7 C 27 %
552 10-09-2019 06:24:17 7.8 C 28 %
553 10-09-2019 06:34:17 7.8 C 28 %
554 10-09-2019 06:44:17 7.8 C 28 %
555 10-09-2019 06:54:18 7.9 C 28 %
556 10-09-2019 07:04:17 7.8 C 28 %
557 10-09-2019 07:14:17 7.7 C 28 %
558 10-09-2019 07:24:17 7.8 C 28 %
559 10-09-2019 07:34:17 7.7 C 27 %
560 10-09-2019 07:44:17 7.8 C 28 %
561 10-09-2019 07:54:17 8 C 27 %
562 10-09-2019 08:04:17 8 C 27 %
563 10-09-2019 08:14:18 7.8 C 26 %
564 10-09-2019 08:24:17 7.8 C 26 %
565 10-09-2019 08:34:18 8 C 26 %
566 10-09-2019 08:44:18 8.1 C 26 %
567 10-09-2019 08:54:17 8.2 C 26 %
568 10-09-2019 09:04:18 8.3 C 26 %
569 10-09-2019 09:14:18 8.5 C 26 %
570 10-09-2019 09:24:17 8.7 C 25 %
571 10-09-2019 09:34:17 8.7 C 25 %
572 10-09-2019 09:44:17 9.1 C 23 %
573 10-09-2019 09:54:17 9.1 C 20 %
574 10-09-2019 10:04:17 9.7 C 21 %
575 10-09-2019 10:14:17 10.4 C 20 %
Sensor: Nr:Datum:Temp:Feuchte:
Aussen-T/F 576 10-09-2019 10:24:17 10 C 20 %
577 10-09-2019 10:34:17 10 C 20 %
578 10-09-2019 10:44:17 10.3 C 20 %
579 10-09-2019 10:54:17 10.4 C 20 %
580 10-09-2019 11:04:17 10.1 C 20 %
581 10-09-2019 11:14:17 9.9 C 20 %
582 10-09-2019 11:24:17 10.2 C 20 %
583 10-09-2019 11:34:17 10.7 C 20 %
584 10-09-2019 11:44:17 10.9 C 20 %
585 10-09-2019 11:54:17 11.1 C 20 %
586 10-09-2019 12:04:17 11.7 C 20 %
587 10-09-2019 12:14:17 11.7 C 20 %
588 10-09-2019 12:24:17 12.2 C 20 %
589 10-09-2019 12:34:17 12.6 C 20 %
590 10-09-2019 12:44:17 13 C 20 %
591 10-09-2019 12:54:17 13.5 C 20 %
592 10-09-2019 13:04:17 14.2 C 20 %
593 10-09-2019 13:14:18 14.5 C 20 %
594 10-09-2019 13:24:17 14.8 C 20 %
595 10-09-2019 13:34:17 15.2 C 20 %
596 10-09-2019 13:44:17 15.9 C 20 %
597 10-09-2019 13:54:18 16.1 C 20 %
598 10-09-2019 14:04:17 16.8 C 20 %
599 10-09-2019 14:14:17 18.8 C 20 %
600 10-09-2019 14:24:17 19.8 C 20 %
Sensor: Nr:Datum:Temp:Feuchte:
Aussen-T/F 601 10-09-2019 14:34:17 22.9 C 20 %
602 10-09-2019 14:44:17 23.9 C 20 %
603 10-09-2019 14:54:17 22.9 C 20 %
604 10-09-2019 15:04:17 24.8 C 20 %
605 10-09-2019 15:14:17 25.9 C 20 %
606 10-09-2019 15:24:17 26.9 C 20 %
607 10-09-2019 15:34:18 26.9 C 20 %
608 10-09-2019 15:44:18 26.4 C 20 %
609 10-09-2019 15:54:17 26.3 C 20 %
610 10-09-2019 16:04:17 23.7 C 20 %
611 10-09-2019 16:14:17 23.5 C 20 %
612 10-09-2019 16:24:18 24.1 C 20 %
613 10-09-2019 16:34:17 24.9 C 20 %
614 10-09-2019 16:44:17 26.8 C 20 %
615 10-09-2019 16:54:17 21.5 C 20 %
616 10-09-2019 17:04:18 20 C 20 %
617 10-09-2019 17:14:18 20.7 C 20 %
618 10-09-2019 17:24:17 17.8 C 20 %
619 10-09-2019 17:34:17 17 C 20 %
620 10-09-2019 17:44:17 17.7 C 20 %
621 10-09-2019 17:54:18 17.8 C 20 %
622 10-09-2019 18:04:17 18.3 C 20 %
623 10-09-2019 18:14:17 18.3 C 20 %
624 10-09-2019 18:24:17 17.7 C 20 %
625 10-09-2019 18:34:17 17.3 C 20 %
Sensor: Nr:Datum:Temp:Feuchte:
Aussen-T/F 626 10-09-2019 18:44:17 16.9 C 20 %
627 10-09-2019 18:54:18 16.7 C 20 %
628 10-09-2019 19:04:17 16 C 20 %
629 10-09-2019 19:14:17 15.4 C 20 %
630 10-09-2019 19:24:17 15.2 C 20 %
631 10-09-2019 19:34:17 14.8 C 20 %
632 10-09-2019 19:44:17 14.3 C 20 %
633 10-09-2019 19:54:18 14 C 20 %
634 10-09-2019 20:04:17 13.8 C 20 %
635 10-09-2019 20:14:17 13.4 C 20 %
636 10-09-2019 20:24:17 12.9 C 20 %
637 10-09-2019 20:34:17 12.5 C 20 %
638 10-09-2019 20:44:17 12.2 C 20 %
639 10-09-2019 20:54:17 11.9 C 20 %
640 10-09-2019 21:04:17 11.4 C 20 %
641 10-09-2019 21:14:17 11.1 C 20 %
642 10-09-2019 21:24:17 11.1 C 20 %
643 10-09-2019 21:34:17 10.9 C 20 %
644 10-09-2019 21:44:17 10.6 C 20 %
645 10-09-2019 21:54:17 10.3 C 20 %
646 10-09-2019 22:04:17 10 C 20 %
647 10-09-2019 22:14:17 9.9 C 20 %
648 10-09-2019 22:24:17 9.8 C 20 %
649 10-09-2019 22:34:17 9.7 C 20 %
650 10-09-2019 22:44:17 9.7 C 20 %
Sensor: Nr:Datum:Temp:Feuchte:
Aussen-T/F 651 10-09-2019 22:54:18 9.5 C 20 %
652 10-09-2019 23:04:17 9.3 C 20 %
653 10-09-2019 23:14:17 9.1 C 20 %
654 10-09-2019 23:24:18 9 C 20 %
655 10-09-2019 23:34:17 9.1 C 20 %
656 10-09-2019 23:44:17 8.9 C 20 %
657 10-09-2019 23:54:17 8.9 C 20 %
658 11-09-2019 00:04:17 8.9 C 20 %
659 11-09-2019 00:14:17 8.8 C 20 %
660 11-09-2019 00:24:17 8.8 C 20 %
661 11-09-2019 00:34:17 8.7 C 20 %
662 11-09-2019 00:44:17 8.5 C 20 %
663 11-09-2019 00:54:18 8.5 C 20 %
664 11-09-2019 01:04:17 8.4 C 20 %
665 11-09-2019 01:14:17 7.9 C 20 %
666 11-09-2019 01:24:18 7.8 C 20 %
667 11-09-2019 01:34:17 7.8 C 20 %
668 11-09-2019 01:44:17 7.5 C 20 %
669 11-09-2019 01:54:17 7.7 C 20 %
670 11-09-2019 02:04:17 7.6 C 20 %
671 11-09-2019 02:14:17 7.3 C 20 %
672 11-09-2019 02:24:17 7.3 C 20 %
673 11-09-2019 02:34:17 7.4 C 20 %
674 11-09-2019 02:44:17 7.2 C 20 %
675 11-09-2019 02:54:17 7.3 C 20 %
Sensor: Nr:Datum:Temp:Feuchte:
Aussen-T/F 676 11-09-2019 03:04:17 7 C 20 %
677 11-09-2019 03:14:17 7 C 20 %
678 11-09-2019 03:24:17 7 C 20 %
679 11-09-2019 03:34:17 6.9 C 21 %
680 11-09-2019 03:44:17 7.1 C 21 %
681 11-09-2019 03:54:17 6.9 C 23 %
682 11-09-2019 04:04:17 6.7 C 21 %
683 11-09-2019 04:14:17 6.6 C 23 %
684 11-09-2019 04:24:17 6.4 C 23 %
685 11-09-2019 04:34:17 6.4 C 23 %
686 11-09-2019 04:44:17 6.5 C 25 %
687 11-09-2019 04:54:18 6.4 C 25 %
688 11-09-2019 05:04:17 6.4 C 25 %
689 11-09-2019 05:14:17 6.3 C 25 %
690 11-09-2019 05:24:17 6.3 C 25 %
691 11-09-2019 05:34:17 6.4 C 25 %
692 11-09-2019 05:44:17 6.4 C 25 %
693 11-09-2019 05:54:18 6.3 C 25 %
694 11-09-2019 06:04:17 6.1 C 25 %
695 11-09-2019 06:14:17 6.1 C 25 %
696 11-09-2019 06:24:18 6 C 25 %
697 11-09-2019 06:34:17 6.1 C 25 %
698 11-09-2019 06:44:17 6.1 C 25 %
699 11-09-2019 06:54:18 5.8 C 25 %
700 11-09-2019 07:04:17 5.8 C 25 %
Sensor: Nr:Datum:Temp:Feuchte:
Aussen-T/F 701 11-09-2019 07:14:17 5.9 C 25 %
702 11-09-2019 07:24:18 6 C 25 %
703 11-09-2019 07:34:17 6.3 C 26 %
704 11-09-2019 07:44:17 6.3 C 25 %
705 11-09-2019 07:54:17 6.3 C 25 %
706 11-09-2019 08:04:17 7.3 C 25 %
707 11-09-2019 08:14:17 7.9 C 21 %
708 11-09-2019 08:24:18 8.2 C 20 %
709 11-09-2019 08:34:17 8.8 C 20 %
710 11-09-2019 08:44:17 9 C 20 %
711 11-09-2019 08:54:18 9.6 C 20 %
712 11-09-2019 09:04:17 9.8 C 20 %
713 11-09-2019 09:14:17 10.2 C 20 %
714 11-09-2019 09:24:17 10.1 C 20 %
715 11-09-2019 09:34:17 9.9 C 20 %
716 11-09-2019 09:44:17 9.6 C 20 %
717 11-09-2019 09:54:18 9.6 C 20 %
718 11-09-2019 10:04:17 9.7 C 20 %
719 11-09-2019 10:14:17 10.5 C 20 %
720 11-09-2019 10:24:17 11.1 C 20 %
721 11-09-2019 10:34:17 11.5 C 20 %
722 11-09-2019 10:44:17 11.6 C 20 %
723 11-09-2019 10:54:18 12.1 C 20 %
724 11-09-2019 11:04:17 12.5 C 20 %
725 11-09-2019 11:14:17 12.8 C 20 %
Sensor: Nr:Datum:Temp:Feuchte:
Aussen-T/F 726 11-09-2019 11:24:17 13.5 C 20 %
727 11-09-2019 11:34:17 14.1 C 20 %
728 11-09-2019 11:44:17 15.1 C 20 %
729 11-09-2019 11:54:18 15.8 C 20 %
730 11-09-2019 12:04:17 16.4 C 20 %
731 11-09-2019 12:14:17 17.3 C 20 %
732 11-09-2019 12:24:18 18.1 C 20 %
733 11-09-2019 12:34:17 18.4 C 20 %
734 11-09-2019 12:44:17 19 C 20 %
735 11-09-2019 12:54:18 18.9 C 20 %
736 11-09-2019 13:04:17 19.6 C 20 %
737 11-09-2019 13:14:17 20.1 C 20 %
738 11-09-2019 13:24:18 20.7 C 20 %
739 11-09-2019 13:34:17 20.9 C 20 %
740 11-09-2019 13:44:17 20.9 C 20 %
741 11-09-2019 13:54:17 20.6 C 20 %
742 11-09-2019 14:04:18 21.2 C 20 %
743 11-09-2019 14:14:18 21.4 C 20 %
744 11-09-2019 14:24:17 22.2 C 20 %
745 11-09-2019 14:34:18 22.8 C 20 %
746 11-09-2019 14:44:18 23.9 C 20 %
747 11-09-2019 14:54:17 22.9 C 20 %
748 11-09-2019 15:04:18 22.8 C 20 %
749 11-09-2019 15:14:18 21.3 C 20 %
750 11-09-2019 15:24:17 21.2 C 20 %
Sensor: Nr:Datum:Temp:Feuchte:
Aussen-T/F 751 11-09-2019 15:34:17 21.1 C 20 %
752 11-09-2019 15:44:17 21 C 20 %
753 11-09-2019 15:54:17 21.2 C 20 %
754 11-09-2019 16:04:17 20.8 C 20 %
755 11-09-2019 16:14:17 20.6 C 20 %
756 11-09-2019 16:24:18 20.6 C 20 %
757 11-09-2019 16:34:17 19.1 C 20 %
758 11-09-2019 16:44:17 19 C 20 %
759 11-09-2019 16:54:17 19.4 C 20 %
760 11-09-2019 17:04:17 19.6 C 20 %
761 11-09-2019 17:14:17 19.7 C 20 %
762 11-09-2019 17:24:17 19.6 C 20 %
763 11-09-2019 17:34:17 18.9 C 20 %
764 11-09-2019 17:44:18 18.8 C 20 %
765 11-09-2019 17:54:17 19 C 20 %
766 11-09-2019 18:04:17 19 C 20 %
767 11-09-2019 18:14:17 18.9 C 20 %
768 11-09-2019 18:24:17 18.2 C 20 %
769 11-09-2019 18:34:18 18.1 C 20 %
770 11-09-2019 18:44:18 17.5 C 20 %
771 11-09-2019 18:54:17 17.5 C 20 %
772 11-09-2019 19:04:18 17.6 C 20 %
773 11-09-2019 19:14:18 17.7 C 20 %
774 11-09-2019 19:24:17 17.7 C 20 %
775 11-09-2019 19:34:18 17.2 C 20 %
Sensor: Nr:Datum:Temp:Feuchte:
Aussen-T/F 776 11-09-2019 19:44:18 17 C 20 %
777 11-09-2019 19:54:17 16.7 C 20 %
778 11-09-2019 20:04:17 16.5 C 20 %
779 11-09-2019 20:14:17 16 C 20 %
780 11-09-2019 20:24:17 16.5 C 20 %
781 11-09-2019 20:34:17 16.3 C 20 %
782 11-09-2019 20:44:17 16.6 C 20 %
783 11-09-2019 20:54:17 16.4 C 20 %
784 11-09-2019 21:04:17 16.3 C 20 %
785 11-09-2019 21:14:17 16.2 C 20 %
786 11-09-2019 21:24:17 16.3 C 20 %
787 11-09-2019 21:34:17 16.3 C 20 %
788 11-09-2019 21:44:17 16.3 C 20 %
789 11-09-2019 21:54:17 16.7 C 20 %
790 11-09-2019 22:04:18 16.6 C 20 %
791 11-09-2019 22:14:18 17 C 20 %
792 11-09-2019 22:24:17 17.1 C 20 %
793 11-09-2019 22:34:18 15.6 C 20 %
794 11-09-2019 22:44:18 15.4 C 20 %
795 11-09-2019 22:54:17 15.5 C 20 %
796 11-09-2019 23:04:17 15.6 C 20 %
797 11-09-2019 23:14:17 15.6 C 20 %
798 11-09-2019 23:24:17 15.5 C 20 %
799 11-09-2019 23:34:17 15.2 C 20 %
800 11-09-2019 23:44:17 15 C 20 %
Sensor: Nr:Datum:Temp:Feuchte:
Aussen-T/F 801 11-09-2019 23:54:17 15.1 C 20 %
802 12-09-2019 00:04:17 15.1 C 20 %
803 12-09-2019 00:14:17 15.4 C 20 %
804 12-09-2019 00:24:18 15.8 C 20 %
805 12-09-2019 00:34:17 16.1 C 20 %
806 12-09-2019 00:44:17 16.5 C 20 %
807 12-09-2019 00:54:17 16.9 C 20 %
808 12-09-2019 01:04:17 16.6 C 20 %
809 12-09-2019 01:14:17 16 C 20 %
810 12-09-2019 01:24:17 15.9 C 20 %
811 12-09-2019 01:34:17 16.2 C 20 %
812 12-09-2019 01:44:17 16.5 C 20 %
813 12-09-2019 01:54:18 17.2 C 20 %
814 12-09-2019 02:04:17 17.6 C 20 %
815 12-09-2019 02:14:17 17.8 C 20 %
816 12-09-2019 02:24:18 17.9 C 20 %
817 12-09-2019 02:34:17 18 C 20 %
818 12-09-2019 02:44:17 17.7 C 20 %
819 12-09-2019 02:54:18 17.7 C 20 %
820 12-09-2019 03:04:17 17.5 C 20 %
821 12-09-2019 03:14:17 17.4 C 20 %
822 12-09-2019 03:24:18 17.5 C 20 %
823 12-09-2019 03:34:17 17.5 C 20 %
824 12-09-2019 03:44:17 17.6 C 20 %
825 12-09-2019 03:54:18 17.5 C 20 %
Sensor: Nr:Datum:Temp:Feuchte:
Aussen-T/F 826 12-09-2019 04:04:17 17.4 C 20 %
827 12-09-2019 04:14:17 17.3 C 20 %
828 12-09-2019 04:24:18 17.2 C 20 %
829 12-09-2019 04:34:17 17.3 C 20 %
830 12-09-2019 04:44:17 17.1 C 20 %
831 12-09-2019 04:54:18 16.9 C 20 %
832 12-09-2019 05:04:17 17 C 20 %
833 12-09-2019 05:14:17 17.1 C 20 %
834 12-09-2019 05:24:17 17.4 C 20 %
835 12-09-2019 05:34:17 17.2 C 20 %
836 12-09-2019 05:44:17 17.2 C 20 %
837 12-09-2019 05:54:18 17.2 C 20 %
838 12-09-2019 06:04:17 17.1 C 20 %
839 12-09-2019 06:14:17 17 C 20 %
840 12-09-2019 06:24:17 16.9 C 20 %
841 12-09-2019 06:34:17 16.7 C 20 %
842 12-09-2019 06:44:17 16.6 C 20 %
843 12-09-2019 06:54:17 15.8 C 20 %
844 12-09-2019 07:04:17 15.6 C 20 %
845 12-09-2019 07:14:17 16 C 20 %
846 12-09-2019 07:24:17 16.2 C 20 %
847 12-09-2019 07:34:18 16.2 C 20 %
848 12-09-2019 07:44:18 16.4 C 20 %
849 12-09-2019 07:54:17 16.6 C 20 %
850 12-09-2019 08:04:18 16.8 C 20 %
Sensor: Nr:Datum:Temp:Feuchte:
Aussen-T/F 851 12-09-2019 08:14:18 16.7 C 20 %
852 12-09-2019 08:24:17 17.1 C 20 %
853 12-09-2019 08:34:18 17.2 C 20 %
854 12-09-2019 08:44:18 17.3 C 20 %
855 12-09-2019 08:54:17 17.4 C 20 %
856 12-09-2019 09:04:17 17.5 C 20 %
857 12-09-2019 09:14:17 17.4 C 20 %
858 12-09-2019 09:24:17 17.3 C 20 %
859 12-09-2019 09:34:17 17.5 C 20 %
860 12-09-2019 09:44:17 17.9 C 20 %
861 12-09-2019 09:54:17 17.8 C 20 %
862 12-09-2019 10:04:18 18 C 20 %
863 12-09-2019 10:14:18 18.1 C 20 %
864 12-09-2019 10:24:17 18.6 C 20 %
865 12-09-2019 10:34:17 18.7 C 20 %
866 12-09-2019 10:44:17 18.5 C 20 %
867 12-09-2019 10:54:17 18.8 C 20 %
868 12-09-2019 11:04:18 19.2 C 20 %
869 12-09-2019 11:14:18 19.3 C 20 %
870 12-09-2019 11:24:17 19.3 C 20 %
871 12-09-2019 11:34:17 20.3 C 20 %
872 12-09-2019 11:44:17 21.2 C 20 %
873 12-09-2019 11:54:17 20.9 C 20 %
874 12-09-2019 12:04:18 21 C 20 %
875 12-09-2019 12:14:18 21.3 C 20 %
Sensor: Nr:Datum:Temp:Feuchte:
Aussen-T/F 876 12-09-2019 12:24:17 20.8 C 20 %
877 12-09-2019 12:34:17 20.9 C 20 %
878 12-09-2019 12:44:17 20.5 C 20 %
879 12-09-2019 12:54:17 20.3 C 20 %
880 12-09-2019 13:04:17 21 C 20 %
881 12-09-2019 13:14:17 21.1 C 20 %
882 12-09-2019 13:24:17 21.6 C 20 %
883 12-09-2019 13:34:17 21.6 C 20 %
884 12-09-2019 13:44:18 22.1 C 20 %
885 12-09-2019 13:54:17 22.1 C 20 %
886 12-09-2019 14:04:17 21.6 C 20 %
887 12-09-2019 14:14:17 21.6 C 20 %
888 12-09-2019 14:24:17 21.4 C 20 %
889 12-09-2019 14:34:17 21.1 C 20 %
890 12-09-2019 14:44:17 21.1 C 20 %
891 12-09-2019 14:54:18 20.9 C 20 %
892 12-09-2019 15:04:17 25.7 C 20 %
893 12-09-2019 15:14:17 28.7 C 20 %
894 12-09-2019 15:24:17 24.5 C 20 %
895 12-09-2019 15:34:17 23.4 C 20 %
896 12-09-2019 15:44:17 22.6 C 20 %
897 12-09-2019 15:54:17 22.4 C 20 %
898 12-09-2019 16:04:17 22.6 C 20 %
899 12-09-2019 16:14:17 24.8 C 20 %
900 12-09-2019 16:24:18 29.1 C 20 %
Sensor: Nr:Datum:Temp:Feuchte:
Aussen-T/F 901 12-09-2019 16:34:17 24.3 C 20 %
902 12-09-2019 16:44:17 26.3 C 20 %
903 12-09-2019 16:54:17 25 C 20 %
904 12-09-2019 17:04:17 26.9 C 20 %
905 12-09-2019 17:14:17 26.7 C 20 %
906 12-09-2019 17:24:17 25.7 C 20 %
907 12-09-2019 17:34:17 26.9 C 20 %
908 12-09-2019 17:44:17 27.1 C 20 %
909 12-09-2019 17:54:17 24.1 C 20 %
910 12-09-2019 18:04:18 24.3 C 20 %
911 12-09-2019 18:14:18 23.8 C 20 %
912 12-09-2019 18:24:18 23.7 C 20 %
913 12-09-2019 18:34:17 23.4 C 20 %
914 12-09-2019 18:44:17 23.1 C 20 %
915 12-09-2019 18:54:17 22.9 C 20 %
916 12-09-2019 19:04:17 22.1 C 20 %
917 12-09-2019 19:14:17 21.6 C 20 %
918 12-09-2019 19:24:17 21.3 C 20 %
919 12-09-2019 19:34:17 20.5 C 20 %
920 12-09-2019 19:44:17 19.9 C 20 %
921 12-09-2019 19:54:17 19.4 C 20 %
922 12-09-2019 20:04:17 18.9 C 20 %
923 12-09-2019 20:14:17 18.8 C 20 %
924 12-09-2019 20:24:17 18.5 C 20 %
925 12-09-2019 20:34:18 18.4 C 20 %
Sensor: Nr:Datum:Temp:Feuchte:
Aussen-T/F 926 12-09-2019 20:44:18 18.3 C 20 %
927 12-09-2019 20:54:17 18.3 C 20 %
928 12-09-2019 21:04:18 18.2 C 20 %
929 12-09-2019 21:14:18 18.5 C 20 %
930 12-09-2019 21:24:17 18.5 C 20 %
931 12-09-2019 21:34:18 18.7 C 20 %
932 12-09-2019 21:44:18 19 C 20 %
933 12-09-2019 21:54:17 18.9 C 20 %
934 12-09-2019 22:04:18 18.9 C 20 %
935 12-09-2019 22:14:18 18.6 C 20 %
936 12-09-2019 22:24:17 18.6 C 20 %
937 12-09-2019 22:34:18 18.3 C 20 %
938 12-09-2019 22:44:18 17.9 C 20 %
939 12-09-2019 22:54:17 17.2 C 20 %
940 12-09-2019 23:04:17 16.8 C 20 %
941 12-09-2019 23:14:17 16.5 C 20 %
942 12-09-2019 23:24:18 16.3 C 20 %
943 12-09-2019 23:34:17 16.1 C 20 %
944 12-09-2019 23:44:17 16 C 20 %
945 12-09-2019 23:54:18 15.7 C 20 %
946 13-09-2019 00:04:17 15.6 C 20 %
947 13-09-2019 00:14:17 15.4 C 20 %
948 13-09-2019 00:24:18 15.3 C 20 %
949 13-09-2019 00:34:17 15.1 C 20 %
950 13-09-2019 00:44:17 15.4 C 20 %
Sensor: Nr:Datum:Temp:Feuchte:
Aussen-T/F 951 13-09-2019 00:54:17 15.4 C 20 %
952 13-09-2019 01:04:17 15.3 C 20 %
953 13-09-2019 01:14:17 15.5 C 20 %
954 13-09-2019 01:24:17 15.6 C 20 %
955 13-09-2019 01:34:17 15.4 C 20 %
956 13-09-2019 01:44:17 15.5 C 20 %
957 13-09-2019 01:54:18 15.1 C 20 %
958 13-09-2019 02:04:17 15 C 20 %
959 13-09-2019 02:14:17 15.5 C 20 %
960 13-09-2019 02:24:17 15.1 C 20 %
961 13-09-2019 02:34:17 15 C 20 %
962 13-09-2019 02:44:18 14.9 C 20 %
963 13-09-2019 02:54:17 14.7 C 20 %
964 13-09-2019 03:04:17 14.7 C 20 %
965 13-09-2019 03:14:17 14.6 C 20 %
966 13-09-2019 03:24:17 15 C 20 %
967 13-09-2019 03:34:17 15.2 C 20 %
968 13-09-2019 03:44:17 15.4 C 20 %
969 13-09-2019 03:54:17 15.5 C 20 %
970 13-09-2019 04:04:17 15.6 C 20 %
971 13-09-2019 04:14:17 15.8 C 20 %
972 13-09-2019 04:24:17 15.6 C 20 %
973 13-09-2019 04:34:17 15.9 C 20 %
974 13-09-2019 04:44:17 15.9 C 20 %
975 13-09-2019 04:54:18 15.9 C 20 %
Sensor: Nr:Datum:Temp:Feuchte:
Aussen-T/F 976 13-09-2019 05:04:17 16.3 C 20 %
977 13-09-2019 05:14:17 16.4 C 20 %
978 13-09-2019 05:24:17 16.4 C 20 %
979 13-09-2019 05:34:17 16.3 C 20 %
980 13-09-2019 05:44:17 16.1 C 20 %
981 13-09-2019 05:54:17 16.1 C 20 %
982 13-09-2019 06:04:17 16.1 C 20 %
983 13-09-2019 06:14:17 16.1 C 20 %
984 13-09-2019 06:24:17 16.1 C 20 %
985 13-09-2019 06:34:17 16.3 C 20 %
986 13-09-2019 06:44:17 16.5 C 20 %
987 13-09-2019 06:54:18 16.6 C 20 %
988 13-09-2019 07:04:17 16.4 C 20 %
989 13-09-2019 07:14:17 16.4 C 20 %
990 13-09-2019 07:24:17 16.4 C 20 %
991 13-09-2019 07:34:17 16.6 C 20 %
992 13-09-2019 07:44:18 16.6 C 20 %
993 13-09-2019 07:54:17 16.7 C 20 %
994 13-09-2019 08:04:17 16.8 C 20 %
995 13-09-2019 08:14:17 16.9 C 20 %
996 13-09-2019 08:24:17 17.1 C 20 %
997 13-09-2019 08:34:17 17 C 20 %
998 13-09-2019 08:44:17 16.7 C 20 %
999 13-09-2019 08:54:18 17.2 C 20 %
1000 13-09-2019 09:04:17 17.2 C 20 %
Sensor: Nr:Datum:Temp:Feuchte:
Aussen-T/F 1001 13-09-2019 09:14:17 17.5 C 20 %
1002 13-09-2019 09:24:17 17.6 C 20 %
1003 13-09-2019 09:34:17 18.5 C 20 %
1004 13-09-2019 09:44:17 18.5 C 20 %
1005 13-09-2019 09:54:17 18.9 C 20 %
1006 13-09-2019 10:04:18 18.7 C 20 %
1007 13-09-2019 10:14:18 19.2 C 20 %
1008 13-09-2019 10:24:17 19.5 C 20 %
1009 13-09-2019 10:34:18 19.6 C 20 %
1010 13-09-2019 10:44:18 20.1 C 20 %
1011 13-09-2019 10:54:17 20.2 C 20 %
1012 13-09-2019 11:04:17 20.5 C 20 %
1013 13-09-2019 11:14:17 20.5 C 20 %
1014 13-09-2019 11:24:17 20.4 C 20 %
1015 13-09-2019 11:34:17 19.8 C 20 %
1016 13-09-2019 11:44:17 20.1 C 20 %
1017 13-09-2019 11:54:17 20.3 C 20 %
1018 13-09-2019 12:04:17 22.1 C 20 %
1019 13-09-2019 12:14:17 22.5 C 20 %
1020 13-09-2019 12:24:17 22.5 C 20 %
1021 13-09-2019 12:34:17 22.2 C 20 %
1022 13-09-2019 12:44:17 22.3 C 20 %
1023 13-09-2019 12:54:17 21.9 C 20 %
1024 13-09-2019 13:04:17 21.2 C 20 %
1025 13-09-2019 13:14:17 21.7 C 20 %
Sensor: Nr:Datum:Temp:Feuchte:
Aussen-T/F 1026 13-09-2019 13:24:17 21.5 C 20 %
1027 13-09-2019 13:34:17 21.6 C 20 %
1028 13-09-2019 13:44:17 21.4 C 20 %
1029 13-09-2019 13:54:18 21.9 C 20 %
1030 13-09-2019 14:04:17 22.6 C 20 %
1031 13-09-2019 14:14:17 21.9 C 20 %
1032 13-09-2019 14:24:17 21.8 C 20 %
1033 13-09-2019 14:34:17 21.8 C 20 %
1034 13-09-2019 14:44:17 22.5 C 20 %
1035 13-09-2019 14:54:17 21.5 C 20 %
1036 13-09-2019 15:04:17 21.2 C 20 %
1037 13-09-2019 15:14:17 22.3 C 20 %
1038 13-09-2019 15:24:17 22.4 C 20 %
1039 13-09-2019 15:34:17 21.7 C 20 %
1040 13-09-2019 15:44:17 21.5 C 20 %
1041 13-09-2019 15:54:17 20.6 C 20 %
1042 13-09-2019 16:04:17 20.2 C 20 %
1043 13-09-2019 16:14:17 18.9 C 20 %
1044 13-09-2019 16:24:18 18.5 C 20 %
1045 13-09-2019 16:34:17 19.1 C 20 %
1046 13-09-2019 16:44:17 19.1 C 20 %
1047 13-09-2019 16:54:18 19.1 C 20 %
1048 13-09-2019 17:04:17 19.1 C 20 %
1049 13-09-2019 17:14:17 19.2 C 20 %
1050 13-09-2019 17:24:17 19.6 C 20 %
Sensor: Nr:Datum:Temp:Feuchte:
Aussen-T/F 1051 13-09-2019 17:34:17 19.6 C 20 %
1052 13-09-2019 17:44:17 20.1 C 20 %
1053 13-09-2019 17:54:17 19.9 C 20 %
1054 13-09-2019 18:04:17 19.9 C 20 %
1055 13-09-2019 18:14:17 19.9 C 20 %
1056 13-09-2019 18:24:17 20 C 20 %
1057 13-09-2019 18:34:17 20 C 20 %
1058 13-09-2019 18:44:17 19.8 C 20 %
1059 13-09-2019 18:54:17 20 C 20 %
1060 13-09-2019 19:04:17 19.2 C 20 %
1061 13-09-2019 19:14:17 18.5 C 20 %
1062 13-09-2019 19:24:17 17.9 C 20 %
1063 13-09-2019 19:34:17 17.7 C 20 %
1064 13-09-2019 19:44:17 17.5 C 20 %
1065 13-09-2019 19:54:18 17.2 C 20 %
1066 13-09-2019 20:04:17 17.2 C 20 %
1067 13-09-2019 20:14:17 17.3 C 20 %
1068 13-09-2019 20:24:17 17.5 C 20 %
1069 13-09-2019 20:34:17 17.3 C 20 %
1070 13-09-2019 20:44:17 16.9 C 20 %
1071 13-09-2019 20:54:18 16.7 C 20 %
1072 13-09-2019 21:04:17 16.6 C 20 %
1073 13-09-2019 21:14:17 16.8 C 20 %
1074 13-09-2019 21:24:17 16.7 C 20 %
1075 13-09-2019 21:34:17 16.4 C 20 %
Sensor: Nr:Datum:Temp:Feuchte:
Aussen-T/F 1076 13-09-2019 21:44:17 16.3 C 20 %
1077 13-09-2019 21:54:18 16.1 C 20 %
1078 13-09-2019 22:04:17 16.2 C 20 %
1079 13-09-2019 22:14:17 16 C 20 %
1080 13-09-2019 22:24:18 15.8 C 20 %
1081 13-09-2019 22:34:17 15.5 C 20 %
1082 13-09-2019 22:44:17 15.3 C 21 %
1083 13-09-2019 22:54:17 15.2 C 21 %
1084 13-09-2019 23:04:17 14.8 C 21 %
1085 13-09-2019 23:14:17 14.8 C 22 %
1086 13-09-2019 23:24:18 14.6 C 22 %
1087 13-09-2019 23:34:17 14.8 C 23 %
1088 13-09-2019 23:44:17 15.3 C 23 %
1089 13-09-2019 23:54:17 15.2 C 23 %
1090 14-09-2019 00:04:17 15.2 C 22 %
1091 14-09-2019 00:14:17 15 C 22 %
1092 14-09-2019 00:24:17 15 C 22 %
1093 14-09-2019 00:34:17 14.7 C 23 %
1094 14-09-2019 00:44:17 14.6 C 23 %
1095 14-09-2019 00:54:17 14.5 C 23 %
1096 14-09-2019 01:04:17 14.4 C 24 %
1097 14-09-2019 01:14:17 14.1 C 23 %
1098 14-09-2019 01:24:17 14 C 23 %
1099 14-09-2019 01:34:17 13.7 C 24 %
1100 14-09-2019 01:44:17 13.5 C 23 %
Sensor: Nr:Datum:Temp:Feuchte:
Aussen-T/F 1101 14-09-2019 01:54:18 13.4 C 25 %
1102 14-09-2019 02:04:17 13 C 23 %
1103 14-09-2019 02:14:17 12.9 C 25 %
1104 14-09-2019 02:24:17 12.9 C 25 %
1105 14-09-2019 02:34:18 12.6 C 25 %
1106 14-09-2019 02:44:18 12.4 C 25 %
1107 14-09-2019 02:54:17 12.2 C 25 %
1108 14-09-2019 03:04:17 12.2 C 25 %
1109 14-09-2019 03:14:17 12.2 C 26 %
1110 14-09-2019 03:24:18 12 C 25 %
1111 14-09-2019 03:34:17 11.8 C 26 %
1112 14-09-2019 03:44:17 11.7 C 26 %
1113 14-09-2019 03:54:17 11.7 C 26 %
1114 14-09-2019 04:04:17 11.3 C 26 %
1115 14-09-2019 04:14:17 11.5 C 27 %
1116 14-09-2019 04:24:17 11.3 C 26 %
1117 14-09-2019 04:34:17 11.2 C 27 %
1118 14-09-2019 04:44:17 11.1 C 26 %
1119 14-09-2019 04:54:17 11 C 26 %
1120 14-09-2019 05:04:17 10.7 C 26 %
1121 14-09-2019 05:14:17 10.8 C 27 %
1122 14-09-2019 05:24:17 10.6 C 27 %
1123 14-09-2019 05:34:17 10.6 C 27 %
1124 14-09-2019 05:44:17 10.4 C 26 %
1125 14-09-2019 05:54:18 10.4 C 27 %
Sensor: Nr:Datum:Temp:Feuchte:
Aussen-T/F 1126 14-09-2019 06:04:17 10.4 C 27 %
1127 14-09-2019 06:14:18 10.5 C 27 %
1128 14-09-2019 06:24:17 10.3 C 26 %
1129 14-09-2019 06:34:17 10.1 C 26 %
1130 14-09-2019 06:44:17 9.8 C 26 %
1131 14-09-2019 06:54:17 9.8 C 27 %
1132 14-09-2019 07:04:18 9.7 C 27 %
1133 14-09-2019 07:14:18 9.7 C 28 %
1134 14-09-2019 07:24:17 9.6 C 27 %
1135 14-09-2019 07:34:18 9.7 C 28 %
1136 14-09-2019 07:44:18 10.1 C 28 %
1137 14-09-2019 07:54:17 9.9 C 28 %
1138 14-09-2019 08:04:18 9.8 C 27 %
1139 14-09-2019 08:14:18 9.8 C 27 %
1140 14-09-2019 08:24:17 10.1 C 27 %
1141 14-09-2019 08:34:18 10.1 C 26 %
1142 14-09-2019 08:44:18 10.1 C 26 %
1143 14-09-2019 08:54:17 10.3 C 27 %
1144 14-09-2019 09:04:18 10.3 C 26 %
1145 14-09-2019 09:14:18 10.6 C 26 %
1146 14-09-2019 09:24:17 10.7 C 26 %
1147 14-09-2019 09:34:18 10.9 C 26 %
1148 14-09-2019 09:44:18 11.2 C 25 %
1149 14-09-2019 09:54:17 11.6 C 25 %
1150 14-09-2019 10:04:18 11.7 C 25 %
Sensor: Nr:Datum:Temp:Feuchte:
Aussen-T/F 1151 14-09-2019 10:14:18 12 C 25 %
1152 14-09-2019 10:24:17 12.2 C 24 %
1153 14-09-2019 10:34:18 12.6 C 21 %
1154 14-09-2019 10:44:18 13 C 20 %
1155 14-09-2019 10:54:17 13.3 C 20 %
1156 14-09-2019 11:04:18 13.5 C 20 %
1157 14-09-2019 11:14:18 13.8 C 20 %
1158 14-09-2019 11:24:17 14 C 20 %
1159 14-09-2019 11:34:17 14.2 C 20 %
1160 14-09-2019 11:44:17 14.6 C 20 %
1161 14-09-2019 11:54:17 14.7 C 20 %
1162 14-09-2019 12:04:17 15 C 20 %
1163 14-09-2019 12:14:17 15.5 C 20 %
1164 14-09-2019 12:24:17 16.2 C 20 %
1165 14-09-2019 12:34:17 16.7 C 20 %
1166 14-09-2019 12:44:17 16.6 C 20 %
1167 14-09-2019 12:54:18 16.7 C 20 %
1168 14-09-2019 13:04:17 17.1 C 20 %
1169 14-09-2019 13:14:17 17.5 C 20 %
1170 14-09-2019 13:24:17 17.9 C 20 %
1171 14-09-2019 13:34:17 18.4 C 20 %
1172 14-09-2019 13:44:17 18.7 C 20 %
1173 14-09-2019 13:54:18 19.4 C 20 %
1174 14-09-2019 14:04:17 19.7 C 20 %
1175 14-09-2019 14:14:17 21.2 C 20 %
Sensor: Nr:Datum:Temp:Feuchte:
Aussen-T/F 1176 14-09-2019 14:24:17 22.3 C 20 %
1177 14-09-2019 14:34:17 25 C 20 %
1178 14-09-2019 14:44:17 25.7 C 20 %
1179 14-09-2019 14:54:18 25 C 20 %
1180 14-09-2019 15:04:17 26.5 C 20 %
1181 14-09-2019 15:14:17 26.8 C 20 %
1182 14-09-2019 15:24:17 28.6 C 20 %
1183 14-09-2019 15:34:17 30.8 C 20 %
1184 14-09-2019 15:44:17 28.8 C 20 %
1185 14-09-2019 15:54:17 29.8 C 20 %
1186 14-09-2019 16:04:17 30 C 20 %
1187 14-09-2019 16:14:17 29.2 C 20 %
1188 14-09-2019 16:24:17 28.9 C 20 %
1189 14-09-2019 16:34:17 28.4 C 20 %
1190 14-09-2019 16:44:17 30.5 C 20 %
1191 14-09-2019 16:54:17 30.5 C 20 %
1192 14-09-2019 17:04:17 30.8 C 20 %
1193 14-09-2019 17:14:17 29.5 C 20 %
1194 14-09-2019 17:24:17 27.8 C 20 %
1195 14-09-2019 17:34:17 27.6 C 20 %
1196 14-09-2019 17:44:18 25.4 C 20 %
1197 14-09-2019 17:54:17 24.2 C 20 %
1198 14-09-2019 18:04:18 24 C 20 %
1199 14-09-2019 18:14:18 23.1 C 20 %
1200 14-09-2019 18:24:17 22.5 C 20 %
Sensor: Nr:Datum:Temp:Feuchte:
Aussen-T/F 1201 14-09-2019 18:34:17 21.8 C 20 %
1202 14-09-2019 18:44:17 21.1 C 20 %
1203 14-09-2019 18:54:17 20.5 C 20 %
1204 14-09-2019 19:04:18 19.8 C 20 %
1205 14-09-2019 19:14:18 19.3 C 20 %
1206 14-09-2019 19:24:17 18.6 C 20 %
1207 14-09-2019 19:34:17 17.8 C 20 %
1208 14-09-2019 19:44:17 17.6 C 20 %
1209 14-09-2019 19:54:17 17.2 C 20 %
1210 14-09-2019 20:04:18 16.6 C 20 %
1211 14-09-2019 20:14:18 16.6 C 20 %
1212 14-09-2019 20:24:17 16.5 C 20 %
1213 14-09-2019 20:34:18 16.2 C 20 %
1214 14-09-2019 20:44:18 16 C 20 %
1215 14-09-2019 20:54:17 16 C 20 %
1216 14-09-2019 21:04:18 15.9 C 20 %
1217 14-09-2019 21:14:18 15.5 C 20 %
1218 14-09-2019 21:24:17 15.3 C 20 %
1219 14-09-2019 21:34:18 14.8 C 20 %
1220 14-09-2019 21:44:18 14.4 C 20 %
1221 14-09-2019 21:54:17 14 C 20 %
1222 14-09-2019 22:04:17 13.5 C 20 %
1223 14-09-2019 22:14:17 13.1 C 20 %
1224 14-09-2019 22:24:18 13.1 C 20 %
1225 14-09-2019 22:34:17 12.9 C 20 %
Sensor: Nr:Datum:Temp:Feuchte:
Aussen-T/F 1226 14-09-2019 22:44:17 12.9 C 20 %
1227 14-09-2019 22:54:17 12.4 C 20 %
1228 14-09-2019 23:04:17 12.1 C 20 %
1229 14-09-2019 23:14:17 12.2 C 20 %
1230 14-09-2019 23:24:17 12 C 20 %
1231 14-09-2019 23:34:18 12 C 20 %
1232 14-09-2019 23:44:18 11.7 C 20 %
1233 14-09-2019 23:54:17 11.4 C 20 %
1234 15-09-2019 00:04:17 11.2 C 20 %
1235 15-09-2019 00:14:17 11.1 C 20 %
1236 15-09-2019 00:24:18 10.9 C 20 %
1237 15-09-2019 00:34:17 11 C 20 %
1238 15-09-2019 00:44:17 10.8 C 20 %
1239 15-09-2019 00:54:17 10.6 C 20 %
1240 15-09-2019 01:04:17 10.4 C 20 %
1241 15-09-2019 01:14:17 10.2 C 20 %
1242 15-09-2019 01:24:17 10.3 C 20 %
1243 15-09-2019 01:34:17 10.3 C 20 %
1244 15-09-2019 01:44:18 10 C 20 %
1245 15-09-2019 01:54:17 9.8 C 20 %
1246 15-09-2019 02:04:17 9.9 C 20 %
1247 15-09-2019 02:14:17 10.1 C 20 %
1248 15-09-2019 02:24:17 10.1 C 20 %
1249 15-09-2019 02:34:17 10 C 20 %
1250 15-09-2019 02:44:17 9.7 C 20 %
Sensor: Nr:Datum:Temp:Feuchte:
Aussen-T/F 1251 15-09-2019 02:54:18 9.6 C 20 %
1252 15-09-2019 03:04:17 9.6 C 20 %
1253 15-09-2019 03:14:17 9.9 C 20 %
1254 15-09-2019 03:24:17 9.7 C 20 %
1255 15-09-2019 03:34:17 9.4 C 20 %
1256 15-09-2019 03:44:17 9.7 C 25 %
1257 15-09-2019 03:54:17 9.4 C 20 %
1258 15-09-2019 04:04:17 9.5 C 21 %
1259 15-09-2019 04:14:17 9.4 C 21 %
1260 15-09-2019 04:24:17 9.4 C 21 %
1261 15-09-2019 04:34:17 9.5 C 21 %
1262 15-09-2019 04:44:17 9 C 21 %
1263 15-09-2019 04:54:17 9 C 21 %
1264 15-09-2019 05:04:17 8.9 C 23 %
1265 15-09-2019 05:14:17 8.9 C 25 %
1266 15-09-2019 05:24:17 8.7 C 25 %
1267 15-09-2019 05:34:17 8.9 C 25 %
1268 15-09-2019 05:44:18 8.7 C 25 %
1269 15-09-2019 05:54:17 8.5 C 25 %
1270 15-09-2019 06:04:17 8.8 C 25 %
1271 15-09-2019 06:14:17 8.4 C 25 %
1272 15-09-2019 06:24:17 8.1 C 25 %
1273 15-09-2019 06:34:18 8 C 25 %
1274 15-09-2019 06:44:18 8 C 26 %
1275 15-09-2019 06:54:17 8.1 C 26 %
Sensor: Nr:Datum:Temp:Feuchte:
Aussen-T/F 1276 15-09-2019 07:04:17 8.1 C 26 %
1277 15-09-2019 07:14:17 8.4 C 26 %
1278 15-09-2019 07:24:18 8.4 C 26 %
1279 15-09-2019 07:34:17 8.5 C 26 %
1280 15-09-2019 07:44:17 8.5 C 26 %
1281 15-09-2019 07:54:17 8.5 C 26 %
1282 15-09-2019 08:04:17 8.6 C 26 %
1283 15-09-2019 08:14:17 8.9 C 26 %
1284 15-09-2019 08:24:18 8.9 C 26 %
1285 15-09-2019 08:34:17 9.1 C 25 %
1286 15-09-2019 08:44:17 9.3 C 25 %
1287 15-09-2019 08:54:17 9.3 C 25 %
1288 15-09-2019 09:04:17 9.3 C 25 %
1289 15-09-2019 09:14:17 9.8 C 25 %
1290 15-09-2019 09:24:17 9.8 C 25 %
1291 15-09-2019 09:34:17 10.1 C 23 %
1292 15-09-2019 09:44:17 10.2 C 23 %
1293 15-09-2019 09:54:17 10.3 C 25 %
1294 15-09-2019 10:04:18 10.5 C 25 %
1295 15-09-2019 10:14:18 10.7 C 25 %
1296 15-09-2019 10:24:17 11.3 C 24 %
1297 15-09-2019 10:34:18 11.8 C 23 %
1298 15-09-2019 10:44:18 12 C 21 %
1299 15-09-2019 10:54:17 12.9 C 20 %
1300 15-09-2019 11:04:18 13.3 C 20 %
Sensor: Nr:Datum:Temp:Feuchte:
Aussen-T/F 1301 15-09-2019 11:14:18 13.9 C 20 %
1302 15-09-2019 11:24:17 14.2 C 20 %
1303 15-09-2019 11:34:18 14.5 C 20 %
1304 15-09-2019 11:44:18 15 C 20 %
1305 15-09-2019 11:54:17 15.4 C 20 %
1306 15-09-2019 12:04:18 15.8 C 20 %
1307 15-09-2019 12:14:18 16.3 C 20 %
1308 15-09-2019 12:24:17 16.8 C 20 %
1309 15-09-2019 12:34:17 17.2 C 20 %
1310 15-09-2019 12:44:17 18.3 C 20 %
1311 15-09-2019 12:54:17 18.9 C 20 %
1312 15-09-2019 13:04:17 19.7 C 20 %
1313 15-09-2019 13:14:17 19.9 C 20 %
1314 15-09-2019 13:24:18 20.4 C 20 %
1315 15-09-2019 13:34:17 20.8 C 20 %
1316 15-09-2019 13:44:17 21.3 C 20 %
1317 15-09-2019 13:54:17 21.9 C 20 %
1318 15-09-2019 14:04:17 22.4 C 20 %
1319 15-09-2019 14:14:17 25 C 20 %
1320 15-09-2019 14:24:17 24.6 C 20 %
1321 15-09-2019 14:34:17 27 C 20 %
1322 15-09-2019 14:44:17 27.8 C 20 %
1323 15-09-2019 14:54:17 27.5 C 20 %
1324 15-09-2019 15:04:17 29.2 C 20 %
1325 15-09-2019 15:14:17 28.3 C 20 %
Sensor: Nr:Datum:Temp:Feuchte:
Aussen-T/F 1326 15-09-2019 15:24:17 31.4 C 20 %
1327 15-09-2019 15:34:17 30.1 C 20 %
1328 15-09-2019 15:44:17 31.6 C 20 %
1329 15-09-2019 15:54:17 29.5 C 20 %
1330 15-09-2019 16:04:18 31.8 C 20 %
1331 15-09-2019 16:14:18 28.8 C 20 %
1332 15-09-2019 16:24:17 28.1 C 20 %
1333 15-09-2019 16:34:17 28.7 C 20 %
1334 15-09-2019 16:44:17 29.3 C 20 %
1335 15-09-2019 16:54:17 29.4 C 20 %
1336 15-09-2019 17:04:18 30.1 C 20 %
1337 15-09-2019 17:14:18 30.1 C 20 %
1338 15-09-2019 17:24:17 28.8 C 20 %
1339 15-09-2019 17:34:18 29.3 C 20 %
1340 15-09-2019 17:44:18 27 C 20 %
1341 15-09-2019 17:54:17 26.2 C 20 %
1342 15-09-2019 18:04:17 26.1 C 20 %
1343 15-09-2019 18:14:17 25.5 C 20 %
1344 15-09-2019 18:24:17 24.9 C 20 %
1345 15-09-2019 18:34:17 24.8 C 20 %
1346 15-09-2019 18:44:17 23.8 C 20 %
1347 15-09-2019 18:54:18 23.3 C 20 %
1348 15-09-2019 19:04:17 22.6 C 20 %
1349 15-09-2019 19:14:17 21.3 C 20 %
1350 15-09-2019 19:24:17 19.9 C 20 %
Sensor: Nr:Datum:Temp:Feuchte:
Aussen-T/F 1351 15-09-2019 19:34:17 19.1 C 20 %
1352 15-09-2019 19:44:17 18.8 C 20 %
1353 15-09-2019 19:54:18 18.6 C 20 %
1354 15-09-2019 20:04:17 18.2 C 20 %
1355 15-09-2019 20:14:17 17.7 C 20 %
1356 15-09-2019 20:24:17 17.6 C 20 %
1357 15-09-2019 20:34:18 17.4 C 20 %
1358 15-09-2019 20:44:18 17.2 C 20 %
1359 15-09-2019 20:54:17 17.1 C 20 %
1360 15-09-2019 21:04:17 16.8 C 20 %
1361 15-09-2019 21:14:18 16.3 C 20 %
1362 15-09-2019 21:24:17 16.2 C 20 %
1363 15-09-2019 21:34:17 15.6 C 20 %
1364 15-09-2019 21:44:17 15.4 C 20 %
1365 15-09-2019 21:54:17 14.7 C 20 %
1366 15-09-2019 22:04:18 14.4 C 20 %
1367 15-09-2019 22:14:18 13.9 C 20 %
1368 15-09-2019 22:24:17 13.7 C 20 %
1369 15-09-2019 22:34:18 13.6 C 20 %
1370 15-09-2019 22:44:18 13.4 C 20 %
1371 15-09-2019 22:54:17 12.8 C 20 %
1372 15-09-2019 23:04:18 12.5 C 20 %
1373 15-09-2019 23:14:18 12.3 C 20 %
1374 15-09-2019 23:24:17 12.4 C 20 %
1375 15-09-2019 23:34:18 12.1 C 20 %
Sensor: Nr:Datum:Temp:Feuchte:
Aussen-T/F 1376 15-09-2019 23:44:18 12 C 20 %
1377 15-09-2019 23:54:17 12.3 C 20 %
1378 16-09-2019 00:04:18 12.4 C 20 %
1379 16-09-2019 00:14:18 12.3 C 20 %
1380 16-09-2019 00:24:17 12.2 C 20 %
1381 16-09-2019 00:34:18 12.1 C 20 %
1382 16-09-2019 00:44:18 11.9 C 20 %
1383 16-09-2019 00:54:17 12 C 20 %
1384 16-09-2019 01:04:18 12.1 C 20 %
1385 16-09-2019 01:14:18 12.2 C 20 %
1386 16-09-2019 01:24:17 12 C 20 %
1387 16-09-2019 01:34:18 11.8 C 20 %
1388 16-09-2019 01:44:18 11.6 C 20 %
1389 16-09-2019 01:54:17 11.3 C 20 %
1390 16-09-2019 02:04:18 11.1 C 20 %
1391 16-09-2019 02:14:18 11.2 C 20 %
1392 16-09-2019 02:24:17 11.2 C 20 %
1393 16-09-2019 02:34:17 10.9 C 20 %
1394 16-09-2019 02:44:17 11 C 20 %
1395 16-09-2019 02:54:17 11 C 20 %
1396 16-09-2019 03:04:17 10.7 C 20 %
1397 16-09-2019 03:14:17 10.4 C 20 %
1398 16-09-2019 03:24:17 10.9 C 20 %
1399 16-09-2019 03:34:17 10.8 C 20 %
1400 16-09-2019 03:44:17 10.8 C 20 %
Sensor: Nr:Datum:Temp:Feuchte:
Aussen-T/F 1401 16-09-2019 03:54:17 11.3 C 20 %
1402 16-09-2019 04:04:17 11.3 C 20 %
1403 16-09-2019 04:14:17 11.4 C 20 %
1404 16-09-2019 04:24:18 11.5 C 20 %
1405 16-09-2019 04:34:17 11.6 C 20 %
1406 16-09-2019 04:44:17 11.5 C 20 %
1407 16-09-2019 04:54:17 11.6 C 20 %
1408 16-09-2019 05:04:18 11.5 C 20 %
1409 16-09-2019 05:14:18 11.2 C 20 %
1410 16-09-2019 05:24:17 11.1 C 20 %
1411 16-09-2019 05:34:17 11.1 C 20 %
1412 16-09-2019 05:44:17 10.9 C 20 %
1413 16-09-2019 05:54:17 11.2 C 20 %
1414 16-09-2019 06:04:17 11 C 20 %
1415 16-09-2019 06:14:18 11.1 C 20 %
1416 16-09-2019 06:24:18 11.1 C 20 %
1417 16-09-2019 06:34:17 10.9 C 20 %
1418 16-09-2019 06:44:17 10.9 C 20 %
1419 16-09-2019 06:54:17 11.2 C 20 %
1420 16-09-2019 07:04:17 11.1 C 20 %
1421 16-09-2019 07:14:17 11.1 C 20 %
1422 16-09-2019 07:24:17 11.3 C 20 %
1423 16-09-2019 07:34:17 11.4 C 20 %
1424 16-09-2019 07:44:17 11.5 C 20 %
1425 16-09-2019 07:54:18 11.6 C 20 %
Sensor: Nr:Datum:Temp:Feuchte:
Aussen-T/F 1426 16-09-2019 08:04:17 11.8 C 20 %
1427 16-09-2019 08:14:17 12.2 C 20 %
1428 16-09-2019 08:24:17 12.4 C 20 %
1429 16-09-2019 08:34:17 12.7 C 20 %
1430 16-09-2019 08:44:17 13 C 20 %
1431 16-09-2019 08:54:17 12.9 C 20 %
1432 16-09-2019 09:04:17 13.2 C 20 %
1433 16-09-2019 09:14:17 13.2 C 20 %
1434 16-09-2019 09:24:18 13.6 C 20 %
1435 16-09-2019 09:34:17 14.5 C 20 %
1436 16-09-2019 09:44:17 14.5 C 20 %
1437 16-09-2019 09:54:18 15.2 C 20 %
1438 16-09-2019 10:04:17 15 C 20 %
1439 16-09-2019 10:14:17 15.4 C 20 %
1440 16-09-2019 10:24:17 16 C 20 %
1441 16-09-2019 10:34:17 16.6 C 20 %
1442 16-09-2019 10:44:17 16.8 C 20 %
1443 16-09-2019 10:54:18 16.9 C 20 %
1444 16-09-2019 11:04:17 17.5 C 20 %
1445 16-09-2019 11:14:17 18.3 C 20 %
1446 16-09-2019 11:24:18 18.8 C 20 %
1447 16-09-2019 11:34:17 19.1 C 20 %
1448 16-09-2019 11:44:17 20.1 C 20 %
1449 16-09-2019 11:54:17 20.2 C 20 %
1450 16-09-2019 12:04:17 20.3 C 20 %
Sensor: Nr:Datum:Temp:Feuchte:
Aussen-T/F 1451 16-09-2019 12:14:17 20.8 C 20 %
1452 16-09-2019 12:24:17 20.8 C 20 %
1453 16-09-2019 12:34:17 20.7 C 20 %
1454 16-09-2019 12:44:17 20.8 C 20 %
1455 16-09-2019 12:54:17 21.6 C 20 %
1456 16-09-2019 13:04:17 21.6 C 20 %
1457 16-09-2019 13:14:17 21.8 C 20 %
1458 16-09-2019 13:24:17 22 C 20 %
1459 16-09-2019 13:34:17 23.3 C 20 %
1460 16-09-2019 13:44:17 22.5 C 20 %
1461 16-09-2019 13:54:17 22.5 C 20 %
1462 16-09-2019 14:04:17 23.1 C 20 %
1463 16-09-2019 14:14:17 23.1 C 20 %
1464 16-09-2019 14:24:17 22.9 C 20 %
1465 16-09-2019 14:34:18 23.1 C 20 %
1466 16-09-2019 14:44:18 22.5 C 20 %
1467 16-09-2019 14:54:17 22.5 C 20 %
1468 16-09-2019 15:04:17 22.9 C 20 %
1469 16-09-2019 15:14:18 22.4 C 20 %
1470 16-09-2019 15:24:17 22.5 C 20 %
1471 16-09-2019 15:34:18 22.2 C 20 %
1472 16-09-2019 15:44:18 22.3 C 20 %
1473 16-09-2019 15:54:17 22.4 C 20 %
1474 16-09-2019 16:04:18 22.5 C 20 %
1475 16-09-2019 16:14:18 22.6 C 20 %
Sensor: Nr:Datum:Temp:Feuchte:
Aussen-T/F 1476 16-09-2019 16:24:17 22.5 C 20 %
1477 16-09-2019 16:34:18 22.8 C 20 %
1478 16-09-2019 16:44:18 22.8 C 20 %
1479 16-09-2019 16:54:17 22.8 C 20 %
1480 16-09-2019 17:04:17 22.6 C 20 %
1481 16-09-2019 17:14:18 22.3 C 20 %
1482 16-09-2019 17:24:17 22.2 C 20 %
1483 16-09-2019 17:34:17 21.8 C 20 %
1484 16-09-2019 17:44:17 21.6 C 20 %
1485 16-09-2019 17:54:17 21.1 C 20 %
1486 16-09-2019 18:04:18 20.9 C 20 %
1487 16-09-2019 18:14:18 20.8 C 20 %
1488 16-09-2019 18:24:17 20.7 C 20 %
1489 16-09-2019 18:34:18 20.4 C 20 %
1490 16-09-2019 18:44:18 20.2 C 20 %
1491 16-09-2019 18:54:17 20 C 20 %
1492 16-09-2019 19:04:17 19.9 C 20 %
1493 16-09-2019 19:14:17 20 C 20 %
1494 16-09-2019 19:24:17 19.5 C 20 %
1495 16-09-2019 19:34:18 19.1 C 20 %
1496 16-09-2019 19:44:18 18.1 C 20 %
1497 16-09-2019 19:54:17 17.6 C 20 %
1498 16-09-2019 20:04:18 17.1 C 20 %
1499 16-09-2019 20:14:18 16.5 C 20 %
1500 16-09-2019 20:24:17 16.5 C 20 %
Sensor: Nr:Datum:Temp:Feuchte:
Aussen-T/F 1501 16-09-2019 20:34:17 16.5 C 20 %
1502 16-09-2019 20:44:17 16.3 C 20 %
1503 16-09-2019 20:54:17 16.3 C 20 %
1504 16-09-2019 21:04:17 16.5 C 20 %
1505 16-09-2019 21:14:17 16.4 C 20 %
1506 16-09-2019 21:24:18 16.5 C 20 %
1507 16-09-2019 21:34:17 16.5 C 20 %
1508 16-09-2019 21:44:17 16.5 C 20 %
1509 16-09-2019 21:54:18 16.4 C 20 %
1510 16-09-2019 22:04:17 16.4 C 20 %
1511 16-09-2019 22:14:17 16.4 C 20 %
1512 16-09-2019 22:24:18 16.3 C 20 %
1513 16-09-2019 22:34:17 16.3 C 20 %
1514 16-09-2019 22:44:17 16 C 20 %
1515 16-09-2019 22:54:17 15.4 C 20 %
1516 16-09-2019 23:04:18 15.1 C 20 %
1517 16-09-2019 23:14:18 14.8 C 20 %
1518 16-09-2019 23:24:17 14.9 C 20 %
1519 16-09-2019 23:34:17 14.8 C 20 %
1520 16-09-2019 23:44:17 14.9 C 20 %
1521 16-09-2019 23:54:17 14.9 C 20 %
1522 17-09-2019 00:04:18 14.7 C 20 %
1523 17-09-2019 00:14:18 14.8 C 20 %
1524 17-09-2019 00:24:17 14.9 C 20 %
1525 17-09-2019 00:34:17 14.8 C 20 %
Sensor: Nr:Datum:Temp:Feuchte:
Aussen-T/F 1526 17-09-2019 00:44:17 14.8 C 20 %
1527 17-09-2019 00:54:17 14.7 C 20 %
1528 17-09-2019 01:04:18 14.5 C 20 %
1529 17-09-2019 01:14:18 14.6 C 20 %
1530 17-09-2019 01:24:17 14.6 C 20 %
1531 17-09-2019 01:34:18 14.6 C 20 %
1532 17-09-2019 01:44:18 14.6 C 20 %
1533 17-09-2019 01:54:17 14.6 C 20 %
1534 17-09-2019 02:04:17 14.5 C 20 %
1535 17-09-2019 02:14:17 14.5 C 20 %
1536 17-09-2019 02:24:17 14.5 C 20 %
1537 17-09-2019 02:34:18 14.4 C 20 %
1538 17-09-2019 02:44:18 14.4 C 20 %
1539 17-09-2019 02:54:17 14.4 C 20 %
1540 17-09-2019 03:04:18 14.4 C 20 %
1541 17-09-2019 03:14:18 14.4 C 20 %
1542 17-09-2019 03:24:17 14.3 C 20 %
1543 17-09-2019 03:34:17 14.3 C 20 %
1544 17-09-2019 03:44:17 14.3 C 20 %
1545 17-09-2019 03:54:17 14.3 C 20 %
1546 17-09-2019 04:04:17 14.1 C 20 %
1547 17-09-2019 04:14:17 14.1 C 20 %
1548 17-09-2019 04:24:17 14.1 C 20 %
1549 17-09-2019 04:34:17 14.1 C 20 %
1550 17-09-2019 04:44:17 14.1 C 20 %
Sensor: Nr:Datum:Temp:Feuchte:
Aussen-T/F 1551 17-09-2019 04:54:17 14.1 C 20 %
1552 17-09-2019 05:04:18 14 C 20 %
1553 17-09-2019 05:14:18 14 C 20 %
1554 17-09-2019 05:24:17 14 C 20 %
1555 17-09-2019 05:34:18 14 C 20 %
1556 17-09-2019 05:44:18 14 C 20 %
1557 17-09-2019 05:54:17 14 C 20 %
1558 17-09-2019 06:04:17 14 C 20 %
1559 17-09-2019 06:14:17 14 C 20 %
1560 17-09-2019 06:24:17 14 C 20 %
1561 17-09-2019 06:34:17 14 C 20 %
1562 17-09-2019 06:44:17 13.9 C 20 %
1563 17-09-2019 06:54:17 13.9 C 20 %
1564 17-09-2019 07:04:17 13.8 C 20 %
1565 17-09-2019 07:14:17 13.8 C 20 %
1566 17-09-2019 07:24:18 13.8 C 20 %
1567 17-09-2019 07:34:17 13.8 C 20 %
1568 17-09-2019 07:44:17 13.9 C 20 %
1569 17-09-2019 07:54:18 14 C 20 %
1570 17-09-2019 08:04:17 14.1 C 20 %
1571 17-09-2019 08:14:17 14 C 20 %
1572 17-09-2019 08:24:17 13.7 C 20 %
1573 17-09-2019 08:34:17 13.5 C 20 %
1574 17-09-2019 08:44:17 13.5 C 20 %
1575 17-09-2019 08:54:18 13.7 C 20 %
Sensor: Nr:Datum:Temp:Feuchte:
Aussen-T/F 1576 17-09-2019 09:04:17 13.9 C 20 %
1577 17-09-2019 09:14:17 13.6 C 20 %
1578 17-09-2019 09:24:18 13.3 C 20 %
1579 17-09-2019 09:34:17 13.7 C 20 %
1580 17-09-2019 09:44:17 14 C 20 %
1581 17-09-2019 09:54:18 14.2 C 20 %
1582 17-09-2019 10:04:17 14.2 C 20 %
1583 17-09-2019 10:14:17 15.3 C 20 %
1584 17-09-2019 10:24:18 15.1 C 20 %
1585 17-09-2019 10:34:17 15.2 C 20 %
1586 17-09-2019 10:44:17 16 C 20 %
1587 17-09-2019 10:54:18 15.9 C 20 %
1588 17-09-2019 11:04:17 15.9 C 20 %
1589 17-09-2019 11:14:17 16.3 C 20 %
1590 17-09-2019 11:24:17 16.4 C 20 %
1591 17-09-2019 11:34:18 15.7 C 20 %
1592 17-09-2019 11:44:18 16.7 C 20 %
1593 17-09-2019 11:54:17 16.5 C 20 %
1594 17-09-2019 12:04:18 16.7 C 20 %
1595 17-09-2019 12:14:18 16.3 C 20 %
1596 17-09-2019 12:24:17 16.4 C 20 %
1597 17-09-2019 12:34:18 16.4 C 20 %
1598 17-09-2019 12:44:18 16.7 C 20 %
1599 17-09-2019 12:54:17 16.9 C 20 %
1600 17-09-2019 13:04:17 16.8 C 20 %
Sensor: Nr:Datum:Temp:Feuchte:
Aussen-T/F 1601 17-09-2019 13:14:17 17.2 C 20 %
1602 17-09-2019 13:24:17 17 C 20 %
1603 17-09-2019 13:34:18 17.1 C 20 %
1604 17-09-2019 13:44:18 17 C 20 %
1605 17-09-2019 13:54:17 17.5 C 20 %
1606 17-09-2019 14:04:17 19.1 C 20 %
1607 17-09-2019 14:14:17 20.7 C 20 %
1608 17-09-2019 14:24:17 18.7 C 20 %
1609 17-09-2019 14:34:17 19.6 C 20 %
1610 17-09-2019 14:44:17 18.5 C 20 %
1611 17-09-2019 14:54:18 18.8 C 20 %
1612 17-09-2019 15:04:17 19 C 20 %
1613 17-09-2019 15:14:17 19.8 C 20 %
1614 17-09-2019 15:24:17 21.1 C 20 %
1615 17-09-2019 15:34:17 20 C 20 %
1616 17-09-2019 15:44:17 22 C 20 %
1617 17-09-2019 15:54:17 19 C 20 %
1618 17-09-2019 16:04:18 21.6 C 20 %
1619 17-09-2019 16:14:18 20.4 C 20 %
1620 17-09-2019 16:24:17 22.8 C 20 %
1621 17-09-2019 16:34:17 20.3 C 20 %
1622 17-09-2019 16:44:17 20.2 C 20 %
1623 17-09-2019 16:54:17 20.7 C 20 %
1624 17-09-2019 17:04:18 20.3 C 20 %
1625 17-09-2019 17:14:18 18.9 C 20 %
Sensor: Nr:Datum:Temp:Feuchte:
Aussen-T/F 1626 17-09-2019 17:24:17 20.1 C 20 %
1627 17-09-2019 17:34:17 18.5 C 20 %
1628 17-09-2019 17:44:18 18.8 C 20 %
1629 17-09-2019 17:54:17 18.6 C 20 %
1630 17-09-2019 18:04:17 18.6 C 20 %
1631 17-09-2019 18:14:17 18.7 C 20 %
1632 17-09-2019 18:24:17 18.3 C 20 %
1633 17-09-2019 18:34:17 18 C 20 %
1634 17-09-2019 18:44:17 18 C 20 %
1635 17-09-2019 18:54:18 17.6 C 20 %
1636 17-09-2019 19:04:17 17.4 C 20 %
1637 17-09-2019 19:14:17 17.2 C 20 %
1638 17-09-2019 19:24:18 17 C 20 %
1639 17-09-2019 19:34:17 16.9 C 20 %
1640 17-09-2019 19:44:17 16.8 C 20 %
1641 17-09-2019 19:54:17 16.9 C 20 %
1642 17-09-2019 20:04:17 16.9 C 20 %
1643 17-09-2019 20:14:17 16.9 C 20 %
1644 17-09-2019 20:24:17 16.7 C 20 %
1645 17-09-2019 20:34:17 16.2 C 20 %
1646 17-09-2019 20:44:17 16.3 C 20 %
1647 17-09-2019 20:54:17 16.4 C 20 %
1648 17-09-2019 21:04:18 16.3 C 20 %
1649 17-09-2019 21:14:18 16.1 C 20 %
1650 17-09-2019 21:24:17 15.9 C 20 %
Sensor: Nr:Datum:Temp:Feuchte:
Aussen-T/F 1651 17-09-2019 21:34:18 15.7 C 20 %
1652 17-09-2019 21:44:18 15.4 C 20 %
1653 17-09-2019 21:54:17 15 C 20 %
1654 17-09-2019 22:04:18 14.8 C 20 %
1655 17-09-2019 22:14:18 14.5 C 20 %
1656 17-09-2019 22:24:17 14.4 C 20 %
1657 17-09-2019 22:34:18 14.2 C 20 %
1658 17-09-2019 22:44:18 14.1 C 20 %
1659 17-09-2019 22:54:17 13.9 C 20 %
1660 17-09-2019 23:04:18 13.8 C 20 %
1661 17-09-2019 23:14:18 13.3 C 20 %
1662 17-09-2019 23:24:17 13 C 20 %
1663 17-09-2019 23:34:18 12.6 C 20 %
1664 17-09-2019 23:44:18 12.2 C 20 %
1665 17-09-2019 23:54:17 12 C 20 %
1666 18-09-2019 00:04:18 11.5 C 20 %
1667 18-09-2019 00:14:18 11.5 C 20 %
1668 18-09-2019 00:24:17 11 C 20 %
1669 18-09-2019 00:34:18 10.3 C 20 %
1670 18-09-2019 00:44:18 10.5 C 20 %
1671 18-09-2019 00:54:17 10.8 C 20 %
1672 18-09-2019 01:04:17 10.4 C 20 %
1673 18-09-2019 01:14:17 10.4 C 20 %
1674 18-09-2019 01:24:17 10.6 C 20 %
1675 18-09-2019 01:34:17 10.2 C 20 %
Sensor: Nr:Datum:Temp:Feuchte:
Aussen-T/F 1676 18-09-2019 01:44:17 9.6 C 20 %
1677 18-09-2019 01:54:17 9.2 C 20 %
1678 18-09-2019 02:04:18 8.8 C 20 %
1679 18-09-2019 02:14:18 8.9 C 20 %
1680 18-09-2019 02:24:17 8.8 C 20 %
1681 18-09-2019 02:34:18 8.3 C 20 %
1682 18-09-2019 02:44:18 8.2 C 20 %
1683 18-09-2019 02:54:17 8.2 C 20 %
1684 18-09-2019 03:04:18 8.1 C 20 %
1685 18-09-2019 03:14:18 7.7 C 20 %
1686 18-09-2019 03:24:17 7.5 C 20 %
1687 18-09-2019 03:34:18 7.2 C 20 %
1688 18-09-2019 03:44:18 7.1 C 20 %
1689 18-09-2019 03:54:17 6.9 C 20 %
1690 18-09-2019 04:04:18 6.8 C 20 %
1691 18-09-2019 04:14:18 6.8 C 20 %
1692 18-09-2019 04:24:17 7.1 C 20 %
1693 18-09-2019 04:34:17 6.9 C 20 %
1694 18-09-2019 04:44:17 6.3 C 20 %
1695 18-09-2019 04:54:17 6.3 C 20 %
1696 18-09-2019 05:04:18 6.3 C 20 %
1697 18-09-2019 05:14:18 6.1 C 20 %
1698 18-09-2019 05:24:17 6 C 20 %
1699 18-09-2019 05:34:17 6 C 20 %
1700 18-09-2019 05:44:17 5.9 C 20 %
Sensor: Nr:Datum:Temp:Feuchte:
Aussen-T/F 1701 18-09-2019 05:54:17 5.6 C 20 %
1702 18-09-2019 06:04:18 5.5 C 21 %
1703 18-09-2019 06:14:18 5.5 C 21 %
1704 18-09-2019 06:24:17 5.2 C 21 %
1705 18-09-2019 06:34:18 5.4 C 25 %
1706 18-09-2019 06:44:18 5.3 C 21 %
1707 18-09-2019 06:54:17 5.3 C 23 %
1708 18-09-2019 07:04:18 5.3 C 23 %
1709 18-09-2019 07:14:18 5.2 C 23 %
1710 18-09-2019 07:24:17 5.2 C 23 %
1711 18-09-2019 07:34:18 5.1 C 25 %
1712 18-09-2019 07:44:18 5.2 C 25 %
1713 18-09-2019 07:54:17 5.7 C 25 %
1714 18-09-2019 08:04:18 5.6 C 25 %
1715 18-09-2019 08:14:18 5.7 C 25 %
1716 18-09-2019 08:24:17 5.7 C 25 %
1717 18-09-2019 08:34:17 5.9 C 25 %
1718 18-09-2019 08:44:17 6.1 C 25 %
1719 18-09-2019 08:54:17 6.3 C 25 %
1720 18-09-2019 09:04:17 6.3 C 25 %
1721 18-09-2019 09:14:17 6.4 C 25 %
1722 18-09-2019 09:24:17 6.8 C 25 %
1723 18-09-2019 09:34:17 7.1 C 25 %
1724 18-09-2019 09:44:17 7.1 C 25 %
1725 18-09-2019 09:54:17 7.5 C 25 %
Sensor: Nr:Datum:Temp:Feuchte:
Aussen-T/F 1726 18-09-2019 10:04:17 7.7 C 25 %
1727 18-09-2019 10:14:17 7.9 C 25 %
1728 18-09-2019 10:24:17 8.2 C 25 %
1729 18-09-2019 10:34:17 8.8 C 23 %
1730 18-09-2019 10:44:17 9.3 C 20 %
1731 18-09-2019 10:54:17 9.6 C 20 %
1732 18-09-2019 11:04:18 10.1 C 20 %
1733 18-09-2019 11:14:18 10.6 C 20 %
1734 18-09-2019 11:24:17 10.9 C 20 %
1735 18-09-2019 11:34:17 11.6 C 20 %
1736 18-09-2019 11:44:17 11.9 C 20 %
1737 18-09-2019 11:54:17 12.8 C 20 %
1738 18-09-2019 12:04:17 12.9 C 20 %
1739 18-09-2019 12:14:17 13.5 C 20 %
1740 18-09-2019 12:24:18 13.8 C 20 %
1741 18-09-2019 12:34:17 14.2 C 20 %
1742 18-09-2019 12:44:17 14.6 C 20 %
1743 18-09-2019 12:54:18 15.4 C 20 %
1744 18-09-2019 13:04:17 15.4 C 20 %
1745 18-09-2019 13:14:17 15.7 C 20 %
1746 18-09-2019 13:24:17 15.1 C 20 %
1747 18-09-2019 13:34:17 14.9 C 20 %
1748 18-09-2019 13:44:17 15.4 C 20 %
1749 18-09-2019 13:54:17 15.8 C 20 %
1750 18-09-2019 14:04:17 17.4 C 20 %
Sensor: Nr:Datum:Temp:Feuchte:
Aussen-T/F 1751 18-09-2019 14:14:17 19.8 C 20 %
1752 18-09-2019 14:24:17 18.5 C 20 %
1753 18-09-2019 14:34:17 19.7 C 20 %
1754 18-09-2019 14:44:18 19.1 C 20 %
1755 18-09-2019 14:54:17 19.3 C 20 %
1756 18-09-2019 15:04:18 17.8 C 20 %
1757 18-09-2019 15:14:18 19.6 C 20 %
1758 18-09-2019 15:24:17 22.9 C 20 %
1759 18-09-2019 15:34:17 23.6 C 20 %
1760 18-09-2019 15:44:18 22.8 C 20 %
1761 18-09-2019 15:54:17 19 C 20 %
1762 18-09-2019 16:04:18 20.3 C 20 %
1763 18-09-2019 16:14:18 22.7 C 20 %
1764 18-09-2019 16:24:17 22.2 C 20 %
1765 18-09-2019 16:34:18 19 C 20 %
1766 18-09-2019 16:44:18 17.8 C 20 %
1767 18-09-2019 16:54:17 19.4 C 20 %
1768 18-09-2019 17:04:18 21.9 C 20 %
1769 18-09-2019 17:14:18 21.9 C 20 %
1770 18-09-2019 17:24:17 22.6 C 20 %
1771 18-09-2019 17:34:17 20.9 C 20 %
1772 18-09-2019 17:44:17 18.9 C 20 %
1773 18-09-2019 17:54:17 18.3 C 20 %
1774 18-09-2019 18:04:17 17.6 C 20 %
1775 18-09-2019 18:14:17 17.3 C 20 %
Sensor: Nr:Datum:Temp:Feuchte:
Aussen-T/F 1776 18-09-2019 18:24:17 17.3 C 20 %
1777 18-09-2019 18:34:17 17.3 C 20 %
1778 18-09-2019 18:44:17 16.8 C 20 %
1779 18-09-2019 18:54:17 16.4 C 20 %
1780 18-09-2019 19:04:17 16 C 20 %
1781 18-09-2019 19:14:17 15.4 C 20 %
1782 18-09-2019 19:24:17 14.4 C 20 %
1783 18-09-2019 19:34:17 13.9 C 20 %
1784 18-09-2019 19:44:17 13.1 C 20 %
1785 18-09-2019 19:54:17 12.4 C 20 %
1786 18-09-2019 20:04:17 12 C 20 %
1787 18-09-2019 20:14:17 11.8 C 20 %
1788 18-09-2019 20:24:17 11.8 C 20 %
1789 18-09-2019 20:34:17 11.5 C 20 %
1790 18-09-2019 20:44:17 11.5 C 20 %
1791 18-09-2019 20:54:17 11.1 C 20 %
1792 18-09-2019 21:04:17 11 C 20 %
1793 18-09-2019 21:14:17 10.8 C 20 %
1794 18-09-2019 21:24:17 10.9 C 20 %
1795 18-09-2019 21:34:17 10.8 C 20 %
1796 18-09-2019 21:44:17 10.4 C 20 %
1797 18-09-2019 21:54:18 10.1 C 20 %
1798 18-09-2019 22:04:17 9.8 C 20 %
1799 18-09-2019 22:14:17 9.8 C 20 %
1800 18-09-2019 22:24:17 9.8 C 20 %
Sensor: Nr:Datum:Temp:Feuchte:
Aussen-T/F 1801 18-09-2019 22:34:17 9.6 C 20 %
1802 18-09-2019 22:44:17 9.3 C 20 %
1803 18-09-2019 22:54:17 9.3 C 20 %
1804 18-09-2019 23:04:17 9.1 C 20 %
1805 18-09-2019 23:14:17 9.1 C 20 %
1806 18-09-2019 23:24:17 9.1 C 20 %
1807 18-09-2019 23:34:17 8.8 C 20 %
1808 18-09-2019 23:44:18 8.7 C 20 %
1809 18-09-2019 23:54:17 8.5 C 20 %
1810 19-09-2019 00:04:18 8.4 C 20 %
1811 19-09-2019 00:14:18 8.3 C 20 %
1812 19-09-2019 00:24:17 8.6 C 20 %
1813 19-09-2019 00:34:18 8.3 C 20 %
1814 19-09-2019 00:44:18 8.6 C 20 %
1815 19-09-2019 00:54:17 8.4 C 20 %
1816 19-09-2019 01:04:18 8.1 C 20 %
1817 19-09-2019 01:14:18 7.5 C 20 %
1818 19-09-2019 01:24:17 7.2 C 20 %
1819 19-09-2019 01:34:18 7.1 C 20 %
1820 19-09-2019 01:44:18 7.1 C 20 %
1821 19-09-2019 01:54:17 6.7 C 20 %
1822 19-09-2019 02:04:18 6.4 C 20 %
1823 19-09-2019 02:14:18 6.5 C 20 %
1824 19-09-2019 02:24:17 6.4 C 20 %
1825 19-09-2019 02:34:17 6.3 C 20 %
Sensor: Nr:Datum:Temp:Feuchte:
Aussen-T/F 1826 19-09-2019 02:44:17 6.3 C 20 %
1827 19-09-2019 02:54:17 6.1 C 20 %
1828 19-09-2019 03:04:18 6 C 20 %
1829 19-09-2019 03:14:18 5.9 C 21 %
1830 19-09-2019 03:24:18 5.8 C 21 %
1831 19-09-2019 03:34:17 5.8 C 21 %
1832 19-09-2019 03:44:17 5.6 C 21 %
1833 19-09-2019 03:54:17 5.4 C 21 %
1834 19-09-2019 04:04:17 5.4 C 23 %
1835 19-09-2019 04:14:17 5.4 C 23 %
1836 19-09-2019 04:24:17 5.2 C 23 %
1837 19-09-2019 04:34:17 5.2 C 23 %
1838 19-09-2019 04:44:17 5.2 C 23 %
1839 19-09-2019 04:54:17 5.1 C 25 %
1840 19-09-2019 05:04:17 4.8 C 25 %
1841 19-09-2019 05:14:17 4.8 C 26 %
1842 19-09-2019 05:24:17 4.8 C 26 %
1843 19-09-2019 05:34:17 4.7 C 26 %
1844 19-09-2019 05:44:18 4.8 C 26 %
1845 19-09-2019 05:54:17 4.7 C 26 %
1846 19-09-2019 06:04:18 4.5 C 26 %
1847 19-09-2019 06:14:18 4.5 C 26 %
1848 19-09-2019 06:24:18 4.5 C 27 %
1849 19-09-2019 06:34:17 4.4 C 27 %
1850 19-09-2019 06:44:17 4.4 C 27 %
Sensor: Nr:Datum:Temp:Feuchte:
Aussen-T/F 1851 19-09-2019 06:54:17 4.5 C 28 %
1852 19-09-2019 07:04:18 4.5 C 28 %
1853 19-09-2019 07:14:18 4.6 C 28 %
1854 19-09-2019 07:24:17 4.4 C 27 %
1855 19-09-2019 07:34:18 4.3 C 28 %
1856 19-09-2019 07:44:18 4.5 C 28 %
1857 19-09-2019 07:54:17 4.5 C 28 %
1858 19-09-2019 08:04:18 4.6 C 27 %
1859 19-09-2019 08:14:18 4.8 C 28 %
1860 19-09-2019 08:24:17 4.9 C 28 %
1861 19-09-2019 08:34:18 5 C 27 %
1862 19-09-2019 08:44:18 5.2 C 27 %
1863 19-09-2019 08:54:17 5.2 C 26 %
1864 19-09-2019 09:04:18 5.5 C 28 %
1865 19-09-2019 09:14:18 5.4 C 27 %
1866 19-09-2019 09:24:17 5.6 C 27 %
1867 19-09-2019 09:34:17 6.3 C 30 %
1868 19-09-2019 09:44:17 6.7 C 29 %
1869 19-09-2019 09:54:17 6.9 C 27 %
1870 19-09-2019 10:04:17 7 C 26 %
1871 19-09-2019 10:14:17 7.4 C 25 %
1872 19-09-2019 10:24:17 7.6 C 25 %
1873 19-09-2019 10:34:17 7.9 C 23 %
1874 19-09-2019 10:44:17 8.4 C 23 %
1875 19-09-2019 10:54:17 8.7 C 21 %
Sensor: Nr:Datum:Temp:Feuchte:
Aussen-T/F 1876 19-09-2019 11:04:18 9.2 C 20 %
1877 19-09-2019 11:14:18 9.5 C 20 %
1878 19-09-2019 11:24:17 10.1 C 20 %
1879 19-09-2019 11:34:18 11 C 20 %
1880 19-09-2019 11:44:18 11.2 C 20 %
1881 19-09-2019 11:54:17 11.7 C 20 %
1882 19-09-2019 12:04:18 12.9 C 20 %
1883 19-09-2019 12:14:18 13.5 C 20 %
1884 19-09-2019 12:24:17 14 C 20 %
1885 19-09-2019 12:34:18 14.2 C 20 %
1886 19-09-2019 12:44:18 14.3 C 20 %
1887 19-09-2019 12:54:17 14.5 C 20 %
1888 19-09-2019 13:04:17 14.1 C 20 %
1889 19-09-2019 13:14:17 14 C 20 %
1890 19-09-2019 13:24:17 14.3 C 20 %
1891 19-09-2019 13:34:17 14.7 C 20 %
1892 19-09-2019 13:44:17 15.2 C 20 %
1893 19-09-2019 13:54:17 15.3 C 20 %
1894 19-09-2019 14:04:18 17.5 C 20 %
1895 19-09-2019 14:14:18 19.2 C 20 %
1896 19-09-2019 14:24:17 17.8 C 20 %
1897 19-09-2019 14:34:17 18.6 C 20 %
1898 19-09-2019 14:44:17 17.9 C 20 %
1899 19-09-2019 14:54:18 17.7 C 20 %
1900 19-09-2019 15:04:17 19 C 20 %
Sensor: Nr:Datum:Temp:Feuchte:
Aussen-T/F 1901 19-09-2019 15:14:17 21.3 C 20 %
1902 19-09-2019 15:24:17 21 C 20 %
1903 19-09-2019 15:34:18 21.8 C 20 %
1904 19-09-2019 15:44:18 22.5 C 20 %
1905 19-09-2019 15:54:17 22.4 C 20 %
1906 19-09-2019 16:04:17 21.3 C 20 %
1907 19-09-2019 16:14:17 21.6 C 20 %
1908 19-09-2019 16:24:17 23.8 C 20 %
1909 19-09-2019 16:34:17 21.1 C 20 %
1910 19-09-2019 16:44:17 20.9 C 20 %
1911 19-09-2019 16:54:17 21.9 C 20 %
1912 19-09-2019 17:04:18 20.4 C 20 %
1913 19-09-2019 17:14:18 21.4 C 20 %
1914 19-09-2019 17:24:17 18.6 C 20 %
1915 19-09-2019 17:34:17 20 C 20 %
1916 19-09-2019 17:44:17 18.5 C 20 %
1917 19-09-2019 17:54:17 17.7 C 20 %
1918 19-09-2019 18:04:17 17.7 C 20 %
1919 19-09-2019 18:14:17 17.5 C 20 %
1920 19-09-2019 18:24:18 17.3 C 20 %
1921 19-09-2019 18:34:17 17.1 C 20 %
1922 19-09-2019 18:44:17 16.5 C 20 %
1923 19-09-2019 18:54:18 16 C 20 %
1924 19-09-2019 19:04:17 15.5 C 20 %
1925 19-09-2019 19:14:17 14.4 C 20 %
Sensor: Nr:Datum:Temp:Feuchte:
Aussen-T/F 1926 19-09-2019 19:24:17 13.8 C 20 %
1927 19-09-2019 19:34:17 13.1 C 20 %
1928 19-09-2019 19:44:17 12.9 C 20 %
1929 19-09-2019 19:54:17 12.5 C 20 %
1930 19-09-2019 20:04:17 11.6 C 20 %
1931 19-09-2019 20:14:17 11.4 C 20 %
1932 19-09-2019 20:24:17 11.1 C 20 %
1933 19-09-2019 20:34:17 11 C 20 %
1934 19-09-2019 20:44:18 10.7 C 20 %
1935 19-09-2019 20:54:17 10 C 20 %
1936 19-09-2019 21:04:17 9.9 C 20 %
1937 19-09-2019 21:14:17 9.6 C 20 %
1938 19-09-2019 21:24:17 9.6 C 20 %
1939 19-09-2019 21:34:18 9.7 C 20 %
1940 19-09-2019 21:44:18 9.3 C 20 %
1941 19-09-2019 21:54:17 9.1 C 20 %
1942 19-09-2019 22:04:18 9.1 C 20 %
1943 19-09-2019 22:14:18 9.1 C 20 %
1944 19-09-2019 22:24:17 9 C 20 %
1945 19-09-2019 22:34:18 8.5 C 20 %
1946 19-09-2019 22:44:18 8.2 C 20 %
1947 19-09-2019 22:54:17 8.3 C 20 %
1948 19-09-2019 23:04:18 8 C 20 %
1949 19-09-2019 23:14:18 7.9 C 20 %
1950 19-09-2019 23:24:17 8 C 20 %
Sensor: Nr:Datum:Temp:Feuchte:
Aussen-T/F 1951 19-09-2019 23:34:17 7.7 C 20 %
1952 19-09-2019 23:44:17 7.3 C 20 %
1953 19-09-2019 23:54:17 7.2 C 20 %
1954 20-09-2019 00:04:17 7 C 20 %
1955 20-09-2019 00:14:17 6.9 C 20 %
1956 20-09-2019 00:24:17 6.8 C 20 %
1957 20-09-2019 00:34:17 6.7 C 20 %
1958 20-09-2019 00:44:17 6.9 C 20 %
1959 20-09-2019 00:54:18 6.8 C 20 %
1960 20-09-2019 01:04:17 6.7 C 20 %
1961 20-09-2019 01:14:17 6.4 C 20 %
1962 20-09-2019 01:24:17 6.3 C 20 %
1963 20-09-2019 01:34:17 6.1 C 20 %
1964 20-09-2019 01:44:18 6 C 20 %
1965 20-09-2019 01:54:17 5.8 C 20 %
1966 20-09-2019 02:04:18 5.8 C 20 %
1967 20-09-2019 02:14:18 5.5 C 20 %
1968 20-09-2019 02:24:17 5.4 C 20 %
1969 20-09-2019 02:34:18 5.4 C 20 %
1970 20-09-2019 02:44:18 5.4 C 20 %
1971 20-09-2019 02:54:17 5.3 C 20 %
1972 20-09-2019 03:04:18 5.3 C 20 %
1973 20-09-2019 03:14:18 5.2 C 20 %
1974 20-09-2019 03:24:17 5 C 20 %
1975 20-09-2019 03:34:17 4.9 C 20 %
Sensor: Nr:Datum:Temp:Feuchte:
Aussen-T/F 1976 20-09-2019 03:44:17 4.8 C 20 %
1977 20-09-2019 03:54:17 4.7 C 20 %
1978 20-09-2019 04:04:17 4.7 C 20 %
1979 20-09-2019 04:14:17 4.5 C 20 %
1980 20-09-2019 04:24:18 4.4 C 20 %
1981 20-09-2019 04:34:17 4.2 C 20 %
1982 20-09-2019 04:44:17 4.2 C 20 %
1983 20-09-2019 04:54:18 4.1 C 20 %
1984 20-09-2019 05:04:17 4 C 23 %
1985 20-09-2019 05:14:17 4 C 20 %
1986 20-09-2019 05:24:17 4.1 C 20 %
1987 20-09-2019 05:34:18 4 C 20 %
1988 20-09-2019 05:44:18 3.8 C 21 %
1989 20-09-2019 05:54:17 4 C 21 %
1990 20-09-2019 06:04:18 3.7 C 21 %
1991 20-09-2019 06:14:18 3.8 C 25 %
1992 20-09-2019 06:24:17 4 C 23 %
1993 20-09-2019 06:34:17 3.6 C 25 %
1994 20-09-2019 06:44:18 3.6 C 25 %
1995 20-09-2019 06:54:17 3.5 C 25 %
1996 20-09-2019 07:04:18 3.4 C 25 %
1997 20-09-2019 07:14:18 3.3 C 25 %
1998 20-09-2019 07:24:17 3.3 C 25 %
1999 20-09-2019 07:34:18 3.4 C 25 %
2000 20-09-2019 07:44:18 3.5 C 26 %
Sensor: Nr:Datum:Temp:Feuchte:
Aussen-T/F 2001 20-09-2019 07:54:17 3.6 C 26 %
2002 20-09-2019 08:04:18 3.8 C 26 %
2003 20-09-2019 08:14:18 4 C 26 %
2004 20-09-2019 08:24:18 4.2 C 26 %
2005 20-09-2019 08:34:17 4.2 C 25 %
2006 20-09-2019 08:44:17 4.3 C 25 %
2007 20-09-2019 08:54:18 4.5 C 25 %
2008 20-09-2019 09:04:17 4.5 C 26 %
2009 20-09-2019 09:14:17 4.8 C 26 %
2010 20-09-2019 09:24:17 5.2 C 25 %
2011 20-09-2019 09:34:17 5.5 C 25 %
2012 20-09-2019 09:44:17 6 C 25 %
2013 20-09-2019 09:54:17 6.5 C 21 %
2014 20-09-2019 10:04:18 7 C 20 %
2015 20-09-2019 10:14:18 7.3 C 20 %
2016 20-09-2019 10:24:17 7.5 C 20 %
2017 20-09-2019 10:34:18 8 C 20 %
2018 20-09-2019 10:44:18 8.5 C 20 %
2019 20-09-2019 10:54:17 8.9 C 20 %
2020 20-09-2019 11:04:17 9.4 C 20 %
2021 20-09-2019 11:14:17 9.6 C 20 %
2022 20-09-2019 11:24:17 10.5 C 20 %
2023 20-09-2019 11:34:17 10.6 C 20 %
2024 20-09-2019 11:44:17 11.4 C 20 %
2025 20-09-2019 11:54:17 11.8 C 20 %
Sensor: Nr:Datum:Temp:Feuchte:
Aussen-T/F 2026 20-09-2019 12:04:17 12.6 C 20 %
2027 20-09-2019 12:14:17 13.4 C 20 %
2028 20-09-2019 12:24:17 13.4 C 20 %
2029 20-09-2019 12:34:17 14.2 C 20 %
2030 20-09-2019 12:44:17 14.3 C 20 %
2031 20-09-2019 12:54:18 14.4 C 20 %
2032 20-09-2019 13:04:17 14.5 C 20 %
2033 20-09-2019 13:14:17 15 C 20 %
2034 20-09-2019 13:24:17 15.4 C 20 %
2035 20-09-2019 13:34:17 15.7 C 20 %
2036 20-09-2019 13:44:17 16 C 20 %
2037 20-09-2019 13:54:18 16.4 C 20 %
2038 20-09-2019 14:04:17 18.9 C 20 %
2039 20-09-2019 14:14:17 23.1 C 20 %
2040 20-09-2019 14:24:17 22.3 C 20 %
2041 20-09-2019 14:34:18 19.5 C 20 %
2042 20-09-2019 14:44:18 19.5 C 20 %
2043 20-09-2019 14:54:17 19.7 C 20 %
2044 20-09-2019 15:04:17 21.4 C 20 %
2045 20-09-2019 15:14:18 20.7 C 20 %
2046 20-09-2019 15:24:17 22.8 C 20 %
2047 20-09-2019 15:34:18 23.7 C 20 %
2048 20-09-2019 15:44:18 23.8 C 20 %
2049 20-09-2019 15:54:17 22.9 C 20 %
2050 20-09-2019 16:04:18 23.2 C 20 %
Sensor: Nr:Datum:Temp:Feuchte:
Aussen-T/F 2051 20-09-2019 16:14:18 24.1 C 20 %
2052 20-09-2019 16:24:17 25.4 C 20 %
2053 20-09-2019 16:34:17 24.7 C 20 %
2054 20-09-2019 16:44:17 24.3 C 20 %
2055 20-09-2019 16:54:17 25.6 C 20 %
2056 20-09-2019 17:04:17 22.8 C 20 %
2057 20-09-2019 17:14:17 23.8 C 20 %
2058 20-09-2019 17:24:17 23.8 C 20 %
2059 20-09-2019 17:34:17 24 C 20 %
2060 20-09-2019 17:44:17 22.3 C 20 %
2061 20-09-2019 17:55:17 20 C 20 %
2062 20-09-2019 18:04:17 20 C 20 %
2063 20-09-2019 18:14:17 19.5 C 20 %
2064 20-09-2019 18:24:17 19.3 C 20 %
2065 20-09-2019 18:34:17 19.1 C 20 %
2066 20-09-2019 18:44:17 18.4 C 20 %
2067 20-09-2019 18:54:17 17.1 C 20 %
2068 20-09-2019 19:04:17 15.7 C 20 %
2069 20-09-2019 19:14:18 14.8 C 20 %
2070 20-09-2019 19:24:17 14.6 C 20 %
2071 20-09-2019 19:34:18 14 C 20 %
2072 20-09-2019 19:44:18 13.6 C 20 %
2073 20-09-2019 19:54:17 13.3 C 20 %
2074 20-09-2019 20:04:17 13.2 C 20 %
2075 20-09-2019 20:14:17 13.1 C 20 %
Sensor: Nr:Datum:Temp:Feuchte:
Aussen-T/F 2076 20-09-2019 20:24:17 12.8 C 20 %
2077 20-09-2019 20:34:18 12.5 C 20 %
2078 20-09-2019 20:44:18 12.2 C 20 %
2079 20-09-2019 20:54:17 12.1 C 20 %
2080 20-09-2019 21:05:17 12 C 20 %
2081 20-09-2019 21:14:17 11.3 C 20 %
2082 20-09-2019 21:24:17 11.3 C 20 %
2083 20-09-2019 21:35:17 10.1 C 20 %
2084 20-09-2019 21:44:17 9.9 C 20 %
2085 20-09-2019 21:54:17 9.5 C 20 %
2086 20-09-2019 22:04:18 9.2 C 20 %
2087 20-09-2019 22:14:18 9 C 20 %
2088 20-09-2019 22:24:17 8.7 C 20 %
2089 20-09-2019 22:34:18 8.5 C 20 %
2090 20-09-2019 22:44:18 8.4 C 20 %
2091 20-09-2019 22:54:17 8.2 C 20 %
2092 20-09-2019 23:04:17 7.9 C 20 %
2093 20-09-2019 23:14:18 7.8 C 20 %
2094 20-09-2019 23:25:17 7.6 C 20 %
2095 20-09-2019 23:34:18 7.3 C 20 %
2096 20-09-2019 23:44:18 7.4 C 20 %
2097 20-09-2019 23:54:17 7.1 C 20 %
2098 21-09-2019 00:05:17 6.9 C 20 %
2099 21-09-2019 00:14:18 6.8 C 20 %
2100 21-09-2019 00:24:18 7 C 20 %
Sensor: Nr:Datum:Temp:Feuchte:
Aussen-T/F 2101 21-09-2019 00:44:17 6.8 C 20 %
2102 21-09-2019 00:44:17 6.5 C 20 %
2103 21-09-2019 00:54:17 6.4 C 20 %
2104 21-09-2019 01:05:17 6.3 C 20 %
2105 21-09-2019 01:14:17 6 C 20 %
2106 21-09-2019 01:24:17 6.1 C 20 %
2107 21-09-2019 01:35:17 6.2 C 20 %
2108 21-09-2019 01:44:17 6 C 20 %
2109 21-09-2019 01:54:17 5.8 C 20 %
2110 21-09-2019 02:05:17 5.8 C 20 %
2111 21-09-2019 02:14:17 5.6 C 20 %
2112 21-09-2019 02:24:17 5.4 C 20 %
2113 21-09-2019 02:35:17 5.3 C 20 %
2114 21-09-2019 02:45:17 5.2 C 20 %
2115 21-09-2019 02:54:17 5.2 C 20 %
2116 21-09-2019 03:04:18 5.2 C 20 %
2117 21-09-2019 03:14:18 5.1 C 20 %
2118 21-09-2019 03:24:18 5.1 C 20 %
2119 21-09-2019 03:35:17 4.8 C 20 %
2120 21-09-2019 03:44:17 4.9 C 20 %
2121 21-09-2019 03:54:17 4.8 C 20 %
2122 21-09-2019 04:05:17 4.8 C 20 %
2123 21-09-2019 04:14:18 5 C 20 %
2124 21-09-2019 04:24:18 4.8 C 20 %
2125 21-09-2019 04:35:17 4.6 C 20 %
Sensor: Nr:Datum:Temp:Feuchte:
Aussen-T/F 2126 21-09-2019 04:45:17 4.8 C 20 %
2127 21-09-2019 04:55:17 4.4 C 20 %
2128 21-09-2019 05:05:17 4.6 C 20 %
2129 21-09-2019 05:15:17 4.5 C 20 %
2130 21-09-2019 05:25:17 4.5 C 20 %
2131 21-09-2019 05:35:17 4.4 C 20 %
2132 21-09-2019 05:45:17 4.5 C 21 %
2133 21-09-2019 05:55:17 4.2 C 20 %
2134 21-09-2019 06:05:17 4.3 C 21 %
2135 21-09-2019 06:15:17 4.1 C 21 %
2136 21-09-2019 06:25:17 4 C 21 %
2137 21-09-2019 06:35:17 3.9 C 23 %
2138 21-09-2019 06:45:17 3.7 C 23 %
2139 21-09-2019 06:55:17 3.7 C 25 %
2140 21-09-2019 07:05:17 4 C 25 %
2141 21-09-2019 07:15:17 3.9 C 25 %
2142 21-09-2019 07:25:17 3.9 C 25 %
2143 21-09-2019 07:35:17 3.9 C 25 %
2144 21-09-2019 07:45:17 3.7 C 25 %
2145 21-09-2019 07:55:17 3.9 C 25 %
2146 21-09-2019 08:05:17 3.9 C 25 %
2147 21-09-2019 08:15:17 4 C 25 %
2148 21-09-2019 08:25:17 4 C 25 %
2149 21-09-2019 08:35:17 4.2 C 25 %
2150 21-09-2019 08:45:17 4.3 C 25 %
Sensor: Nr:Datum:Temp:Feuchte:
Aussen-T/F 2151 21-09-2019 08:55:17 4.4 C 25 %
2152 21-09-2019 09:05:17 4.7 C 25 %
2153 21-09-2019 09:15:17 4.8 C 25 %
2154 21-09-2019 09:25:17 4.9 C 25 %
2155 21-09-2019 09:35:17 5.6 C 25 %
2156 21-09-2019 09:45:17 6.8 C 20 %
2157 21-09-2019 09:55:17 7.2 C 20 %
2158 21-09-2019 10:05:17 7.8 C 20 %
2159 21-09-2019 10:15:17 8 C 20 %
2160 21-09-2019 10:25:17 8.4 C 20 %
2161 21-09-2019 10:35:17 9 C 20 %
2162 21-09-2019 10:45:17 9.6 C 20 %
2163 21-09-2019 10:55:17 10.4 C 20 %
2164 21-09-2019 11:05:17 11.1 C 20 %
2165 21-09-2019 11:15:17 11.5 C 20 %
2166 21-09-2019 11:25:17 12.1 C 20 %
2167 21-09-2019 11:35:17 12 C 20 %
2168 21-09-2019 11:45:17 12.8 C 20 %
2169 21-09-2019 11:55:17 13.1 C 20 %
2170 21-09-2019 12:05:17 14 C 20 %
2171 21-09-2019 12:15:17 14.4 C 20 %
2172 21-09-2019 12:25:17 15.1 C 20 %
2173 21-09-2019 12:35:17 14.9 C 20 %
2174 21-09-2019 12:45:17 15.4 C 20 %
2175 21-09-2019 12:55:17 16.1 C 20 %
Sensor: Nr:Datum:Temp:Feuchte:
Aussen-T/F 2176 21-09-2019 13:05:16 17.3 C 20 %
2177 21-09-2019 13:15:17 17.5 C 20 %
2178 21-09-2019 13:25:17 17.9 C 20 %
2179 21-09-2019 13:35:17 18.1 C 20 %
2180 21-09-2019 13:45:17 18.5 C 20 %
2181 21-09-2019 13:55:17 20.5 C 20 %
2182 21-09-2019 14:05:17 22.5 C 20 %
2183 21-09-2019 14:15:17 25.5 C 20 %
2184 21-09-2019 14:25:17 24.1 C 20 %
2185 21-09-2019 14:35:17 23.5 C 20 %
2186 21-09-2019 14:45:17 23.1 C 20 %
2187 21-09-2019 14:55:17 23.9 C 20 %
2188 21-09-2019 15:05:17 26.7 C 20 %
2189 21-09-2019 15:15:16 24.3 C 20 %
2190 21-09-2019 15:25:16 25.2 C 20 %
2191 21-09-2019 15:35:17 27.7 C 20 %
2192 21-09-2019 15:45:16 29.2 C 20 %
2193 21-09-2019 15:55:16 30.9 C 20 %
2194 21-09-2019 16:05:17 30.6 C 20 %
2195 21-09-2019 16:15:16 29.4 C 20 %
2196 21-09-2019 16:25:16 29.6 C 20 %
2197 21-09-2019 16:35:17 31.1 C 20 %
2198 21-09-2019 16:45:16 29.6 C 20 %
2199 21-09-2019 16:55:16 29.9 C 20 %
2200 21-09-2019 17:05:17 28 C 20 %
Sensor: Nr:Datum:Temp:Feuchte:
Aussen-T/F 2201 21-09-2019 17:15:17 28.5 C 20 %
2202 21-09-2019 17:25:17 29.3 C 20 %
2203 21-09-2019 17:35:16 28 C 20 %
2204 21-09-2019 17:45:17 25.2 C 20 %
2205 21-09-2019 17:55:17 23.9 C 20 %
2206 21-09-2019 18:05:16 23 C 20 %
2207 21-09-2019 18:15:17 22.4 C 20 %
2208 21-09-2019 18:25:17 21.4 C 20 %
2209 21-09-2019 18:35:16 20.6 C 20 %
2210 21-09-2019 18:45:16 19.9 C 20 %
2211 21-09-2019 18:55:16 18.9 C 20 %
2212 21-09-2019 19:05:16 18.1 C 20 %
2213 21-09-2019 19:15:17 17.4 C 20 %
2214 21-09-2019 19:25:17 16.5 C 20 %
2215 21-09-2019 19:35:16 16.3 C 20 %
2216 21-09-2019 19:45:16 15.7 C 20 %
2217 21-09-2019 19:55:16 15.9 C 20 %
2218 21-09-2019 20:05:17 15.8 C 20 %
2219 21-09-2019 20:15:16 15.4 C 20 %
2220 21-09-2019 20:25:16 15.1 C 20 %
2221 21-09-2019 20:35:16 14.7 C 20 %
2222 21-09-2019 20:45:16 14.2 C 20 %
2223 21-09-2019 20:55:16 14.1 C 20 %
2224 21-09-2019 21:05:17 13.7 C 20 %
2225 21-09-2019 21:15:16 13.3 C 20 %
Sensor: Nr:Datum:Temp:Feuchte:
Aussen-T/F 2226 21-09-2019 21:25:16 12.8 C 20 %
2227 21-09-2019 21:35:17 12.3 C 20 %
2228 21-09-2019 21:45:16 12.2 C 20 %
2229 21-09-2019 21:55:16 11.6 C 20 %
2230 21-09-2019 22:05:17 11.6 C 20 %
2231 21-09-2019 22:15:16 11.5 C 20 %
2232 21-09-2019 22:25:16 11.2 C 20 %
2233 21-09-2019 22:35:17 11.1 C 20 %
2234 21-09-2019 22:45:16 10.8 C 20 %
2235 21-09-2019 22:55:16 10.5 C 20 %
2236 21-09-2019 23:05:16 10.5 C 20 %
2237 21-09-2019 23:15:16 10.3 C 20 %
2238 21-09-2019 23:25:16 10.2 C 20 %
2239 21-09-2019 23:35:16 9.8 C 20 %
2240 21-09-2019 23:45:16 9.5 C 20 %
2241 21-09-2019 23:55:16 9.6 C 20 %
2242 22-09-2019 00:05:16 9.6 C 20 %
2243 22-09-2019 00:15:16 9.2 C 20 %
2244 22-09-2019 00:25:17 9.1 C 20 %
2245 22-09-2019 00:35:16 9 C 20 %
2246 22-09-2019 00:45:16 8.8 C 20 %
2247 22-09-2019 00:55:16 8.7 C 20 %
2248 22-09-2019 01:05:16 8.7 C 20 %
2249 22-09-2019 01:15:16 8.7 C 20 %
2250 22-09-2019 01:25:16 8.4 C 20 %
Sensor: Nr:Datum:Temp:Feuchte:
Aussen-T/F 2251 22-09-2019 01:35:16 8.2 C 20 %
2252 22-09-2019 01:45:16 8 C 20 %
2253 22-09-2019 01:55:16 8 C 20 %
2254 22-09-2019 02:05:17 7.8 C 20 %
2255 22-09-2019 02:15:16 7.7 C 20 %
2256 22-09-2019 02:25:16 7.6 C 20 %
2257 22-09-2019 02:35:16 7.5 C 20 %
2258 22-09-2019 02:45:17 7.3 C 20 %
2259 22-09-2019 02:55:17 7.2 C 20 %
2260 22-09-2019 03:05:18 7.2 C 20 %
2261 22-09-2019 03:15:17 7.1 C 20 %
2262 22-09-2019 03:25:17 7.1 C 20 %
2263 22-09-2019 03:35:17 7 C 20 %
2264 22-09-2019 03:45:17 6.8 C 20 %
2265 22-09-2019 03:55:17 6.8 C 20 %
2266 22-09-2019 04:05:18 6.7 C 20 %
2267 22-09-2019 04:15:17 6.6 C 20 %
2268 22-09-2019 04:25:17 6.5 C 20 %
2269 22-09-2019 04:35:18 6.4 C 20 %
2270 22-09-2019 04:45:17 6.3 C 20 %
2271 22-09-2019 04:55:17 6.3 C 20 %
2272 22-09-2019 05:05:17 6.3 C 21 %
2273 22-09-2019 05:15:17 6.4 C 21 %
2274 22-09-2019 05:25:17 6.3 C 21 %
2275 22-09-2019 05:35:17 6.3 C 23 %
Sensor: Nr:Datum:Temp:Feuchte:
Aussen-T/F 2276 22-09-2019 05:45:17 6.3 C 23 %
2277 22-09-2019 05:55:17 6.3 C 23 %
2278 22-09-2019 06:05:17 6.3 C 23 %
2279 22-09-2019 06:15:17 6.3 C 25 %
2280 22-09-2019 06:25:17 6.5 C 25 %
2281 22-09-2019 06:35:17 6.5 C 25 %
2282 22-09-2019 06:45:18 6.3 C 23 %
2283 22-09-2019 06:55:18 6.2 C 23 %
2284 22-09-2019 07:05:17 6.3 C 25 %
2285 22-09-2019 07:15:17 6.3 C 25 %
2286 22-09-2019 07:25:17 6.3 C 25 %
2287 22-09-2019 07:35:17 6.4 C 25 %
2288 22-09-2019 07:45:18 6.8 C 25 %
2289 22-09-2019 07:55:18 6.8 C 25 %
2290 22-09-2019 08:05:17 6.9 C 25 %
2291 22-09-2019 08:15:17 7 C 25 %
2292 22-09-2019 08:25:17 7.2 C 25 %
2293 22-09-2019 08:35:17 7.4 C 25 %
2294 22-09-2019 08:45:18 7.5 C 25 %
2295 22-09-2019 08:55:18 7.8 C 23 %
2296 22-09-2019 09:05:17 8 C 25 %
2297 22-09-2019 09:15:17 8.2 C 25 %
2298 22-09-2019 09:25:17 8.6 C 23 %
2299 22-09-2019 09:35:17 9 C 20 %
2300 22-09-2019 09:45:18 9.2 C 21 %
Sensor: Nr:Datum:Temp:Feuchte:
Aussen-T/F 2301 22-09-2019 09:55:18 9.7 C 20 %
2302 22-09-2019 10:05:17 10.2 C 20 %
2303 22-09-2019 10:15:18 10.5 C 20 %
2304 22-09-2019 10:25:18 11.7 C 20 %
2305 22-09-2019 10:35:17 12.5 C 20 %
2306 22-09-2019 10:45:18 13.7 C 20 %
2307 22-09-2019 10:55:18 14.4 C 20 %
2308 22-09-2019 11:05:17 14.8 C 20 %
2309 22-09-2019 11:15:17 15.6 C 20 %
2310 22-09-2019 11:25:17 15.8 C 20 %
2311 22-09-2019 11:35:17 16.3 C 20 %
2312 22-09-2019 11:45:18 16.5 C 20 %
2313 22-09-2019 11:55:18 16.6 C 20 %
2314 22-09-2019 12:05:17 17 C 20 %
2315 22-09-2019 12:15:17 17.7 C 20 %
2316 22-09-2019 12:25:17 17.8 C 20 %
2317 22-09-2019 12:35:17 18.4 C 20 %
2318 22-09-2019 12:45:17 19 C 20 %
2319 22-09-2019 12:55:17 19.9 C 20 %
2320 22-09-2019 13:05:17 20.8 C 20 %
2321 22-09-2019 13:15:17 21.3 C 20 %
2322 22-09-2019 13:25:17 21.9 C 20 %
2323 22-09-2019 13:35:17 22.6 C 20 %
2324 22-09-2019 13:45:17 23.8 C 20 %
2325 22-09-2019 13:55:17 24.7 C 20 %
Sensor: Nr:Datum:Temp:Feuchte:
Aussen-T/F 2326 22-09-2019 14:05:18 25.7 C 20 %
2327 22-09-2019 14:15:17 26.5 C 20 %
2328 22-09-2019 14:25:17 26.8 C 20 %
2329 22-09-2019 14:35:17 25.9 C 20 %
2330 22-09-2019 14:45:17 26.1 C 20 %
2331 22-09-2019 14:55:17 26.4 C 20 %
2332 22-09-2019 15:05:17 26.7 C 20 %
2333 22-09-2019 15:15:17 25.6 C 20 %
2334 22-09-2019 15:25:18 25.7 C 20 %
2335 22-09-2019 15:35:17 25.5 C 20 %
2336 22-09-2019 15:45:17 25.5 C 20 %
2337 22-09-2019 15:55:17 25.4 C 20 %
2338 22-09-2019 16:05:17 25.2 C 20 %
2339 22-09-2019 16:15:17 25.1 C 20 %
2340 22-09-2019 16:25:17 24.9 C 20 %
2341 22-09-2019 16:35:17 24.7 C 20 %
2342 22-09-2019 16:45:18 24.5 C 20 %
2343 22-09-2019 16:55:18 24 C 20 %
2344 22-09-2019 17:05:17 23.9 C 20 %
2345 22-09-2019 17:15:17 22.9 C 20 %
2346 22-09-2019 17:25:17 22.9 C 20 %
2347 22-09-2019 17:35:17 22.5 C 20 %
2348 22-09-2019 17:45:18 22 C 20 %
2349 22-09-2019 17:55:18 21.8 C 20 %
2350 22-09-2019 18:05:17 21.6 C 20 %
Sensor: Nr:Datum:Temp:Feuchte:
Aussen-T/F 2351 22-09-2019 18:15:17 21.6 C 20 %
2352 22-09-2019 18:25:17 21.6 C 20 %
2353 22-09-2019 18:35:17 21 C 20 %
2354 22-09-2019 18:45:18 20.8 C 20 %
2355 22-09-2019 18:55:18 20.4 C 20 %
2356 22-09-2019 19:05:17 20 C 20 %
2357 22-09-2019 19:15:17 19.7 C 20 %
2358 22-09-2019 19:25:17 19.5 C 20 %
2359 22-09-2019 19:35:17 19.2 C 20 %
2360 22-09-2019 19:45:18 19 C 20 %
2361 22-09-2019 19:55:18 18.8 C 20 %
2362 22-09-2019 20:05:17 18.6 C 20 %
2363 22-09-2019 20:15:18 18.4 C 20 %
2364 22-09-2019 20:25:18 18.3 C 20 %
2365 22-09-2019 20:35:17 19 C 20 %
2366 22-09-2019 20:45:18 20 C 20 %
2367 22-09-2019 20:55:18 19.7 C 20 %
2368 22-09-2019 21:05:17 17.8 C 20 %
2369 22-09-2019 21:15:17 17.5 C 20 %
2370 22-09-2019 21:25:17 17.3 C 20 %
2371 22-09-2019 21:35:17 17.8 C 20 %
2372 22-09-2019 21:45:17 19.3 C 20 %
2373 22-09-2019 21:55:17 18.6 C 20 %
2374 22-09-2019 22:05:17 18.5 C 20 %
2375 22-09-2019 22:15:17 18.3 C 20 %
Sensor: Nr:Datum:Temp:Feuchte:
Aussen-T/F 2376 22-09-2019 22:25:17 17.6 C 20 %
2377 22-09-2019 22:35:18 17.4 C 20 %
2378 22-09-2019 22:45:17 17.6 C 20 %
2379 22-09-2019 22:55:17 17.6 C 20 %
2380 22-09-2019 23:05:18 17.7 C 20 %
2381 22-09-2019 23:15:17 17.7 C 20 %
2382 22-09-2019 23:25:17 17.7 C 20 %
2383 22-09-2019 23:35:17 17.6 C 20 %
2384 22-09-2019 23:45:17 17.3 C 20 %
2385 22-09-2019 23:55:18 17.2 C 20 %
2386 23-09-2019 00:05:17 16.8 C 20 %
2387 23-09-2019 00:15:17 17.5 C 20 %
2388 23-09-2019 00:25:17 17.8 C 20 %
2389 23-09-2019 00:35:17 18.2 C 20 %
2390 23-09-2019 00:45:18 18.2 C 20 %
2391 23-09-2019 00:55:18 18.9 C 20 %
2392 23-09-2019 01:05:17 18.7 C 20 %
2393 23-09-2019 01:15:17 18.5 C 20 %
2394 23-09-2019 01:25:17 18.5 C 20 %
2395 23-09-2019 01:35:17 18.2 C 20 %
2396 23-09-2019 01:45:18 18.1 C 20 %
2397 23-09-2019 01:55:18 18.4 C 20 %
2398 23-09-2019 02:05:17 18.5 C 20 %
2399 23-09-2019 02:15:18 18.4 C 20 %
2400 23-09-2019 02:25:18 18.2 C 20 %
Sensor: Nr:Datum:Temp:Feuchte:
Aussen-T/F 2401 23-09-2019 02:35:17 17.9 C 20 %
2402 23-09-2019 02:45:17 17.7 C 20 %
2403 23-09-2019 02:55:17 17.5 C 20 %
2404 23-09-2019 03:05:17 17.4 C 20 %
2405 23-09-2019 03:15:18 17.2 C 20 %
2406 23-09-2019 03:25:18 17.1 C 20 %
2407 23-09-2019 03:35:17 16.7 C 20 %
2408 23-09-2019 03:45:18 16.3 C 20 %
2409 23-09-2019 03:55:18 16.2 C 20 %
2410 23-09-2019 04:05:17 16 C 20 %
2411 23-09-2019 04:15:17 15.6 C 20 %
2412 23-09-2019 04:25:17 15.2 C 20 %
2413 23-09-2019 04:35:17 14.9 C 21 %
2414 23-09-2019 04:45:18 14.8 C 23 %
2415 23-09-2019 04:55:18 14.8 C 25 %
2416 23-09-2019 05:05:17 14.8 C 25 %
2417 23-09-2019 05:15:17 14.6 C 23 %
2418 23-09-2019 05:25:17 14.4 C 24 %
2419 23-09-2019 05:35:17 14.3 C 24 %
2420 23-09-2019 05:45:17 14.2 C 24 %
2421 23-09-2019 05:55:17 14.1 C 25 %
2422 23-09-2019 06:05:17 14 C 25 %
2423 23-09-2019 06:15:18 14 C 25 %
2424 23-09-2019 06:25:18 13.9 C 27 %
2425 23-09-2019 06:35:17 13.8 C 27 %
Sensor: Nr:Datum:Temp:Feuchte:
Aussen-T/F 2426 23-09-2019 06:45:18 13.8 C 28 %
2427 23-09-2019 06:55:18 13.9 C 29 %
2428 23-09-2019 07:05:17 13.8 C 29 %
2429 23-09-2019 07:15:17 13.8 C 30 %
2430 23-09-2019 07:25:17 13.8 C 30 %
2431 23-09-2019 07:35:17 13.8 C 30 %
2432 23-09-2019 07:45:18 13.8 C 30 %
2433 23-09-2019 07:55:18 13.7 C 30 %
2434 23-09-2019 08:05:17 13.7 C 30 %
2435 23-09-2019 08:15:18 13.8 C 30 %
2436 23-09-2019 08:25:18 13.9 C 30 %
2437 23-09-2019 08:35:17 13.9 C 30 %
2438 23-09-2019 08:45:17 14 C 30 %
2439 23-09-2019 08:55:17 14.1 C 30 %
2440 23-09-2019 09:05:17 14.2 C 30 %
2441 23-09-2019 09:15:17 14.5 C 30 %
2442 23-09-2019 09:25:17 14.7 C 30 %
2443 23-09-2019 09:35:18 14.8 C 27 %
2444 23-09-2019 09:45:17 15.1 C 27 %
2445 23-09-2019 09:55:17 15.3 C 23 %
2446 23-09-2019 10:05:18 15.5 C 23 %
2447 23-09-2019 10:15:17 15.8 C 24 %
2448 23-09-2019 10:25:17 16.2 C 22 %
2449 23-09-2019 10:35:18 16.8 C 22 %
2450 23-09-2019 10:45:17 16.8 C 21 %
Sensor: Nr:Datum:Temp:Feuchte:
Aussen-T/F 2451 23-09-2019 10:55:17 16.9 C 21 %
2452 23-09-2019 11:05:18 16.6 C 21 %
2453 23-09-2019 11:15:17 16.5 C 21 %
2454 23-09-2019 11:25:17 16.5 C 21 %
2455 23-09-2019 11:35:17 16.3 C 23 %
2456 23-09-2019 11:45:17 16.5 C 22 %
2457 23-09-2019 11:55:17 16.8 C 21 %
2458 23-09-2019 12:05:17 17.1 C 21 %
2459 23-09-2019 12:15:18 17.2 C 20 %
2460 23-09-2019 12:25:18 17.8 C 20 %
2461 23-09-2019 12:35:17 17.7 C 20 %
2462 23-09-2019 12:45:17 18 C 20 %
2463 23-09-2019 12:55:17 18 C 20 %
2464 23-09-2019 13:05:17 18.1 C 20 %
2465 23-09-2019 13:15:17 18.9 C 20 %
2466 23-09-2019 13:25:17 18.9 C 20 %
2467 23-09-2019 13:35:17 19.3 C 20 %
2468 23-09-2019 13:45:17 19.1 C 20 %
2469 23-09-2019 13:55:18 19.7 C 20 %
2470 23-09-2019 14:05:17 20.8 C 20 %
2471 23-09-2019 14:15:18 22.4 C 20 %
2472 23-09-2019 14:25:18 21.2 C 20 %
2473 23-09-2019 14:35:17 21 C 20 %
2474 23-09-2019 14:45:18 20.7 C 20 %
2475 23-09-2019 14:55:18 20.6 C 20 %
Sensor: Nr:Datum:Temp:Feuchte:
Aussen-T/F 2476 23-09-2019 15:05:17 20.8 C 20 %
2477 23-09-2019 15:15:17 20.3 C 20 %
2478 23-09-2019 15:25:17 20.3 C 20 %
2479 23-09-2019 15:35:17 22.6 C 20 %
2480 23-09-2019 15:45:18 20.8 C 20 %
2481 23-09-2019 15:55:18 20.6 C 20 %
2482 23-09-2019 16:05:17 21.9 C 20 %
2483 23-09-2019 16:15:17 22.8 C 20 %
2484 23-09-2019 16:25:17 21.1 C 20 %
2485 23-09-2019 16:35:17 22.2 C 20 %
2486 23-09-2019 16:45:17 22 C 20 %
2487 23-09-2019 16:55:17 21.1 C 20 %
2488 23-09-2019 17:05:17 21.8 C 20 %
2489 23-09-2019 17:15:17 22 C 20 %
2490 23-09-2019 17:25:17 20.4 C 20 %
2491 23-09-2019 17:35:17 21.4 C 20 %
2492 23-09-2019 17:45:18 21 C 20 %
2493 23-09-2019 17:55:18 19.6 C 20 %
2494 23-09-2019 18:05:17 19.2 C 20 %
2495 23-09-2019 18:15:18 18.7 C 20 %
2496 23-09-2019 18:25:18 17.7 C 20 %
2497 23-09-2019 18:35:17 17.2 C 20 %
2498 23-09-2019 18:45:18 16.7 C 20 %
2499 23-09-2019 18:55:18 16.4 C 20 %
2500 23-09-2019 19:05:17 16.4 C 20 %
Sensor: Nr:Datum:Temp:Feuchte:
Aussen-T/F 2501 23-09-2019 19:15:18 16.2 C 20 %
2502 23-09-2019 19:25:18 16 C 20 %
2503 23-09-2019 19:35:17 15.8 C 20 %
2504 23-09-2019 19:45:18 15.1 C 20 %
2505 23-09-2019 19:55:18 14.6 C 20 %
2506 23-09-2019 20:05:17 14.1 C 20 %
2507 23-09-2019 20:15:17 13.8 C 20 %
2508 23-09-2019 20:25:17 13.7 C 20 %
2509 23-09-2019 20:35:17 13.9 C 20 %
2510 23-09-2019 20:45:17 14.2 C 20 %
2511 23-09-2019 20:55:17 14.2 C 20 %
2512 23-09-2019 21:05:18 14.1 C 20 %
2513 23-09-2019 21:15:17 13.7 C 21 %
2514 23-09-2019 21:25:18 13.4 C 22 %
2515 23-09-2019 21:35:18 13.4 C 23 %
2516 23-09-2019 21:45:17 13.7 C 23 %
2517 23-09-2019 21:55:17 13.7 C 23 %
2518 23-09-2019 22:05:17 13.7 C 23 %
2519 23-09-2019 22:15:17 13.8 C 23 %
2520 23-09-2019 22:25:17 13.9 C 23 %
2521 23-09-2019 22:35:17 13.9 C 23 %
2522 23-09-2019 22:45:17 14 C 22 %
2523 23-09-2019 22:55:18 14.1 C 22 %
2524 23-09-2019 23:05:17 14 C 23 %
2525 23-09-2019 23:15:18 14 C 23 %
Sensor: Nr:Datum:Temp:Feuchte:
Aussen-T/F 2526 23-09-2019 23:25:18 14 C 23 %
2527 23-09-2019 23:35:17 14.1 C 23 %
2528 23-09-2019 23:45:17 14.2 C 23 %
2529 23-09-2019 23:55:17 14.3 C 23 %
2530 24-09-2019 00:05:17 14.4 C 23 %
2531 24-09-2019 00:15:17 14.3 C 23 %
2532 24-09-2019 00:25:17 14.1 C 23 %
2533 24-09-2019 00:35:17 14 C 23 %
2534 24-09-2019 00:45:17 14 C 23 %
2535 24-09-2019 00:55:17 14 C 23 %
2536 24-09-2019 01:05:18 13.9 C 24 %
2537 24-09-2019 01:15:17 13.8 C 25 %
2538 24-09-2019 01:25:17 13.6 C 24 %
2539 24-09-2019 01:35:18 13.3 C 24 %
2540 24-09-2019 01:45:17 12.5 C 25 %
2541 24-09-2019 01:55:17 11.9 C 26 %
2542 24-09-2019 02:05:18 11.8 C 27 %
2543 24-09-2019 02:15:17 11.8 C 28 %
2544 24-09-2019 02:25:17 11.8 C 29 %
2545 24-09-2019 02:35:17 11.9 C 29 %
2546 24-09-2019 02:45:18 11.9 C 29 %
2547 24-09-2019 02:55:18 11.7 C 29 %
2548 24-09-2019 03:05:17 11.5 C 29 %
2549 24-09-2019 03:15:17 11.2 C 28 %
2550 24-09-2019 03:25:17 11.2 C 30 %
Sensor: Nr:Datum:Temp:Feuchte:
Aussen-T/F 2551 24-09-2019 03:35:17 11.2 C 30 %
2552 24-09-2019 03:45:17 11.3 C 30 %
2553 24-09-2019 03:55:17 11.3 C 30 %
2554 24-09-2019 04:05:17 10.8 C 30 %
2555 24-09-2019 04:15:17 11 C 30 %
2556 24-09-2019 04:25:17 11.1 C 30 %
2557 24-09-2019 04:35:17 10.8 C 30 %
2558 24-09-2019 04:45:18 10.7 C 30 %
2559 24-09-2019 04:55:18 10.3 C 30 %
2560 24-09-2019 05:05:17 10.1 C 30 %
2561 24-09-2019 05:15:17 10.1 C 30 %
2562 24-09-2019 05:25:18 10.1 C 30 %
2563 24-09-2019 05:35:17 9.8 C 31 %
2564 24-09-2019 05:45:17 9.8 C 31 %
2565 24-09-2019 05:55:17 9.5 C 31 %
2566 24-09-2019 06:05:17 9.4 C 31 %
2567 24-09-2019 06:15:17 9.4 C 31 %
2568 24-09-2019 06:25:17 9.5 C 32 %
2569 24-09-2019 06:35:18 9.5 C 32 %
2570 24-09-2019 06:45:17 9.5 C 32 %
2571 24-09-2019 06:55:17 9.3 C 32 %
2572 24-09-2019 07:05:18 9.2 C 32 %
2573 24-09-2019 07:15:17 9.3 C 32 %
2574 24-09-2019 07:25:17 9.3 C 32 %
2575 24-09-2019 07:35:18 9.2 C 32 %
Sensor: Nr:Datum:Temp:Feuchte:
Aussen-T/F 2576 24-09-2019 07:45:17 9.5 C 33 %
2577 24-09-2019 07:55:17 10 C 33 %
2578 24-09-2019 08:05:18 10.3 C 33 %
2579 24-09-2019 08:15:17 10.5 C 33 %
2580 24-09-2019 08:25:17 10.6 C 32 %
2581 24-09-2019 08:35:17 11 C 32 %
2582 24-09-2019 08:45:17 10.8 C 32 %
2583 24-09-2019 08:55:17 11.1 C 31 %
2584 24-09-2019 09:05:17 11 C 30 %
2585 24-09-2019 09:15:18 11.1 C 30 %
2586 24-09-2019 09:25:18 11.4 C 30 %
2587 24-09-2019 09:35:17 11.7 C 29 %
2588 24-09-2019 09:45:17 11.9 C 29 %
2589 24-09-2019 09:55:17 12.2 C 27 %
2590 24-09-2019 10:05:17 12.4 C 26 %
2591 24-09-2019 10:15:17 12.8 C 26 %
2592 24-09-2019 10:25:17 13.4 C 25 %
2593 24-09-2019 10:35:17 13.5 C 25 %
2594 24-09-2019 10:45:17 14 C 23 %
2595 24-09-2019 10:55:17 14.5 C 25 %
2596 24-09-2019 11:05:17 15 C 22 %
2597 24-09-2019 11:15:17 15.5 C 21 %
2598 24-09-2019 11:25:17 16 C 20 %
2599 24-09-2019 11:35:18 16.3 C 20 %
2600 24-09-2019 11:45:17 17.3 C 20 %
Sensor: Nr:Datum:Temp:Feuchte:
Aussen-T/F 2601 24-09-2019 11:55:17 18.1 C 20 %
2602 24-09-2019 12:05:17 18.1 C 20 %
2603 24-09-2019 12:15:17 18.5 C 20 %
2604 24-09-2019 12:25:17 19 C 20 %
2605 24-09-2019 12:35:18 19.3 C 20 %
2606 24-09-2019 12:45:17 19.4 C 20 %
2607 24-09-2019 12:55:17 18.9 C 20 %
2608 24-09-2019 13:05:18 19.1 C 20 %
2609 24-09-2019 13:15:17 18.9 C 20 %
2610 24-09-2019 13:25:17 19.6 C 20 %
2611 24-09-2019 13:35:17 19.3 C 20 %
2612 24-09-2019 13:45:17 19.8 C 20 %
2613 24-09-2019 13:55:17 20.2 C 20 %
2614 24-09-2019 14:05:17 20.3 C 20 %
2615 24-09-2019 14:15:17 19.8 C 20 %
2616 24-09-2019 14:25:17 19.8 C 20 %
2617 24-09-2019 14:35:17 19.3 C 20 %
2618 24-09-2019 14:45:17 19.2 C 20 %
2619 24-09-2019 14:55:17 19.1 C 20 %
2620 24-09-2019 15:05:17 18.7 C 20 %
2621 24-09-2019 15:15:17 18.7 C 20 %
2622 24-09-2019 15:25:17 18.4 C 20 %
2623 24-09-2019 15:35:17 18.5 C 20 %
2624 24-09-2019 15:45:17 18.6 C 20 %
2625 24-09-2019 15:55:17 18.2 C 20 %
Sensor: Nr:Datum:Temp:Feuchte:
Aussen-T/F 2626 24-09-2019 16:05:17 16.9 C 20 %
2627 24-09-2019 16:15:17 16.5 C 20 %
2628 24-09-2019 16:25:17 16.6 C 20 %
2629 24-09-2019 16:35:17 16.1 C 20 %
2630 24-09-2019 16:45:17 15.9 C 25 %
2631 24-09-2019 16:55:17 16 C 24 %
2632 24-09-2019 17:05:17 16.4 C 22 %
2633 24-09-2019 17:15:17 16.5 C 22 %
2634 24-09-2019 17:25:17 16.4 C 23 %
2635 24-09-2019 17:35:17 16.3 C 24 %
2636 24-09-2019 17:45:17 16.1 C 25 %
2637 24-09-2019 17:55:17 16 C 25 %
2638 24-09-2019 18:05:17 15.7 C 26 %
2639 24-09-2019 18:15:17 15.5 C 26 %
2640 24-09-2019 18:25:17 15.4 C 27 %
2641 24-09-2019 18:35:17 15.2 C 27 %
2642 24-09-2019 18:45:18 15.1 C 28 %
2643 24-09-2019 18:55:18 15.1 C 28 %
2644 24-09-2019 19:05:17 14.9 C 29 %
2645 24-09-2019 19:15:17 14.7 C 29 %
2646 24-09-2019 19:25:17 14.4 C 29 %
2647 24-09-2019 19:35:18 14.3 C 29 %
2648 24-09-2019 19:45:17 14 C 29 %
2649 24-09-2019 19:55:17 13.8 C 29 %
2650 24-09-2019 20:05:18 13.7 C 30 %
Sensor: Nr:Datum:Temp:Feuchte:
Aussen-T/F 2651 24-09-2019 20:15:17 13.7 C 30 %
2652 24-09-2019 20:25:17 13.6 C 30 %
2653 24-09-2019 20:35:17 13.5 C 30 %
2654 24-09-2019 20:45:17 13.5 C 30 %
2655 24-09-2019 20:55:17 13.5 C 30 %
2656 24-09-2019 21:05:17 13.4 C 30 %
2657 24-09-2019 21:15:17 13.4 C 30 %
2658 24-09-2019 21:25:17 13.4 C 30 %
2659 24-09-2019 21:35:17 13.3 C 30 %
2660 24-09-2019 21:45:18 13.4 C 30 %
2661 24-09-2019 21:55:18 13.3 C 30 %
2662 24-09-2019 22:05:17 13.4 C 30 %
2663 24-09-2019 22:15:17 13.4 C 30 %
2664 24-09-2019 22:25:17 13.4 C 30 %
2665 24-09-2019 22:35:17 13.4 C 30 %
2666 24-09-2019 22:45:18 13.4 C 30 %
2667 24-09-2019 22:55:18 13.4 C 31 %
2668 24-09-2019 23:05:17 13.6 C 31 %
2669 24-09-2019 23:15:17 13.5 C 31 %
2670 24-09-2019 23:25:17 13.5 C 31 %
2671 24-09-2019 23:35:17 13.5 C 31 %
2672 24-09-2019 23:45:17 13.5 C 31 %
2673 24-09-2019 23:55:17 13.6 C 31 %
2674 25-09-2019 00:05:18 13.6 C 31 %
2675 25-09-2019 00:15:17 13.7 C 31 %
Sensor: Nr:Datum:Temp:Feuchte:
Aussen-T/F 2676 25-09-2019 00:25:17 13.7 C 31 %
2677 25-09-2019 00:35:17 13.7 C 31 %
2678 25-09-2019 00:45:17 13.7 C 31 %
2679 25-09-2019 00:55:17 13.7 C 31 %
2680 25-09-2019 01:05:18 13.8 C 31 %
2681 25-09-2019 01:15:17 13.8 C 31 %
2682 25-09-2019 01:25:17 13.8 C 31 %
2683 25-09-2019 01:35:17 13.8 C 31 %
2684 25-09-2019 01:45:17 14 C 30 %
2685 25-09-2019 01:55:17 14.2 C 28 %
2686 25-09-2019 02:05:17 14.5 C 26 %
2687 25-09-2019 02:15:18 14.3 C 27 %
2688 25-09-2019 02:25:18 14.7 C 26 %
2689 25-09-2019 02:35:17 14.6 C 26 %
2690 25-09-2019 02:45:17 14.6 C 26 %
2691 25-09-2019 02:55:18 14.4 C 27 %
2692 25-09-2019 03:05:17 14.4 C 28 %
2693 25-09-2019 03:15:18 14.4 C 28 %
2694 25-09-2019 03:25:18 14.6 C 27 %
2695 25-09-2019 03:35:17 14.5 C 27 %
2696 25-09-2019 03:45:17 14.3 C 28 %
2697 25-09-2019 03:55:17 14.3 C 30 %
2698 25-09-2019 04:05:17 14.2 C 30 %
2699 25-09-2019 04:15:17 14.2 C 31 %
2700 25-09-2019 04:25:17 14.2 C 31 %
Sensor: Nr:Datum:Temp:Feuchte:
Aussen-T/F 2701 25-09-2019 04:35:17 14.1 C 31 %
2702 25-09-2019 04:45:17 14.2 C 29 %
2703 25-09-2019 04:55:17 14 C 28 %
2704 25-09-2019 05:05:17 13.9 C 29 %
2705 25-09-2019 05:15:17 13.8 C 29 %
2706 25-09-2019 05:25:17 13.6 C 29 %
2707 25-09-2019 05:35:17 13.5 C 28 %
2708 25-09-2019 05:45:17 13.4 C 28 %
2709 25-09-2019 05:55:17 13.4 C 28 %
2710 25-09-2019 06:05:17 13.4 C 28 %
2711 25-09-2019 06:15:17 13.2 C 29 %
2712 25-09-2019 06:25:17 13.2 C 30 %
2713 25-09-2019 06:35:17 13.3 C 30 %
2714 25-09-2019 06:45:17 13.5 C 28 %
2715 25-09-2019 06:55:17 13.5 C 28 %
2716 25-09-2019 07:05:17 13.4 C 29 %
2717 25-09-2019 07:15:18 13.4 C 29 %
2718 25-09-2019 07:25:18 13.7 C 27 %
2719 25-09-2019 07:35:17 13.6 C 27 %
2720 25-09-2019 07:45:17 13.5 C 27 %
2721 25-09-2019 07:55:18 13.5 C 27 %
2722 25-09-2019 08:05:17 13.3 C 29 %
2723 25-09-2019 08:15:18 13.4 C 30 %
2724 25-09-2019 08:25:18 13.5 C 30 %
2725 25-09-2019 08:35:17 13.7 C 29 %
Sensor: Nr:Datum:Temp:Feuchte:
Aussen-T/F 2726 25-09-2019 08:45:17 13.8 C 29 %
2727 25-09-2019 08:55:17 14 C 28 %
2728 25-09-2019 09:05:18 14 C 28 %
2729 25-09-2019 09:15:17 14 C 28 %
2730 25-09-2019 09:25:17 14.4 C 27 %
2731 25-09-2019 09:35:17 14.6 C 26 %
2732 25-09-2019 09:45:17 14.6 C 26 %
2733 25-09-2019 09:55:17 14.5 C 25 %
2734 25-09-2019 10:05:17 14.5 C 26 %
2735 25-09-2019 10:15:17 15.3 C 23 %
2736 25-09-2019 10:25:17 15.7 C 22 %
2737 25-09-2019 10:35:17 15.8 C 21 %
2738 25-09-2019 10:45:17 15.7 C 22 %
2739 25-09-2019 10:55:17 16 C 20 %
2740 25-09-2019 11:05:18 16.2 C 20 %
2741 25-09-2019 11:15:17 16.5 C 20 %
2742 25-09-2019 11:25:17 16.8 C 20 %
2743 25-09-2019 11:35:17 17 C 20 %
2744 25-09-2019 11:45:17 17.1 C 20 %
2745 25-09-2019 11:55:17 16.8 C 20 %
2746 25-09-2019 12:05:18 17.2 C 20 %
2747 25-09-2019 12:15:17 17.6 C 20 %
2748 25-09-2019 12:25:17 18 C 20 %
2749 25-09-2019 12:35:17 17.1 C 20 %
2750 25-09-2019 12:45:17 17.4 C 20 %
Sensor: Nr:Datum:Temp:Feuchte:
Aussen-T/F 2751 25-09-2019 12:55:17 17.9 C 20 %
2752 25-09-2019 13:05:17 17.6 C 20 %
2753 25-09-2019 13:15:18 17.7 C 20 %
2754 25-09-2019 13:25:18 17.9 C 20 %
2755 25-09-2019 13:35:17 18.4 C 20 %
2756 25-09-2019 13:45:18 18.1 C 20 %
2757 25-09-2019 13:55:18 19.1 C 20 %
2758 25-09-2019 14:05:17 18.8 C 20 %
2759 25-09-2019 14:15:18 18.1 C 20 %
2760 25-09-2019 14:25:18 17.6 C 20 %
2761 25-09-2019 14:35:17 16.9 C 20 %
2762 25-09-2019 14:45:18 16.8 C 20 %
2763 25-09-2019 14:55:18 15.4 C 20 %
2764 25-09-2019 15:05:18 15.6 C 22 %
2765 25-09-2019 15:15:17 16.2 C 21 %
2766 25-09-2019 15:25:17 16.8 C 20 %
2767 25-09-2019 15:35:17 17.1 C 20 %
2768 25-09-2019 15:45:17 16.8 C 20 %
2769 25-09-2019 15:55:17 19.5 C 20 %
2770 25-09-2019 16:05:17 20 C 20 %
2771 25-09-2019 16:15:17 19.7 C 20 %
2772 25-09-2019 16:25:17 20.9 C 20 %
2773 25-09-2019 16:35:17 19.8 C 20 %
2774 25-09-2019 16:45:17 17.7 C 20 %
2775 25-09-2019 16:55:17 18.9 C 20 %
Sensor: Nr:Datum:Temp:Feuchte:
Aussen-T/F 2776 25-09-2019 17:05:17 19.3 C 20 %
2777 25-09-2019 17:15:18 17.9 C 20 %
2778 25-09-2019 17:25:18 17.6 C 20 %
2779 25-09-2019 17:35:17 17.9 C 20 %
2780 25-09-2019 17:45:18 17.7 C 20 %
2781 25-09-2019 17:55:18 17.7 C 20 %
2782 25-09-2019 18:05:17 17.2 C 20 %
2783 25-09-2019 18:15:17 16.4 C 20 %
2784 25-09-2019 18:25:17 16.3 C 20 %
2785 25-09-2019 18:35:17 16 C 20 %
2786 25-09-2019 18:45:17 15.8 C 20 %
2787 25-09-2019 18:55:18 15.8 C 20 %
2788 25-09-2019 19:05:17 15.8 C 20 %
2789 25-09-2019 19:15:18 15.6 C 20 %
2790 25-09-2019 19:25:18 15.4 C 20 %
2791 25-09-2019 19:35:17 15.2 C 21 %
2792 25-09-2019 19:45:18 15.1 C 21 %
2793 25-09-2019 19:55:18 14.8 C 25 %
2794 25-09-2019 20:05:17 14.6 C 25 %
2795 25-09-2019 20:15:17 14.6 C 26 %
2796 25-09-2019 20:25:17 14.5 C 26 %
2797 25-09-2019 20:35:18 14.5 C 26 %
2798 25-09-2019 20:45:17 14.4 C 26 %
2799 25-09-2019 20:55:17 14.4 C 26 %
2800 25-09-2019 21:05:17 14.4 C 26 %
Sensor: Nr:Datum:Temp:Feuchte:
Aussen-T/F 2801 25-09-2019 21:15:17 14.4 C 26 %
2802 25-09-2019 21:25:17 14.4 C 26 %
2803 25-09-2019 21:35:17 14.3 C 26 %
2804 25-09-2019 21:45:18 14.5 C 26 %
2805 25-09-2019 21:55:18 14.4 C 26 %
2806 25-09-2019 22:05:17 14.2 C 27 %
2807 25-09-2019 22:15:18 14.2 C 27 %
2808 25-09-2019 22:25:18 14.2 C 28 %
2809 25-09-2019 22:35:17 14.2 C 30 %
2810 25-09-2019 22:45:17 14.2 C 30 %
2811 25-09-2019 22:55:17 14.2 C 30 %
2812 25-09-2019 23:05:17 14.2 C 30 %
2813 25-09-2019 23:15:18 14.2 C 30 %
2814 25-09-2019 23:25:18 14.1 C 30 %
2815 25-09-2019 23:35:17 14.2 C 30 %
2816 25-09-2019 23:45:18 14.2 C 30 %
2817 25-09-2019 23:55:18 14.2 C 30 %
2818 26-09-2019 00:05:17 14.1 C 30 %
2819 26-09-2019 00:15:17 14.2 C 29 %
2820 26-09-2019 00:25:17 14.1 C 30 %
2821 26-09-2019 00:35:17 14.1 C 30 %
2822 26-09-2019 00:45:18 14.1 C 30 %
2823 26-09-2019 00:55:18 14.1 C 30 %
2824 26-09-2019 01:05:17 14 C 30 %
2825 26-09-2019 01:15:17 13.9 C 30 %
Sensor: Nr:Datum:Temp:Feuchte:
Aussen-T/F 2826 26-09-2019 01:25:17 13.8 C 30 %
2827 26-09-2019 01:35:17 13.5 C 30 %
2828 26-09-2019 01:45:18 13.5 C 31 %
2829 26-09-2019 01:55:18 13.8 C 31 %
2830 26-09-2019 02:05:17 13.8 C 31 %
2831 26-09-2019 02:15:18 13.6 C 31 %
2832 26-09-2019 02:25:18 13.6 C 31 %
2833 26-09-2019 02:35:17 13.8 C 31 %
2834 26-09-2019 02:45:17 13.8 C 31 %
2835 26-09-2019 02:55:18 13.5 C 31 %
2836 26-09-2019 03:05:17 13.1 C 30 %
2837 26-09-2019 03:15:17 13 C 31 %
2838 26-09-2019 03:25:17 13 C 31 %
2839 26-09-2019 03:35:17 12.9 C 32 %
2840 26-09-2019 03:45:17 12.8 C 32 %
2841 26-09-2019 03:55:17 12.8 C 32 %
2842 26-09-2019 04:05:18 12.6 C 32 %
2843 26-09-2019 04:15:17 12.4 C 32 %
2844 26-09-2019 04:25:17 12.7 C 33 %
2845 26-09-2019 04:35:18 12.6 C 33 %
2846 26-09-2019 04:45:17 12.9 C 33 %
2847 26-09-2019 04:55:17 13.2 C 32 %
2848 26-09-2019 05:05:18 13.4 C 32 %
2849 26-09-2019 05:15:17 13.5 C 32 %
2850 26-09-2019 05:25:17 13.6 C 32 %
Sensor: Nr:Datum:Temp:Feuchte:
Aussen-T/F 2851 26-09-2019 05:35:17 13.6 C 31 %
2852 26-09-2019 05:45:17 13.4 C 31 %
2853 26-09-2019 05:55:17 13.5 C 31 %
2854 26-09-2019 06:05:17 13.6 C 31 %
2855 26-09-2019 06:15:17 14 C 30 %
2856 26-09-2019 06:25:17 14.1 C 28 %
2857 26-09-2019 06:35:17 14.1 C 29 %
2858 26-09-2019 06:45:17 14 C 30 %
2859 26-09-2019 06:55:17 14 C 29 %
2860 26-09-2019 07:05:17 14.1 C 29 %
2861 26-09-2019 07:15:17 14.1 C 29 %
2862 26-09-2019 07:25:17 14.2 C 29 %
2863 26-09-2019 07:35:17 14.3 C 29 %
2864 26-09-2019 07:45:17 14.4 C 29 %
2865 26-09-2019 07:55:17 14.5 C 28 %
2866 26-09-2019 08:05:17 14.7 C 27 %
2867 26-09-2019 08:15:18 14.6 C 28 %
2868 26-09-2019 08:25:18 14.5 C 28 %
2869 26-09-2019 08:35:17 14.5 C 28 %
2870 26-09-2019 08:45:18 14.5 C 28 %
2871 26-09-2019 08:55:18 14.8 C 28 %
2872 26-09-2019 09:05:17 14.8 C 28 %
2873 26-09-2019 09:15:17 14.8 C 28 %
2874 26-09-2019 09:25:17 14.9 C 27 %
2875 26-09-2019 09:35:17 14.9 C 27 %
Sensor: Nr:Datum:Temp:Feuchte:
Aussen-T/F 2876 26-09-2019 09:45:17 15 C 26 %
2877 26-09-2019 09:55:17 15.2 C 26 %
2878 26-09-2019 10:05:17 15.3 C 27 %
2879 26-09-2019 10:15:17 15.5 C 27 %
2880 26-09-2019 10:25:17 16.1 C 26 %
2881 26-09-2019 10:35:17 16.2 C 26 %
2882 26-09-2019 10:45:17 16.4 C 26 %
2883 26-09-2019 10:55:17 16.4 C 25 %
2884 26-09-2019 11:05:17 16.2 C 26 %
2885 26-09-2019 11:15:17 16.5 C 26 %
2886 26-09-2019 11:25:17 16.5 C 26 %
2887 26-09-2019 11:35:17 16.6 C 25 %
2888 26-09-2019 11:45:17 16.6 C 25 %
2889 26-09-2019 11:55:17 17.4 C 25 %
2890 26-09-2019 12:05:17 17.7 C 23 %
2891 26-09-2019 12:15:17 17.8 C 23 %
2892 26-09-2019 12:25:17 17.8 C 23 %
2893 26-09-2019 12:35:17 17.8 C 23 %
2894 26-09-2019 12:45:17 17.7 C 24 %
2895 26-09-2019 12:55:17 17.4 C 25 %
2896 26-09-2019 13:05:18 17.3 C 25 %
2897 26-09-2019 13:15:17 17.2 C 25 %
2898 26-09-2019 13:25:17 17.5 C 25 %
2899 26-09-2019 13:35:17 17.4 C 25 %
2900 26-09-2019 13:45:17 17.2 C 25 %
Sensor: Nr:Datum:Temp:Feuchte:
Aussen-T/F 2901 26-09-2019 13:55:17 17 C 25 %
2902 26-09-2019 14:05:17 16.9 C 26 %
2903 26-09-2019 14:15:17 17 C 25 %
2904 26-09-2019 14:25:17 17.3 C 25 %
2905 26-09-2019 14:35:17 17.9 C 25 %
2906 26-09-2019 14:45:17 18.6 C 22 %
2907 26-09-2019 14:55:17 18.6 C 23 %
2908 26-09-2019 15:05:17 18.1 C 23 %
2909 26-09-2019 15:15:17 17.9 C 25 %
2910 26-09-2019 15:25:17 17.7 C 25 %
2911 26-09-2019 15:35:17 18.3 C 24 %
2912 26-09-2019 15:45:17 19.9 C 20 %
2913 26-09-2019 15:55:17 19.5 C 20 %
2914 26-09-2019 16:05:17 19.7 C 20 %
2915 26-09-2019 16:15:17 19.1 C 21 %
2916 26-09-2019 16:25:17 18.7 C 22 %
2917 26-09-2019 16:35:17 18.8 C 21 %
2918 26-09-2019 16:45:18 18.8 C 21 %
2919 26-09-2019 16:55:18 19.1 C 20 %
2920 26-09-2019 17:05:17 19.3 C 20 %
2921 26-09-2019 17:15:17 19.3 C 20 %
2922 26-09-2019 17:25:17 19.1 C 20 %
2923 26-09-2019 17:35:17 19 C 20 %
2924 26-09-2019 17:45:17 18.9 C 21 %
2925 26-09-2019 17:55:17 18.9 C 21 %
Sensor: Nr:Datum:Temp:Feuchte:
Aussen-T/F 2926 26-09-2019 18:05:17 18.8 C 22 %
2927 26-09-2019 18:15:18 18.7 C 22 %
2928 26-09-2019 18:25:18 18.6 C 22 %
2929 26-09-2019 18:35:17 18.4 C 22 %
2930 26-09-2019 18:45:17 18.3 C 23 %
2931 26-09-2019 18:55:17 18.1 C 23 %
2932 26-09-2019 19:05:17 17.8 C 25 %
2933 26-09-2019 19:15:18 17.6 C 25 %
2934 26-09-2019 19:25:18 17.4 C 25 %
2935 26-09-2019 19:35:17 17.3 C 25 %
2936 26-09-2019 19:45:17 17.1 C 26 %
2937 26-09-2019 19:55:17 17.3 C 26 %
2938 26-09-2019 20:05:17 17.2 C 25 %
2939 26-09-2019 20:15:17 17.5 C 23 %
2940 26-09-2019 20:25:17 17.4 C 23 %
2941 26-09-2019 20:35:17 17.3 C 23 %
2942 26-09-2019 20:45:17 17.2 C 23 %
2943 26-09-2019 20:55:17 17.2 C 23 %
2944 26-09-2019 21:05:18 17.1 C 23 %
2945 26-09-2019 21:15:17 17.1 C 23 %
2946 26-09-2019 21:25:17 17.2 C 23 %
2947 26-09-2019 21:35:17 17.3 C 23 %
2948 26-09-2019 21:45:17 17.6 C 22 %
2949 26-09-2019 21:55:17 17.7 C 22 %
2950 26-09-2019 22:05:17 17.7 C 22 %
Sensor: Nr:Datum:Temp:Feuchte:
Aussen-T/F 2951 26-09-2019 22:15:17 17.7 C 22 %
2952 26-09-2019 22:25:17 17.7 C 21 %
2953 26-09-2019 22:35:17 17.8 C 21 %
2954 26-09-2019 22:45:17 17.8 C 21 %
2955 26-09-2019 22:55:17 18 C 21 %
2956 26-09-2019 23:05:18 17.9 C 21 %
2957 26-09-2019 23:15:17 17.9 C 21 %
2958 26-09-2019 23:25:17 17.7 C 21 %
2959 26-09-2019 23:35:17 17.5 C 21 %
2960 26-09-2019 23:45:17 17.8 C 21 %
2961 26-09-2019 23:55:17 18.2 C 20 %
2962 27-09-2019 00:05:18 18.3 C 20 %
2963 27-09-2019 00:15:18 17.9 C 20 %
2964 27-09-2019 00:25:18 18 C 20 %
2965 27-09-2019 00:35:17 18 C 20 %
2966 27-09-2019 00:45:17 17.8 C 20 %
2967 27-09-2019 00:55:18 17.8 C 20 %
2968 27-09-2019 01:05:17 17.8 C 20 %
2969 27-09-2019 01:15:17 18.2 C 20 %
2970 27-09-2019 01:25:17 18.2 C 20 %
2971 27-09-2019 01:35:17 18.3 C 20 %
2972 27-09-2019 01:45:18 18.2 C 20 %
2973 27-09-2019 01:55:18 18.2 C 20 %
2974 27-09-2019 02:05:17 18.1 C 20 %
2975 27-09-2019 02:15:17 18.2 C 20 %
Sensor: Nr:Datum:Temp:Feuchte:
Aussen-T/F 2976 27-09-2019 02:25:17 17.9 C 20 %
2977 27-09-2019 02:35:17 17.8 C 20 %
2978 27-09-2019 02:45:17 16.7 C 21 %
2979 27-09-2019 02:55:17 16.4 C 22 %
2980 27-09-2019 03:05:17 16.1 C 24 %
2981 27-09-2019 03:15:17 15.9 C 26 %
2982 27-09-2019 03:25:17 15.9 C 26 %
2983 27-09-2019 03:35:17 16 C 25 %
2984 27-09-2019 03:45:17 16.1 C 25 %
2985 27-09-2019 03:55:17 16.1 C 25 %
2986 27-09-2019 04:05:17 16.1 C 25 %
2987 27-09-2019 04:15:18 16.1 C 25 %
2988 27-09-2019 04:25:18 15.8 C 26 %
2989 27-09-2019 04:35:17 15.6 C 27 %
2990 27-09-2019 04:45:18 15.9 C 26 %
2991 27-09-2019 04:55:18 15.7 C 27 %
2992 27-09-2019 05:05:17 15.7 C 26 %
2993 27-09-2019 05:15:18 15.7 C 26 %
2994 27-09-2019 05:25:18 15.5 C 27 %
2995 27-09-2019 05:35:17 15.6 C 27 %
2996 27-09-2019 05:45:18 15.4 C 28 %
2997 27-09-2019 05:55:18 15.3 C 30 %
2998 27-09-2019 06:05:17 15.3 C 31 %
2999 27-09-2019 06:15:17 15.2 C 31 %
3000 27-09-2019 06:25:17 15.2 C 32 %
Sensor: Nr:Datum:Temp:Feuchte:
Aussen-T/F 3001 27-09-2019 06:35:17 15.2 C 32 %
3002 27-09-2019 06:45:17 15 C 31 %
3003 27-09-2019 06:55:17 14.1 C 28 %
3004 27-09-2019 07:05:17 14 C 28 %
3005 27-09-2019 07:15:17 13.8 C 30 %
3006 27-09-2019 07:25:17 13.9 C 31 %
3007 27-09-2019 07:35:17 13.8 C 30 %
3008 27-09-2019 07:45:17 13.8 C 29 %
3009 27-09-2019 07:55:17 13.7 C 28 %
3010 27-09-2019 08:05:18 13.6 C 29 %
3011 27-09-2019 08:15:18 13.6 C 29 %
3012 27-09-2019 08:25:18 13.6 C 29 %
3013 27-09-2019 08:35:17 13.7 C 30 %
3014 27-09-2019 08:45:17 13.5 C 30 %
3015 27-09-2019 08:55:17 13.4 C 30 %
3016 27-09-2019 09:05:17 13.6 C 29 %
3017 27-09-2019 09:15:17 13.8 C 27 %
3018 27-09-2019 09:25:17 13.7 C 27 %
3019 27-09-2019 09:35:18 13.7 C 27 %
3020 27-09-2019 09:45:17 14 C 26 %
3021 27-09-2019 09:55:17 14.2 C 26 %
3022 27-09-2019 10:05:17 14.4 C 26 %
3023 27-09-2019 10:15:18 14.8 C 26 %
3024 27-09-2019 10:25:18 15 C 25 %
3025 27-09-2019 10:35:17 15 C 25 %
Sensor: Nr:Datum:Temp:Feuchte:
Aussen-T/F 3026 27-09-2019 10:45:18 15.1 C 25 %
3027 27-09-2019 10:55:18 15.4 C 25 %
3028 27-09-2019 11:05:17 15.7 C 24 %
3029 27-09-2019 11:15:18 15.7 C 24 %
3030 27-09-2019 11:25:18 15.3 C 24 %
3031 27-09-2019 11:35:17 15.2 C 25 %
3032 27-09-2019 11:45:18 15.6 C 24 %
3033 27-09-2019 11:55:18 16.1 C 22 %
3034 27-09-2019 12:05:17 16.1 C 22 %
3035 27-09-2019 12:15:17 16 C 22 %
3036 27-09-2019 12:25:17 16.4 C 22 %
3037 27-09-2019 12:35:18 16.6 C 21 %
3038 27-09-2019 12:45:17 16.8 C 21 %
3039 27-09-2019 12:55:17 17.2 C 20 %
3040 27-09-2019 13:05:17 17.2 C 20 %
3041 27-09-2019 13:15:17 17.2 C 20 %
3042 27-09-2019 13:25:17 17.4 C 20 %
3043 27-09-2019 13:35:17 17.7 C 20 %
3044 27-09-2019 13:45:17 18 C 20 %
3045 27-09-2019 13:55:17 18.9 C 20 %
3046 27-09-2019 14:05:17 19.1 C 20 %
3047 27-09-2019 14:15:17 19.9 C 20 %
3048 27-09-2019 14:25:17 19 C 20 %
3049 27-09-2019 14:35:17 19.3 C 20 %
3050 27-09-2019 14:45:17 19 C 20 %
Sensor: Nr:Datum:Temp:Feuchte:
Aussen-T/F 3051 27-09-2019 14:55:17 19.3 C 20 %
3052 27-09-2019 15:05:17 19 C 20 %
3053 27-09-2019 15:15:17 18.8 C 20 %
3054 27-09-2019 15:25:17 18.6 C 20 %
3055 27-09-2019 15:35:18 18.6 C 20 %
3056 27-09-2019 15:45:17 18.1 C 20 %
3057 27-09-2019 15:55:17 17.6 C 20 %
3058 27-09-2019 16:05:17 18.9 C 20 %
3059 27-09-2019 16:15:17 19.9 C 20 %
3060 27-09-2019 16:25:17 22.4 C 20 %
3061 27-09-2019 16:35:17 22 C 20 %
3062 27-09-2019 16:45:18 22.8 C 20 %
3063 27-09-2019 16:55:18 21.3 C 20 %
3064 27-09-2019 17:05:17 21.7 C 20 %
3065 27-09-2019 17:15:17 21.6 C 20 %
3066 27-09-2019 17:25:17 19.9 C 20 %
3067 27-09-2019 17:35:18 20.2 C 20 %
3068 27-09-2019 17:45:17 19.4 C 20 %
3069 27-09-2019 17:55:17 18.8 C 20 %
3070 27-09-2019 18:05:18 18.2 C 20 %
3071 27-09-2019 18:15:17 17.7 C 20 %
3072 27-09-2019 18:25:17 17.4 C 20 %
3073 27-09-2019 18:35:17 17.9 C 20 %
3074 27-09-2019 18:45:17 17.7 C 20 %
3075 27-09-2019 18:55:17 17.1 C 20 %
Sensor: Nr:Datum:Temp:Feuchte:
Aussen-T/F 3076 27-09-2019 19:05:17 16.4 C 20 %
3077 27-09-2019 19:15:17 15.6 C 20 %
3078 27-09-2019 19:25:17 15.5 C 20 %
3079 27-09-2019 19:35:17 15.5 C 20 %
3080 27-09-2019 19:45:17 15.4 C 20 %
3081 27-09-2019 19:55:17 15.1 C 20 %
3082 27-09-2019 20:05:18 15.2 C 20 %
3083 27-09-2019 20:15:17 15.1 C 20 %
3084 27-09-2019 20:25:17 15.1 C 21 %
3085 27-09-2019 20:35:17 15 C 22 %
3086 27-09-2019 20:45:17 14.7 C 25 %
3087 27-09-2019 20:55:17 14.3 C 25 %
3088 27-09-2019 21:05:17 14.1 C 25 %
3089 27-09-2019 21:15:17 13.9 C 25 %
3090 27-09-2019 21:25:17 13.8 C 25 %
3091 27-09-2019 21:35:17 13.9 C 25 %
3092 27-09-2019 21:45:17 13.8 C 26 %
3093 27-09-2019 21:55:17 13.7 C 26 %
3094 27-09-2019 22:05:17 13.7 C 27 %
3095 27-09-2019 22:15:18 13.6 C 27 %
3096 27-09-2019 22:25:18 13.3 C 26 %
3097 27-09-2019 22:35:17 13.1 C 27 %
3098 27-09-2019 22:45:18 13.1 C 28 %
3099 27-09-2019 22:55:18 13.4 C 30 %
3100 27-09-2019 23:05:17 13.6 C 29 %
Sensor: Nr:Datum:Temp:Feuchte:
Aussen-T/F 3101 27-09-2019 23:15:17 13.1 C 28 %
3102 27-09-2019 23:25:17 12.9 C 29 %
3103 27-09-2019 23:35:17 12.8 C 30 %
3104 27-09-2019 23:45:17 12.7 C 30 %
3105 27-09-2019 23:55:17 12.5 C 30 %
3106 28-09-2019 00:05:18 12.4 C 30 %
3107 28-09-2019 00:15:17 12.3 C 30 %
3108 28-09-2019 00:25:17 12.1 C 30 %
3109 28-09-2019 00:35:17 12.2 C 31 %
3110 28-09-2019 00:45:17 12.3 C 31 %
3111 28-09-2019 00:55:17 12.1 C 31 %
3112 28-09-2019 01:05:18 12.3 C 31 %
3113 28-09-2019 01:15:17 12.2 C 31 %
3114 28-09-2019 01:25:17 12.2 C 31 %
3115 28-09-2019 01:35:18 12.6 C 30 %
3116 28-09-2019 01:45:17 13 C 28 %
3117 28-09-2019 01:55:17 14.2 C 25 %
3118 28-09-2019 02:05:18 14.2 C 25 %
3119 28-09-2019 02:15:17 14.7 C 24 %
3120 28-09-2019 02:25:17 14.7 C 23 %
3121 28-09-2019 02:35:17 14.6 C 23 %
3122 28-09-2019 02:45:17 14.8 C 23 %
3123 28-09-2019 02:55:17 14.9 C 23 %
3124 28-09-2019 03:05:18 14.9 C 23 %
3125 28-09-2019 03:15:17 15.2 C 22 %
Sensor: Nr:Datum:Temp:Feuchte:
Aussen-T/F 3126 28-09-2019 03:25:17 14.8 C 23 %
3127 28-09-2019 03:35:17 14.4 C 25 %
3128 28-09-2019 03:45:17 14.1 C 26 %
3129 28-09-2019 03:55:17 13.7 C 26 %
3130 28-09-2019 04:05:17 13.8 C 27 %
3131 28-09-2019 04:15:18 13.5 C 27 %
3132 28-09-2019 04:25:18 14 C 26 %
3133 28-09-2019 04:35:17 13.7 C 26 %
3134 28-09-2019 04:45:17 14.1 C 25 %
3135 28-09-2019 04:55:17 14.1 C 25 %
3136 28-09-2019 05:05:17 14.1 C 25 %
3137 28-09-2019 05:15:17 14 C 25 %
3138 28-09-2019 05:25:17 14.1 C 25 %
3139 28-09-2019 05:35:17 14 C 25 %
3140 28-09-2019 05:45:18 14.2 C 25 %
3141 28-09-2019 05:55:18 14.2 C 25 %
3142 28-09-2019 06:05:17 14.4 C 25 %
3143 28-09-2019 06:15:17 14.1 C 25 %
3144 28-09-2019 06:25:17 14 C 25 %
3145 28-09-2019 06:35:18 14.4 C 25 %
3146 28-09-2019 06:45:17 13.8 C 26 %
3147 28-09-2019 06:55:17 13.8 C 26 %
3148 28-09-2019 07:05:17 13.5 C 26 %
3149 28-09-2019 07:15:17 13.6 C 27 %
3150 28-09-2019 07:25:17 13.3 C 29 %
Sensor: Nr:Datum:Temp:Feuchte:
Aussen-T/F 3151 28-09-2019 07:35:17 13.5 C 28 %
3152 28-09-2019 07:45:18 13.5 C 29 %
3153 28-09-2019 07:55:18 13.4 C 30 %
3154 28-09-2019 08:05:17 13.2 C 30 %
3155 28-09-2019 08:15:18 13.8 C 26 %
3156 28-09-2019 08:25:18 13.8 C 25 %
3157 28-09-2019 08:35:17 13.7 C 26 %
3158 28-09-2019 08:45:18 13.5 C 26 %
3159 28-09-2019 08:55:18 13.8 C 25 %
3160 28-09-2019 09:05:17 14.1 C 25 %
3161 28-09-2019 09:15:17 14.5 C 24 %
3162 28-09-2019 09:25:17 14.3 C 24 %
3163 28-09-2019 09:35:18 14.5 C 23 %
3164 28-09-2019 09:45:17 14.4 C 23 %
3165 28-09-2019 09:55:17 14.8 C 22 %
3166 28-09-2019 10:05:18 15 C 21 %
3167 28-09-2019 10:15:17 15.5 C 20 %
3168 28-09-2019 10:25:17 15.6 C 20 %
3169 28-09-2019 10:35:17 16 C 20 %
3170 28-09-2019 10:45:17 16.2 C 20 %
3171 28-09-2019 10:55:17 16.1 C 20 %
3172 28-09-2019 11:05:18 16 C 20 %
3173 28-09-2019 11:15:17 16.6 C 20 %
3174 28-09-2019 11:25:17 16.7 C 20 %
3175 28-09-2019 11:35:18 17 C 20 %
Sensor: Nr:Datum:Temp:Feuchte:
Aussen-T/F 3176 28-09-2019 11:45:17 16.6 C 20 %
3177 28-09-2019 11:55:17 16.9 C 20 %
3178 28-09-2019 12:05:17 17.1 C 20 %
3179 28-09-2019 12:15:17 17.4 C 20 %
3180 28-09-2019 12:25:17 17.3 C 20 %
3181 28-09-2019 12:35:17 17.2 C 20 %
3182 28-09-2019 12:45:17 17.4 C 20 %
3183 28-09-2019 12:55:17 17.8 C 20 %
3184 28-09-2019 13:05:18 17.5 C 20 %
3185 28-09-2019 13:15:17 17.6 C 20 %
3186 28-09-2019 13:25:17 17.4 C 20 %
3187 28-09-2019 13:35:17 17.7 C 20 %
3188 28-09-2019 13:45:17 17.8 C 20 %
3189 28-09-2019 13:55:17 17.9 C 20 %
3190 28-09-2019 14:05:17 18.3 C 20 %
3191 28-09-2019 14:15:17 18.3 C 20 %
3192 28-09-2019 14:25:18 17.8 C 20 %
3193 28-09-2019 14:35:17 18.1 C 20 %
3194 28-09-2019 14:45:18 17.8 C 20 %
3195 28-09-2019 14:55:18 18.4 C 20 %
3196 28-09-2019 15:05:17 18.1 C 20 %
3197 28-09-2019 15:15:17 17.7 C 20 %
3198 28-09-2019 15:25:17 17.3 C 20 %
3199 28-09-2019 15:35:17 17.5 C 20 %
3200 28-09-2019 15:45:18 17.3 C 20 %
Sensor: Nr:Datum:Temp:Feuchte:
Aussen-T/F 3201 28-09-2019 15:55:18 16.8 C 20 %
3202 28-09-2019 16:05:17 17.1 C 20 %
3203 28-09-2019 16:15:17 19.7 C 20 %
3204 28-09-2019 16:25:17 20.3 C 20 %
3205 28-09-2019 16:35:17 19.6 C 20 %
3206 28-09-2019 16:45:17 19 C 20 %
3207 28-09-2019 16:55:17 18.7 C 20 %
3208 28-09-2019 17:05:17 18.6 C 20 %
3209 28-09-2019 17:15:18 17.3 C 20 %
3210 28-09-2019 17:25:18 19 C 20 %
3211 28-09-2019 17:35:17 19.2 C 20 %
3212 28-09-2019 17:45:18 18.3 C 20 %
3213 28-09-2019 17:55:18 17.7 C 20 %
3214 28-09-2019 18:05:17 17.7 C 20 %
3215 28-09-2019 18:15:17 17.3 C 20 %
3216 28-09-2019 18:25:17 17 C 20 %
3217 28-09-2019 18:35:17 16.4 C 20 %
3218 28-09-2019 18:45:18 16.2 C 20 %
3219 28-09-2019 18:55:18 15.9 C 20 %
3220 28-09-2019 19:05:17 15.8 C 20 %
3221 28-09-2019 19:15:17 15.4 C 20 %
3222 28-09-2019 19:25:17 15.6 C 20 %
3223 28-09-2019 19:35:17 15.6 C 20 %
3224 28-09-2019 19:45:17 15.9 C 20 %
3225 28-09-2019 19:55:17 15.9 C 20 %
Sensor: Nr:Datum:Temp:Feuchte:
Aussen-T/F 3226 28-09-2019 20:05:18 15.6 C 20 %
3227 28-09-2019 20:15:17 15.3 C 20 %
3228 28-09-2019 20:25:17 15 C 20 %
3229 28-09-2019 20:35:17 14.8 C 20 %
3230 28-09-2019 20:45:17 15.3 C 20 %
3231 28-09-2019 20:55:17 15.4 C 20 %
3232 28-09-2019 21:05:17 14.8 C 20 %
3233 28-09-2019 21:15:18 14.7 C 20 %
3234 28-09-2019 21:25:18 15.1 C 20 %
3235 28-09-2019 21:35:17 15.1 C 20 %
3236 28-09-2019 21:45:18 15.3 C 20 %
3237 28-09-2019 21:55:18 15.4 C 20 %
3238 28-09-2019 22:05:17 15.4 C 20 %
3239 28-09-2019 22:15:17 15.4 C 20 %
3240 28-09-2019 22:25:17 15.1 C 20 %
3241 28-09-2019 22:35:17 14.8 C 20 %
3242 28-09-2019 22:45:17 14.2 C 20 %
3243 28-09-2019 22:55:17 14.1 C 20 %
3244 28-09-2019 23:05:17 13.4 C 20 %
3245 28-09-2019 23:15:17 13.8 C 20 %
3246 28-09-2019 23:25:17 13.9 C 20 %
3247 28-09-2019 23:35:17 14.7 C 20 %
3248 28-09-2019 23:45:17 14 C 20 %
3249 28-09-2019 23:55:17 14 C 20 %
3250 29-09-2019 00:05:17 13.8 C 20 %
Sensor: Nr:Datum:Temp:Feuchte:
Aussen-T/F 3251 29-09-2019 00:15:17 13.9 C 20 %
3252 29-09-2019 00:25:17 14.3 C 20 %
3253 29-09-2019 00:35:17 14.2 C 20 %
3254 29-09-2019 00:45:18 14.2 C 20 %
3255 29-09-2019 00:55:18 14 C 20 %
3256 29-09-2019 01:05:17 14.1 C 20 %
3257 29-09-2019 01:15:18 13.9 C 20 %
3258 29-09-2019 01:25:18 13.7 C 20 %
3259 29-09-2019 01:35:17 13.5 C 20 %
3260 29-09-2019 01:45:17 13.4 C 21 %
3261 29-09-2019 01:55:17 13.4 C 22 %
3262 29-09-2019 02:05:17 13.3 C 22 %
3263 29-09-2019 02:15:17 13.2 C 23 %
3264 29-09-2019 02:25:18 13.2 C 23 %
3265 29-09-2019 02:35:17 13.3 C 23 %
3266 29-09-2019 02:45:18 13.7 C 23 %
3267 29-09-2019 02:55:18 13.3 C 24 %
3268 29-09-2019 03:05:17 13.2 C 24 %
3269 29-09-2019 03:15:18 13.2 C 25 %
3270 29-09-2019 03:25:18 13.2 C 24 %
3271 29-09-2019 03:35:17 13.1 C 25 %
3272 29-09-2019 03:45:17 13.1 C 25 %
3273 29-09-2019 03:55:17 13.2 C 25 %
3274 29-09-2019 04:05:17 13.3 C 25 %
3275 29-09-2019 04:15:17 13.2 C 25 %
Sensor: Nr:Datum:Temp:Feuchte:
Aussen-T/F 3276 29-09-2019 04:25:17 13.3 C 25 %
3277 29-09-2019 04:35:17 13.4 C 25 %
3278 29-09-2019 04:45:17 13.5 C 25 %
3279 29-09-2019 04:55:17 13.7 C 24 %
3280 29-09-2019 05:05:18 13.6 C 25 %
3281 29-09-2019 05:15:17 13.8 C 23 %
3282 29-09-2019 05:25:17 13.7 C 23 %
3283 29-09-2019 05:35:18 13.5 C 22 %
3284 29-09-2019 05:45:17 13.7 C 23 %
3285 29-09-2019 05:55:17 13.6 C 22 %
3286 29-09-2019 06:05:17 13.8 C 21 %
3287 29-09-2019 06:15:17 13.8 C 21 %
3288 29-09-2019 06:25:17 13.7 C 21 %
3289 29-09-2019 06:35:18 13.3 C 23 %
3290 29-09-2019 06:45:17 13.4 C 21 %
3291 29-09-2019 06:55:17 13.7 C 21 %
3292 29-09-2019 07:05:18 13.7 C 21 %
3293 29-09-2019 07:15:17 13.7 C 21 %
3294 29-09-2019 07:25:17 13.7 C 21 %
3295 29-09-2019 07:35:17 13.6 C 21 %
3296 29-09-2019 07:45:17 14 C 21 %
3297 29-09-2019 07:55:17 14.1 C 21 %
3298 29-09-2019 08:05:18 14.6 C 20 %
3299 29-09-2019 08:15:17 14.8 C 20 %
3300 29-09-2019 08:25:17 14.8 C 20 %
Sensor: Nr:Datum:Temp:Feuchte:
Aussen-T/F 3301 29-09-2019 08:35:17 14.8 C 20 %
3302 29-09-2019 08:45:17 15.5 C 20 %
3303 29-09-2019 08:55:17 16.2 C 20 %
3304 29-09-2019 09:05:17 16.4 C 20 %
3305 29-09-2019 09:15:17 16.7 C 20 %
3306 29-09-2019 09:25:17 16.7 C 20 %
3307 29-09-2019 09:35:17 16.8 C 20 %
3308 29-09-2019 09:45:17 17 C 20 %
3309 29-09-2019 09:55:17 17.3 C 20 %
3310 29-09-2019 10:05:17 17.3 C 20 %
3311 29-09-2019 10:15:17 17.3 C 20 %
3312 29-09-2019 10:25:17 17.6 C 20 %
3313 29-09-2019 10:35:17 17.9 C 20 %
3314 29-09-2019 10:45:17 18.3 C 20 %
3315 29-09-2019 10:55:17 17.9 C 20 %
3316 29-09-2019 11:05:17 17.8 C 20 %
3317 29-09-2019 11:15:17 17.7 C 20 %
3318 29-09-2019 11:25:18 17.7 C 20 %
3319 29-09-2019 11:35:17 18 C 20 %
3320 29-09-2019 11:45:17 18.5 C 20 %
3321 29-09-2019 11:55:17 19 C 20 %
3322 29-09-2019 12:05:17 19 C 20 %
3323 29-09-2019 12:15:17 18.7 C 20 %
3324 29-09-2019 12:25:17 18.5 C 20 %
3325 29-09-2019 12:35:18 17.4 C 20 %
Sensor: Nr:Datum:Temp:Feuchte:
Aussen-T/F 3326 29-09-2019 12:45:17 17.7 C 20 %
3327 29-09-2019 12:55:17 18.8 C 20 %
3328 29-09-2019 13:05:18 18.6 C 20 %
3329 29-09-2019 13:15:17 18.4 C 20 %
3330 29-09-2019 13:25:17 17.9 C 20 %
3331 29-09-2019 13:35:18 17.7 C 20 %
3332 29-09-2019 13:45:17 18.4 C 20 %
3333 29-09-2019 13:55:17 19 C 20 %
3334 29-09-2019 14:05:18 18.9 C 20 %
3335 29-09-2019 14:15:17 19.6 C 20 %
3336 29-09-2019 14:25:17 19.3 C 20 %
3337 29-09-2019 14:35:18 18.9 C 20 %
3338 29-09-2019 14:45:17 18.5 C 20 %
3339 29-09-2019 14:55:17 18.3 C 20 %
3340 29-09-2019 15:05:18 18.4 C 20 %
3341 29-09-2019 15:15:18 18.8 C 20 %
3342 29-09-2019 15:25:18 19.1 C 20 %
3343 29-09-2019 15:35:17 18.6 C 20 %
3344 29-09-2019 15:45:17 18.5 C 20 %
3345 29-09-2019 15:55:18 17.7 C 20 %
3346 29-09-2019 16:05:17 16.7 C 20 %
3347 29-09-2019 16:15:18 16.8 C 20 %
3348 29-09-2019 16:25:18 17 C 20 %
3349 29-09-2019 16:35:17 16.9 C 20 %
3350 29-09-2019 16:45:17 16.7 C 20 %
Sensor: Nr:Datum:Temp:Feuchte:
Aussen-T/F 3351 29-09-2019 16:55:17 16.7 C 20 %
3352 29-09-2019 17:05:17 16.9 C 20 %
3353 29-09-2019 17:15:17 16.9 C 20 %
3354 29-09-2019 17:25:17 17.1 C 20 %
3355 29-09-2019 17:35:17 17.3 C 20 %
3356 29-09-2019 17:45:18 17.5 C 20 %
3357 29-09-2019 17:55:18 17.7 C 20 %
3358 29-09-2019 18:05:17 17.7 C 20 %
3359 29-09-2019 18:15:17 17.6 C 20 %
3360 29-09-2019 18:25:17 17.7 C 20 %
3361 29-09-2019 18:35:17 16.9 C 20 %
3362 29-09-2019 18:45:18 16.9 C 20 %
3363 29-09-2019 18:55:18 17.4 C 20 %
3364 29-09-2019 19:05:17 17.5 C 20 %
3365 29-09-2019 19:15:18 17.7 C 20 %
3366 29-09-2019 19:25:18 17.9 C 20 %
3367 29-09-2019 19:35:17 18 C 20 %
3368 29-09-2019 19:45:18 18 C 20 %
3369 29-09-2019 19:55:18 17.5 C 20 %
3370 29-09-2019 20:05:17 16.6 C 22 %
3371 29-09-2019 20:15:17 16.2 C 25 %
3372 29-09-2019 20:25:17 16 C 25 %
3373 29-09-2019 20:35:17 16.2 C 25 %
3374 29-09-2019 20:45:18 16.5 C 25 %
3375 29-09-2019 20:55:18 16.5 C 25 %
Sensor: Nr:Datum:Temp:Feuchte:
Aussen-T/F 3376 29-09-2019 21:05:17 16 C 27 %
3377 29-09-2019 21:15:17 16.3 C 27 %
3378 29-09-2019 21:25:17 16.4 C 26 %
3379 29-09-2019 21:35:17 16.3 C 27 %
3380 29-09-2019 21:45:18 16.6 C 26 %
3381 29-09-2019 21:55:18 16.7 C 25 %
3382 29-09-2019 22:05:17 16.8 C 25 %
3383 29-09-2019 22:15:17 16.9 C 25 %
3384 29-09-2019 22:25:17 16.6 C 25 %
3385 29-09-2019 22:35:17 16.4 C 26 %
3386 29-09-2019 22:45:18 16.4 C 27 %
3387 29-09-2019 22:55:18 16.4 C 26 %
3388 29-09-2019 23:05:17 16.7 C 25 %
3389 29-09-2019 23:15:17 17 C 25 %
3390 29-09-2019 23:25:17 16.2 C 25 %
3391 29-09-2019 23:35:17 16.4 C 25 %
3392 29-09-2019 23:45:17 15.8 C 26 %
3393 29-09-2019 23:55:17 16.2 C 24 %
3394 30-09-2019 00:05:18 15.9 C 23 %
3395 30-09-2019 00:15:17 15.8 C 21 %
3396 30-09-2019 00:25:17 16 C 20 %
3397 30-09-2019 00:35:18 15.9 C 20 %
3398 30-09-2019 00:45:17 16 C 20 %
3399 30-09-2019 00:55:17 15.7 C 20 %
3400 30-09-2019 01:05:17 15.6 C 20 %
Sensor: Nr:Datum:Temp:Feuchte:
Aussen-T/F 3401 30-09-2019 01:15:17 15.4 C 21 %
3402 30-09-2019 01:25:17 15.4 C 21 %
3403 30-09-2019 01:35:17 15.1 C 21 %
3404 30-09-2019 01:45:18 14.7 C 23 %
3405 30-09-2019 01:55:18 14.6 C 23 %
3406 30-09-2019 02:05:17 15 C 21 %
3407 30-09-2019 02:15:17 15.2 C 21 %
3408 30-09-2019 02:25:17 15.2 C 21 %
3409 30-09-2019 02:35:17 15.3 C 21 %
3410 30-09-2019 02:45:17 15.2 C 21 %
3411 30-09-2019 02:55:18 15 C 21 %
3412 30-09-2019 03:05:17 15 C 21 %
3413 30-09-2019 03:15:17 15.1 C 21 %
3414 30-09-2019 03:25:17 15.4 C 21 %
3415 30-09-2019 03:35:17 15.2 C 21 %
3416 30-09-2019 03:45:17 14.6 C 23 %
3417 30-09-2019 03:55:18 14.7 C 25 %
3418 30-09-2019 04:05:17 14.8 C 24 %
3419 30-09-2019 04:15:17 14.7 C 23 %
3420 30-09-2019 04:25:17 14.9 C 23 %
3421 30-09-2019 04:35:17 14.2 C 25 %
3422 30-09-2019 04:45:18 13.7 C 28 %
3423 30-09-2019 04:55:18 13.4 C 27 %
3424 30-09-2019 05:05:17 13.2 C 27 %
3425 30-09-2019 05:15:17 13.3 C 26 %
Sensor: Nr:Datum:Temp:Feuchte:
Aussen-T/F 3426 30-09-2019 05:25:17 13.4 C 26 %
3427 30-09-2019 05:35:17 13.3 C 26 %
3428 30-09-2019 05:45:18 13 C 27 %
3429 30-09-2019 05:55:18 12.9 C 28 %
3430 30-09-2019 06:05:17 12.7 C 30 %
3431 30-09-2019 06:15:17 13.2 C 25 %
3432 30-09-2019 06:25:17 13.2 C 25 %
3433 30-09-2019 06:35:18 13 C 25 %
3434 30-09-2019 06:45:17 13.1 C 25 %
3435 30-09-2019 06:55:17 13.1 C 25 %
3436 30-09-2019 07:05:18 13.1 C 25 %
3437 30-09-2019 07:15:17 13.2 C 24 %
3438 30-09-2019 07:25:17 13.3 C 23 %
3439 30-09-2019 07:35:17 13.3 C 23 %
3440 30-09-2019 07:45:17 13.2 C 23 %
3441 30-09-2019 07:55:17 13.2 C 23 %
3442 30-09-2019 08:05:17 13.5 C 21 %
3443 30-09-2019 08:15:18 13.6 C 21 %
3444 30-09-2019 08:25:18 13.5 C 21 %
3445 30-09-2019 08:35:17 13.3 C 21 %
3446 30-09-2019 08:45:17 13.6 C 20 %
3447 30-09-2019 08:55:17 13.7 C 20 %
3448 30-09-2019 09:05:17 13.9 C 20 %
3449 30-09-2019 09:15:17 14 C 20 %
3450 30-09-2019 09:25:17 14.1 C 20 %
Sensor: Nr:Datum:Temp:Feuchte:
Aussen-T/F 3451 30-09-2019 09:35:17 14.3 C 20 %
3452 30-09-2019 09:45:18 14.4 C 20 %
3453 30-09-2019 09:55:18 14.2 C 20 %
3454 30-09-2019 10:05:17 14.5 C 20 %
3455 30-09-2019 10:15:17 14.3 C 20 %
3456 30-09-2019 10:25:17 14.3 C 20 %
3457 30-09-2019 10:35:17 14.6 C 20 %
3458 30-09-2019 10:45:17 14.9 C 20 %
3459 30-09-2019 10:55:17 15.1 C 20 %
3460 30-09-2019 11:05:18 15 C 20 %
3461 30-09-2019 11:15:17 15.3 C 20 %
3462 30-09-2019 11:25:17 15.2 C 20 %
3463 30-09-2019 11:35:17 15.6 C 20 %
3464 30-09-2019 11:45:17 15.8 C 20 %
3465 30-09-2019 11:55:17 15.6 C 20 %
3466 30-09-2019 12:05:17 15.7 C 20 %
3467 30-09-2019 12:15:18 15.7 C 20 %
3468 30-09-2019 12:25:18 16 C 20 %
3469 30-09-2019 12:35:17 16.3 C 20 %
3470 30-09-2019 12:45:17 16.2 C 20 %
3471 30-09-2019 12:55:18 16.2 C 20 %
3472 30-09-2019 13:05:17 16.3 C 20 %
3473 30-09-2019 13:15:18 16.4 C 20 %
3474 30-09-2019 13:25:18 16.9 C 20 %
3475 30-09-2019 13:35:17 17.5 C 20 %
Sensor: Nr:Datum:Temp:Feuchte:
Aussen-T/F 3476 30-09-2019 13:45:17 17.1 C 20 %
3477 30-09-2019 13:55:17 17.4 C 20 %
3478 30-09-2019 14:05:17 17.3 C 20 %
3479 30-09-2019 14:15:17 17.3 C 20 %
3480 30-09-2019 14:25:17 17.5 C 20 %
3481 30-09-2019 14:35:17 17.9 C 20 %
3482 30-09-2019 14:45:18 18 C 20 %
3483 30-09-2019 14:55:18 18.5 C 20 %
3484 30-09-2019 15:05:17 18.6 C 20 %
3485 30-09-2019 15:15:18 18.1 C 20 %
3486 30-09-2019 15:25:18 18.5 C 20 %
3487 30-09-2019 15:35:17 18.6 C 20 %
3488 30-09-2019 15:45:17 18.6 C 20 %
3489 30-09-2019 15:55:18 19.5 C 20 %
3490 30-09-2019 16:05:17 20.1 C 20 %
3491 30-09-2019 16:15:17 21.3 C 20 %
3492 30-09-2019 16:25:17 22.2 C 20 %
3493 30-09-2019 16:35:17 20.3 C 20 %
3494 30-09-2019 16:45:17 21.7 C 20 %
3495 30-09-2019 16:55:17 21.6 C 20 %
3496 30-09-2019 17:05:17 19.9 C 20 %
3497 30-09-2019 17:15:17 19.2 C 20 %
3498 30-09-2019 17:25:17 19.1 C 20 %
3499 30-09-2019 17:35:17 18.8 C 20 %
3500 30-09-2019 17:45:18 18.5 C 20 %
Sensor: Nr:Datum:Temp:Feuchte:
Aussen-T/F 3501 30-09-2019 17:55:18 18.1 C 20 %
3502 30-09-2019 18:05:18 18.1 C 20 %
3503 30-09-2019 18:15:17 17.7 C 20 %
3504 30-09-2019 18:25:17 17.4 C 20 %
3505 30-09-2019 18:35:17 16.6 C 20 %
3506 30-09-2019 18:45:17 15.5 C 20 %
3507 30-09-2019 18:55:17 15 C 20 %
3508 30-09-2019 19:05:17 15 C 20 %
3509 30-09-2019 19:15:17 14.7 C 20 %
3510 30-09-2019 19:25:17 14.5 C 20 %
3511 30-09-2019 19:35:17 14.6 C 20 %
3512 30-09-2019 19:45:17 14.7 C 20 %
3513 30-09-2019 19:55:17 14.1 C 20 %
3514 30-09-2019 20:05:17 14.5 C 20 %
3515 30-09-2019 20:15:17 14.3 C 20 %
3516 30-09-2019 20:25:17 14.2 C 20 %
3517 30-09-2019 20:35:17 14.7 C 20 %
3518 30-09-2019 20:45:18 14.9 C 20 %
3519 30-09-2019 20:55:18 15.1 C 20 %
3520 30-09-2019 21:05:17 15 C 20 %
3521 30-09-2019 21:15:17 15 C 20 %
3522 30-09-2019 21:25:17 14.4 C 20 %
3523 30-09-2019 21:35:18 14.2 C 20 %
3524 30-09-2019 21:45:17 14.7 C 20 %
3525 30-09-2019 21:55:17 14.9 C 20 %
Sensor: Nr:Datum:Temp:Feuchte:
Aussen-T/F 3526 30-09-2019 22:05:18 14.8 C 20 %
3527 30-09-2019 22:15:17 14.9 C 20 %
3528 30-09-2019 22:25:17 14.9 C 20 %
3529 30-09-2019 22:35:18 15 C 20 %
3530 30-09-2019 22:45:17 15.1 C 20 %
3531 30-09-2019 22:55:17 14.4 C 20 %
3532 30-09-2019 23:05:17 13.7 C 20 %
3533 30-09-2019 23:15:17 13.5 C 21 %
3534 30-09-2019 23:25:17 13.6 C 21 %
3535 30-09-2019 23:35:17 14.3 C 20 %
3536 30-09-2019 23:45:17 14.3 C 20 %
3537 30-09-2019 23:55:17 14.5 C 20 %
3538 01-10-2019 00:05:17 14.4 C 20 %
3539 01-10-2019 00:15:17 14.3 C 20 %
3540 01-10-2019 00:25:17 14.2 C 20 %
3541 01-10-2019 00:35:17 14 C 20 %
3542 01-10-2019 00:45:17 13.8 C 20 %
3543 01-10-2019 00:55:17 13.7 C 21 %
3544 01-10-2019 01:05:17 13.7 C 21 %
3545 01-10-2019 01:15:17 13.7 C 21 %
3546 01-10-2019 01:25:17 13.7 C 21 %
3547 01-10-2019 01:35:17 13.7 C 20 %
3548 01-10-2019 01:45:17 14 C 20 %
3549 01-10-2019 01:55:17 13.4 C 21 %
3550 01-10-2019 02:05:18 13.5 C 21 %
Sensor: Nr:Datum:Temp:Feuchte:
Aussen-T/F 3551 01-10-2019 02:15:18 13.5 C 21 %
3552 01-10-2019 02:25:18 13.2 C 22 %
3553 01-10-2019 02:35:17 12.9 C 23 %
3554 01-10-2019 02:45:18 12.9 C 24 %
3555 01-10-2019 02:55:18 12.8 C 25 %
3556 01-10-2019 03:05:17 12.4 C 25 %
3557 01-10-2019 03:15:17 11.9 C 26 %
3558 01-10-2019 03:25:17 11.8 C 26 %
3559 01-10-2019 03:35:17 11.8 C 27 %
3560 01-10-2019 03:45:18 11.8 C 27 %
3561 01-10-2019 03:55:18 12.2 C 26 %
3562 01-10-2019 04:05:17 12.5 C 25 %
3563 01-10-2019 04:15:18 12.9 C 25 %
3564 01-10-2019 04:25:18 13.3 C 23 %
3565 01-10-2019 04:35:17 14.2 C 21 %
3566 01-10-2019 04:45:17 14.3 C 21 %
3567 01-10-2019 04:55:17 14 C 21 %
3568 01-10-2019 05:05:17 14 C 21 %
3569 01-10-2019 05:15:17 13.7 C 22 %
3570 01-10-2019 05:25:17 13.7 C 23 %
3571 01-10-2019 05:35:17 14.1 C 21 %
3572 01-10-2019 05:45:17 14.3 C 21 %
3573 01-10-2019 05:55:17 14.5 C 21 %
3574 01-10-2019 06:05:18 14.6 C 21 %
3575 01-10-2019 06:15:17 14.8 C 21 %
Sensor: Nr:Datum:Temp:Feuchte:
Aussen-T/F 3576 01-10-2019 06:25:17 15 C 20 %
3577 01-10-2019 06:35:18 15 C 20 %
3578 01-10-2019 06:45:17 15.1 C 20 %
3579 01-10-2019 06:55:17 15.1 C 20 %
3580 01-10-2019 07:05:17 15.1 C 21 %
3581 01-10-2019 07:15:17 15.3 C 21 %
3582 01-10-2019 07:25:17 15.3 C 21 %
3583 01-10-2019 07:35:17 15.3 C 21 %
3584 01-10-2019 07:45:17 15.4 C 21 %
3585 01-10-2019 07:55:17 15.3 C 21 %
3586 01-10-2019 08:05:17 15.3 C 21 %
3587 01-10-2019 08:15:17 15.4 C 21 %
3588 01-10-2019 08:25:17 15.4 C 22 %
3589 01-10-2019 08:35:17 15.4 C 21 %
3590 01-10-2019 08:45:18 15.4 C 21 %
3591 01-10-2019 08:55:18 15.4 C 21 %
3592 01-10-2019 09:05:17 15.6 C 21 %
3593 01-10-2019 09:15:18 15.7 C 21 %
3594 01-10-2019 09:25:18 16 C 20 %
3595 01-10-2019 09:35:17 16.5 C 20 %
3596 01-10-2019 09:45:17 16.8 C 20 %
3597 01-10-2019 09:55:17 16.7 C 20 %
3598 01-10-2019 10:05:17 17 C 20 %
3599 01-10-2019 10:15:18 17.2 C 20 %
3600 01-10-2019 10:25:18 17.3 C 20 %
Sensor: Nr:Datum:Temp:Feuchte:
Aussen-T/F 3601 01-10-2019 10:35:17 17.6 C 20 %
3602 01-10-2019 10:45:17 17.3 C 20 %
3603 01-10-2019 10:55:17 17.4 C 20 %
3604 01-10-2019 11:05:17 17.8 C 20 %
3605 01-10-2019 11:15:17 17.8 C 20 %
3606 01-10-2019 11:25:17 17 C 20 %
3607 01-10-2019 11:35:17 18 C 20 %
3608 01-10-2019 11:45:17 17.8 C 20 %
3609 01-10-2019 11:55:17 17.8 C 20 %
3610 01-10-2019 12:05:18 17.4 C 20 %
3611 01-10-2019 12:15:17 16.4 C 23 %
3612 01-10-2019 12:25:17 17 C 23 %
3613 01-10-2019 12:35:17 17.2 C 22 %
3614 01-10-2019 12:45:17 17.8 C 21 %
3615 01-10-2019 12:55:17 18.3 C 20 %
3616 01-10-2019 13:05:17 18.6 C 20 %
3617 01-10-2019 13:15:17 19.1 C 20 %
3618 01-10-2019 13:25:17 19.3 C 20 %
3619 01-10-2019 13:35:17 19.5 C 20 %
3620 01-10-2019 13:45:17 18.8 C 20 %
3621 01-10-2019 13:55:17 18.3 C 20 %
3622 01-10-2019 14:05:18 18.8 C 20 %
3623 01-10-2019 14:15:17 18.4 C 20 %
3624 01-10-2019 14:25:17 18.9 C 20 %
3625 01-10-2019 14:35:18 18.8 C 20 %
Sensor: Nr:Datum:Temp:Feuchte:
Aussen-T/F 3626 01-10-2019 14:45:17 19.6 C 20 %
3627 01-10-2019 14:55:17 19.2 C 20 %
3628 01-10-2019 15:05:18 19.4 C 20 %
3629 01-10-2019 15:15:17 20.4 C 20 %
3630 01-10-2019 15:25:17 19.8 C 20 %
3631 01-10-2019 15:35:17 19.7 C 20 %
3632 01-10-2019 15:45:17 19.7 C 20 %
3633 01-10-2019 15:55:17 19.6 C 20 %
3634 01-10-2019 16:05:17 18.4 C 20 %
3635 01-10-2019 16:15:17 17.4 C 25 %
3636 01-10-2019 16:25:17 17 C 25 %
3637 01-10-2019 16:35:18 17.2 C 26 %
3638 01-10-2019 16:45:17 17.3 C 26 %
3639 01-10-2019 16:55:17 17.4 C 26 %
3640 01-10-2019 17:05:18 17.5 C 27 %
3641 01-10-2019 17:15:17 17.2 C 27 %
3642 01-10-2019 17:25:17 16.9 C 27 %
3643 01-10-2019 17:35:17 16.8 C 28 %
3644 01-10-2019 17:45:17 16.8 C 28 %
3645 01-10-2019 17:55:18 16.7 C 26 %
3646 01-10-2019 18:05:17 16.7 C 25 %
3647 01-10-2019 18:15:18 16.5 C 26 %
3648 01-10-2019 18:25:18 16.3 C 27 %
3649 01-10-2019 18:35:17 16.1 C 28 %
3650 01-10-2019 18:45:17 16 C 29 %
Sensor: Nr:Datum:Temp:Feuchte:
Aussen-T/F 3651 01-10-2019 18:55:17 15.7 C 30 %
3652 01-10-2019 19:05:17 15.7 C 31 %
3653 01-10-2019 19:15:18 15.7 C 31 %
3654 01-10-2019 19:25:18 15.7 C 31 %
3655 01-10-2019 19:35:17 15.8 C 31 %
3656 01-10-2019 19:45:17 15.6 C 31 %
3657 01-10-2019 19:55:17 15.3 C 31 %
3658 01-10-2019 20:05:17 15.2 C 32 %
3659 01-10-2019 20:15:18 15.4 C 32 %
3660 01-10-2019 20:25:18 15.5 C 32 %
3661 01-10-2019 20:35:17 15.5 C 31 %
3662 01-10-2019 20:45:17 15.6 C 31 %
3663 01-10-2019 20:55:17 15.8 C 29 %
3664 01-10-2019 21:05:17 16 C 28 %
3665 01-10-2019 21:15:17 16.1 C 26 %
3666 01-10-2019 21:25:18 16 C 26 %
3667 01-10-2019 21:35:17 16 C 26 %
3668 01-10-2019 21:45:18 15.8 C 27 %
3669 01-10-2019 21:55:18 15.4 C 29 %
3670 01-10-2019 22:05:17 15.4 C 30 %
3671 01-10-2019 22:15:18 15.1 C 30 %
3672 01-10-2019 22:25:18 15.2 C 30 %
3673 01-10-2019 22:35:17 15.4 C 27 %
3674 01-10-2019 22:45:17 14.9 C 30 %
3675 01-10-2019 22:55:17 14.8 C 30 %
Sensor: Nr:Datum:Temp:Feuchte:
Aussen-T/F 3676 01-10-2019 23:05:17 14.9 C 29 %
3677 01-10-2019 23:15:17 15.2 C 27 %
3678 01-10-2019 23:25:17 15.4 C 27 %
3679 01-10-2019 23:35:17 15.6 C 26 %
3680 01-10-2019 23:45:17 15 C 28 %
3681 01-10-2019 23:55:17 14.9 C 29 %
3682 02-10-2019 00:05:18 14.8 C 29 %
3683 02-10-2019 00:15:17 14.8 C 29 %
3684 02-10-2019 00:25:17 14.7 C 30 %
3685 02-10-2019 00:35:18 14.8 C 30 %
3686 02-10-2019 00:45:17 14.9 C 28 %
3687 02-10-2019 00:55:17 15.2 C 27 %
3688 02-10-2019 01:05:17 15.3 C 26 %
3689 02-10-2019 01:15:17 15.2 C 26 %
3690 02-10-2019 01:25:17 15.1 C 26 %
3691 02-10-2019 01:35:18 15.2 C 27 %
3692 02-10-2019 01:45:17 15.1 C 26 %
3693 02-10-2019 01:55:17 15.1 C 26 %
3694 02-10-2019 02:05:18 14.7 C 28 %
3695 02-10-2019 02:15:17 14.5 C 29 %
3696 02-10-2019 02:25:17 14.2 C 30 %
3697 02-10-2019 02:35:17 14.3 C 31 %
3698 02-10-2019 02:45:17 14.5 C 30 %
3699 02-10-2019 02:55:17 14.8 C 28 %
3700 02-10-2019 03:05:18 14.9 C 27 %
Sensor: Nr:Datum:Temp:Feuchte:
Aussen-T/F 3701 02-10-2019 03:15:17 15 C 26 %
3702 02-10-2019 03:25:17 15 C 26 %
3703 02-10-2019 03:35:18 15 C 26 %
3704 02-10-2019 03:45:17 15 C 26 %
3705 02-10-2019 03:55:17 15 C 25 %
3706 02-10-2019 04:05:18 14.9 C 26 %
3707 02-10-2019 04:15:17 15.2 C 25 %
3708 02-10-2019 04:25:17 15.1 C 25 %
3709 02-10-2019 04:35:18 15 C 25 %
3710 02-10-2019 04:45:17 14.7 C 26 %
3711 02-10-2019 04:55:17 14.8 C 26 %
3712 02-10-2019 05:05:18 14.6 C 26 %
3713 02-10-2019 05:15:17 14.4 C 27 %
3714 02-10-2019 05:25:17 14.2 C 27 %
3715 02-10-2019 05:35:18 14.1 C 27 %
3716 02-10-2019 05:45:17 13.8 C 29 %
3717 02-10-2019 05:55:17 13.8 C 27 %
3718 02-10-2019 06:05:17 13.5 C 27 %
3719 02-10-2019 06:15:17 13.5 C 29 %
3720 02-10-2019 06:25:17 13.3 C 29 %
3721 02-10-2019 06:35:17 12.6 C 27 %
3722 02-10-2019 06:45:17 12.1 C 28 %
3723 02-10-2019 06:55:17 11.9 C 28 %
3724 02-10-2019 07:05:18 11.5 C 29 %
3725 02-10-2019 07:15:17 11.3 C 29 %
Sensor: Nr:Datum:Temp:Feuchte:
Aussen-T/F 3726 02-10-2019 07:25:17 11 C 29 %
3727 02-10-2019 07:35:18 10.9 C 30 %
3728 02-10-2019 07:45:17 10.8 C 30 %
3729 02-10-2019 07:55:17 10.6 C 30 %
3730 02-10-2019 08:05:18 10.4 C 30 %
3731 02-10-2019 08:15:17 10.2 C 30 %
3732 02-10-2019 08:25:17 10.1 C 30 %
3733 02-10-2019 08:35:17 10 C 29 %
3734 02-10-2019 08:45:17 10 C 30 %
3735 02-10-2019 08:55:17 9.9 C 30 %
3736 02-10-2019 09:05:18 10 C 28 %
3737 02-10-2019 09:15:17 10.1 C 28 %
3738 02-10-2019 09:25:17 10.2 C 27 %
3739 02-10-2019 09:35:18 10.4 C 26 %
3740 02-10-2019 09:45:17 10.7 C 26 %
3741 02-10-2019 09:55:17 10.6 C 25 %
3742 02-10-2019 10:05:17 11 C 25 %
3743 02-10-2019 10:15:17 11.1 C 25 %
3744 02-10-2019 10:25:17 11.1 C 25 %
3745 02-10-2019 10:35:17 11.2 C 25 %
3746 02-10-2019 10:45:18 11.2 C 25 %
3747 02-10-2019 10:55:18 11.1 C 22 %
3748 02-10-2019 11:05:17 11.7 C 21 %
3749 02-10-2019 11:15:18 11.3 C 20 %
3750 02-10-2019 11:25:18 11.4 C 20 %
Sensor: Nr:Datum:Temp:Feuchte:
Aussen-T/F 3751 02-10-2019 11:35:17 11.5 C 21 %
3752 02-10-2019 11:45:17 11.7 C 20 %
3753 02-10-2019 11:55:17 11.8 C 20 %
3754 02-10-2019 12:05:17 11.8 C 20 %
3755 02-10-2019 12:15:17 11.8 C 20 %
3756 02-10-2019 12:25:17 12.4 C 20 %
3757 02-10-2019 12:35:17 13 C 20 %
3758 02-10-2019 12:45:17 12.4 C 20 %
3759 02-10-2019 12:55:17 12.1 C 20 %
3760 02-10-2019 13:05:17 12.4 C 20 %
3761 02-10-2019 13:15:17 13.2 C 20 %
3762 02-10-2019 13:25:17 13.3 C 20 %
3763 02-10-2019 13:35:17 13.4 C 20 %
3764 02-10-2019 13:45:17 13.9 C 20 %
3765 02-10-2019 13:55:17 13.7 C 20 %
3766 02-10-2019 14:05:18 14.7 C 20 %
3767 02-10-2019 14:15:17 14.9 C 20 %
3768 02-10-2019 14:25:17 13.8 C 20 %
3769 02-10-2019 14:35:17 14.2 C 20 %
3770 02-10-2019 14:45:17 14.1 C 20 %
3771 02-10-2019 14:55:17 13.6 C 20 %
3772 02-10-2019 15:05:17 14.4 C 20 %
3773 02-10-2019 15:15:18 14.1 C 20 %
3774 02-10-2019 15:25:18 14.4 C 20 %
3775 02-10-2019 15:35:17 13.8 C 20 %
Sensor: Nr:Datum:Temp:Feuchte:
Aussen-T/F 3776 02-10-2019 15:45:18 13.7 C 20 %
3777 02-10-2019 15:55:18 15.2 C 20 %
3778 02-10-2019 16:05:17 15.3 C 20 %
3779 02-10-2019 16:15:17 14.9 C 20 %
3780 02-10-2019 16:25:17 17 C 20 %
3781 02-10-2019 16:35:17 17.5 C 20 %
3782 02-10-2019 16:45:18 17.7 C 20 %
3783 02-10-2019 16:55:18 18.2 C 20 %
3784 02-10-2019 17:05:17 14.3 C 20 %
3785 02-10-2019 17:15:18 17.8 C 20 %
3786 02-10-2019 17:25:18 17.4 C 20 %
3787 02-10-2019 17:35:17 17.4 C 20 %
3788 02-10-2019 17:45:17 15.9 C 20 %
3789 02-10-2019 17:55:17 13.7 C 20 %
3790 02-10-2019 18:05:17 13.2 C 20 %
3791 02-10-2019 18:15:17 12.9 C 20 %
3792 02-10-2019 18:25:17 12.6 C 20 %
3793 02-10-2019 18:35:17 12.5 C 20 %
3794 02-10-2019 18:45:17 12.2 C 20 %
3795 02-10-2019 18:55:17 11.7 C 20 %
3796 02-10-2019 19:05:17 11.3 C 20 %
3797 02-10-2019 19:15:17 10.9 C 20 %
3798 02-10-2019 19:25:17 11.1 C 20 %
3799 02-10-2019 19:35:17 10.8 C 20 %
3800 02-10-2019 19:45:17 10.7 C 20 %
Sensor: Nr:Datum:Temp:Feuchte:
Aussen-T/F 3801 02-10-2019 19:55:17 9.8 C 20 %
3802 02-10-2019 20:05:17 10.1 C 20 %
3803 02-10-2019 20:15:17 10.2 C 20 %
3804 02-10-2019 20:25:17 9.7 C 20 %
3805 02-10-2019 20:35:18 9.3 C 20 %
3806 02-10-2019 20:45:17 9.8 C 20 %
3807 02-10-2019 20:55:17 10 C 20 %
3808 02-10-2019 21:05:17 10.4 C 20 %
3809 02-10-2019 21:15:17 10.1 C 20 %
3810 02-10-2019 21:25:17 9.7 C 20 %
3811 02-10-2019 21:35:17 9.1 C 20 %
3812 02-10-2019 21:45:17 8.6 C 20 %
3813 02-10-2019 21:55:17 8.4 C 21 %
3814 02-10-2019 22:05:17 8.4 C 21 %
3815 02-10-2019 22:15:17 8.7 C 21 %
3816 02-10-2019 22:25:17 8.4 C 21 %
3817 02-10-2019 22:35:17 8.4 C 21 %
3818 02-10-2019 22:45:17 7.9 C 25 %
3819 02-10-2019 22:55:17 7.8 C 25 %
3820 02-10-2019 23:05:18 7.8 C 25 %
3821 02-10-2019 23:15:17 7.9 C 25 %
3822 02-10-2019 23:25:17 8.6 C 23 %
3823 02-10-2019 23:35:17 8.9 C 21 %
3824 02-10-2019 23:45:17 9 C 20 %
3825 02-10-2019 23:55:17 9.2 C 20 %
Sensor: Nr:Datum:Temp:Feuchte:
Aussen-T/F 3826 03-10-2019 00:05:18 9.1 C 20 %
3827 03-10-2019 00:15:17 9.2 C 20 %
3828 03-10-2019 00:25:17 9.2 C 20 %
3829 03-10-2019 00:36:17 9.2 C 20 %
3830 03-10-2019 00:45:17 8.7 C 23 %
3831 03-10-2019 00:55:17 8.7 C 25 %
3832 03-10-2019 01:05:18 8.7 C 25 %
3833 03-10-2019 01:15:17 8.7 C 23 %
3834 03-10-2019 01:25:17 8.8 C 25 %
3835 03-10-2019 01:35:18 9 C 21 %
3836 03-10-2019 01:45:17 9.1 C 20 %
3837 03-10-2019 01:55:17 9.1 C 20 %
3838 03-10-2019 02:05:18 9.1 C 20 %
3839 03-10-2019 02:15:17 8.9 C 23 %
3840 03-10-2019 02:25:17 8.8 C 23 %
3841 03-10-2019 02:36:17 8.9 C 23 %
3842 03-10-2019 02:45:17 8.9 C 23 %
3843 03-10-2019 02:55:17 8.4 C 25 %
3844 03-10-2019 03:06:17 8.5 C 25 %
3845 03-10-2019 03:15:17 8.6 C 25 %
3846 03-10-2019 03:25:18 7.6 C 26 %
3847 03-10-2019 03:35:17 7.6 C 27 %
3848 03-10-2019 03:45:17 7.8 C 26 %
3849 03-10-2019 03:55:17 7.3 C 27 %
3850 03-10-2019 04:05:18 7.4 C 27 %
Sensor: Nr:Datum:Temp:Feuchte:
Aussen-T/F 3851 03-10-2019 04:16:17 7.4 C 27 %
3852 03-10-2019 04:25:17 7.4 C 27 %
3853 03-10-2019 04:36:17 7.3 C 27 %
3854 03-10-2019 04:45:17 7.5 C 27 %
3855 03-10-2019 04:55:17 7.2 C 27 %
3856 03-10-2019 05:06:17 7.5 C 27 %
3857 03-10-2019 05:16:17 7.9 C 26 %
3858 03-10-2019 05:26:17 8 C 26 %
3859 03-10-2019 05:35:18 7.9 C 26 %
3860 03-10-2019 05:46:17 8 C 26 %
3861 03-10-2019 05:56:17 7.1 C 27 %
3862 03-10-2019 06:06:18 6.8 C 29 %
3863 03-10-2019 06:16:17 6.6 C 30 %
3864 03-10-2019 06:26:17 6.7 C 30 %
3865 03-10-2019 06:36:18 6.6 C 31 %
3866 03-10-2019 06:46:17 6.8 C 30 %
3867 03-10-2019 06:56:17 6.8 C 30 %
3868 03-10-2019 07:06:17 6.9 C 30 %
3869 03-10-2019 07:16:17 6.7 C 30 %
3870 03-10-2019 07:26:17 6.8 C 30 %
3871 03-10-2019 07:36:17 7 C 29 %
3872 03-10-2019 07:46:18 7 C 28 %
3873 03-10-2019 07:56:18 7.1 C 28 %
3874 03-10-2019 08:06:17 7.3 C 28 %
3875 03-10-2019 08:16:17 7.5 C 27 %
Sensor: Nr:Datum:Temp:Feuchte:
Aussen-T/F 3876 03-10-2019 08:26:17 7.8 C 26 %
3877 03-10-2019 08:36:17 7.9 C 26 %
3878 03-10-2019 08:46:17 8 C 26 %
3879 03-10-2019 08:56:18 8.6 C 26 %
3880 03-10-2019 09:06:17 8.9 C 25 %
3881 03-10-2019 09:16:18 9.2 C 25 %
3882 03-10-2019 09:26:18 9.3 C 25 %
3883 03-10-2019 09:36:17 9.6 C 25 %
3884 03-10-2019 09:46:17 9.4 C 25 %
3885 03-10-2019 09:56:17 9.4 C 25 %
3886 03-10-2019 10:06:17 9.8 C 23 %
3887 03-10-2019 10:16:17 9.8 C 23 %
3888 03-10-2019 10:26:17 9.9 C 25 %
3889 03-10-2019 10:36:17 10.4 C 21 %
3890 03-10-2019 10:46:17 11.1 C 20 %
3891 03-10-2019 10:56:17 11.5 C 20 %
3892 03-10-2019 11:06:17 11.9 C 20 %
3893 03-10-2019 11:16:17 12.3 C 20 %
3894 03-10-2019 11:26:17 12.4 C 20 %
3895 03-10-2019 11:36:17 12.5 C 20 %
3896 03-10-2019 11:46:17 12.4 C 20 %
3897 03-10-2019 11:56:17 12.7 C 20 %
3898 03-10-2019 12:06:17 13 C 20 %
3899 03-10-2019 12:16:17 12.7 C 20 %
3900 03-10-2019 12:26:17 11.9 C 20 %
Sensor: Nr:Datum:Temp:Feuchte:
Aussen-T/F 3901 03-10-2019 12:36:17 12.1 C 20 %
3902 03-10-2019 12:46:17 11.7 C 20 %
3903 03-10-2019 12:56:17 11.5 C 24 %
3904 03-10-2019 13:06:17 11.7 C 24 %
3905 03-10-2019 13:16:16 11.2 C 25 %
3906 03-10-2019 13:26:16 11.2 C 26 %
3907 03-10-2019 13:36:17 11 C 30 %
3908 03-10-2019 13:46:17 11 C 30 %
3909 03-10-2019 13:56:17 11 C 30 %
3910 03-10-2019 14:06:16 11.3 C 29 %
3911 03-10-2019 14:16:17 11.5 C 28 %
3912 03-10-2019 14:26:17 11.2 C 29 %
3913 03-10-2019 14:36:17 10.6 C 30 %
3914 03-10-2019 14:46:17 10.5 C 31 %
3915 03-10-2019 14:56:17 10.5 C 32 %
3916 03-10-2019 15:06:17 10.7 C 32 %
3917 03-10-2019 15:16:17 11.6 C 28 %
3918 03-10-2019 15:26:17 11.8 C 27 %
3919 03-10-2019 15:36:16 11.6 C 28 %
3920 03-10-2019 15:46:17 11.7 C 28 %
3921 03-10-2019 15:56:17 12 C 26 %
3922 03-10-2019 16:06:17 12.8 C 22 %
3923 03-10-2019 16:16:17 12.4 C 25 %
3924 03-10-2019 16:26:17 11.8 C 26 %
3925 03-10-2019 16:36:17 11.1 C 28 %
Sensor: Nr:Datum:Temp:Feuchte:
Aussen-T/F 3926 03-10-2019 16:46:17 11.6 C 27 %
3927 03-10-2019 16:56:17 12.1 C 26 %
3928 03-10-2019 17:06:17 11.6 C 28 %
3929 03-10-2019 17:16:16 11.4 C 28 %
3930 03-10-2019 17:26:16 11.4 C 29 %
3931 03-10-2019 17:36:16 11.4 C 29 %
3932 03-10-2019 17:46:16 10.8 C 30 %
3933 03-10-2019 17:56:16 10.7 C 31 %
3934 03-10-2019 18:06:17 10.5 C 30 %
3935 03-10-2019 18:16:16 10.4 C 31 %
3936 03-10-2019 18:26:16 10.1 C 31 %
3937 03-10-2019 18:36:17 10 C 30 %
3938 03-10-2019 18:46:16 10 C 30 %
3939 03-10-2019 18:56:16 9.8 C 32 %
3940 03-10-2019 19:06:17 9.5 C 31 %
3941 03-10-2019 19:16:16 9.5 C 31 %
3942 03-10-2019 19:26:16 9.4 C 32 %
3943 03-10-2019 19:36:17 9.3 C 32 %
3944 03-10-2019 19:46:17 9.2 C 34 %
3945 03-10-2019 19:56:17 9 C 34 %
3946 03-10-2019 20:06:16 9 C 35 %
3947 03-10-2019 20:16:16 8.8 C 35 %
3948 03-10-2019 20:26:16 8.7 C 35 %
3949 03-10-2019 20:36:16 8.8 C 35 %
3950 03-10-2019 20:46:17 8.7 C 35 %
Sensor: Nr:Datum:Temp:Feuchte:
Aussen-T/F 3951 03-10-2019 20:56:17 8.7 C 35 %
3952 03-10-2019 21:06:17 8.6 C 35 %
3953 03-10-2019 21:16:16 8.5 C 35 %
3954 03-10-2019 21:26:16 8.3 C 35 %
3955 03-10-2019 21:36:17 8.3 C 36 %
3956 03-10-2019 21:46:16 8.3 C 36 %
3957 03-10-2019 21:56:16 8.2 C 35 %
3958 03-10-2019 22:06:17 8.1 C 35 %
3959 03-10-2019 22:16:16 7.9 C 36 %
3960 03-10-2019 22:26:16 7.9 C 36 %
3961 03-10-2019 22:36:16 7.9 C 36 %
3962 03-10-2019 22:46:17 7.7 C 36 %
3963 03-10-2019 22:56:18 7.8 C 36 %
3964 03-10-2019 23:06:16 7.9 C 36 %
3965 03-10-2019 23:16:17 7.9 C 36 %
3966 03-10-2019 23:26:17 7.7 C 36 %
3967 03-10-2019 23:36:16 7.5 C 36 %
3968 03-10-2019 23:46:17 7.7 C 36 %
3969 03-10-2019 23:56:17 7.7 C 36 %
Sensor: Nr:Datum:Temp:Feuchte:
G-T/H 1 06-09-2019 00:09:17 18 C 58 %
2 06-09-2019 00:21:17 18 C 58 %
3 06-09-2019 00:33:18 17.9 C 59 %
4 06-09-2019 00:45:17 17.9 C 59 %
5 06-09-2019 00:57:17 17.9 C 59 %
6 06-09-2019 01:09:18 17.9 C 59 %
7 06-09-2019 01:21:17 17.9 C 59 %
8 06-09-2019 01:33:18 17.9 C 59 %
9 06-09-2019 01:45:17 17.8 C 59 %
10 06-09-2019 01:57:17 17.9 C 59 %
11 06-09-2019 02:09:18 17.8 C 59 %
12 06-09-2019 02:21:17 17.8 C 59 %
13 06-09-2019 02:33:18 17.8 C 59 %
14 06-09-2019 02:45:17 17.8 C 59 %
15 06-09-2019 02:57:17 17.7 C 59 %
16 06-09-2019 03:09:18 17.7 C 59 %
17 06-09-2019 03:21:17 17.7 C 59 %
18 06-09-2019 03:33:17 17.7 C 59 %
19 06-09-2019 03:45:17 17.7 C 59 %
20 06-09-2019 03:57:17 17.6 C 59 %
21 06-09-2019 04:09:18 17.6 C 59 %
22 06-09-2019 04:21:17 17.5 C 59 %
23 06-09-2019 04:33:18 17.5 C 59 %
24 06-09-2019 04:45:17 17.5 C 59 %
25 06-09-2019 04:57:17 17.5 C 59 %
Sensor: Nr:Datum:Temp:Feuchte:
G-T/H 26 06-09-2019 05:09:17 17.5 C 59 %
27 06-09-2019 05:21:17 17.5 C 59 %
28 06-09-2019 05:33:17 17.4 C 59 %
29 06-09-2019 05:45:18 17.4 C 59 %
30 06-09-2019 05:57:18 17.4 C 59 %
31 06-09-2019 06:09:17 17.3 C 59 %
32 06-09-2019 06:21:18 17.3 C 59 %
33 06-09-2019 06:33:17 17.2 C 59 %
34 06-09-2019 06:45:18 17.2 C 59 %
35 06-09-2019 06:57:18 17.2 C 59 %
36 06-09-2019 07:09:17 17.1 C 59 %
37 06-09-2019 07:21:18 17.1 C 59 %
38 06-09-2019 07:33:17 17.1 C 59 %
39 06-09-2019 07:45:18 17.1 C 59 %
40 06-09-2019 07:57:18 17 C 59 %
41 06-09-2019 08:09:17 17 C 59 %
42 06-09-2019 08:21:17 17 C 59 %
43 06-09-2019 08:33:18 17 C 59 %
44 06-09-2019 08:45:17 16.9 C 60 %
45 06-09-2019 08:57:17 16.9 C 60 %
46 06-09-2019 09:09:18 16.8 C 60 %
47 06-09-2019 09:21:17 16.8 C 60 %
48 06-09-2019 09:33:17 16.8 C 61 %
49 06-09-2019 09:45:17 16.8 C 61 %
50 06-09-2019 09:57:17 16.7 C 61 %
Sensor: Nr:Datum:Temp:Feuchte:
G-T/H 51 06-09-2019 10:09:17 16.7 C 61 %
52 06-09-2019 10:21:17 16.7 C 61 %
53 06-09-2019 10:33:17 16.7 C 61 %
54 06-09-2019 10:45:17 16.7 C 61 %
55 06-09-2019 10:57:17 16.7 C 61 %
56 06-09-2019 11:09:18 16.6 C 61 %
57 06-09-2019 11:21:17 16.7 C 61 %
58 06-09-2019 11:33:17 16.7 C 62 %
59 06-09-2019 11:45:17 16.7 C 62 %
60 06-09-2019 11:57:17 16.7 C 62 %
61 06-09-2019 12:09:17 16.7 C 62 %
62 06-09-2019 12:21:17 16.7 C 62 %
63 06-09-2019 12:33:17 16.7 C 62 %
64 06-09-2019 12:45:18 16.6 C 61 %
65 06-09-2019 12:57:18 16.6 C 61 %
66 06-09-2019 13:09:17 16.6 C 61 %
67 06-09-2019 13:21:18 16.7 C 61 %
68 06-09-2019 13:33:17 16.6 C 61 %
69 06-09-2019 13:45:17 16.7 C 61 %
70 06-09-2019 13:57:17 16.7 C 61 %
71 06-09-2019 14:09:17 16.7 C 60 %
72 06-09-2019 14:21:17 16.8 C 60 %
73 06-09-2019 14:33:17 16.7 C 59 %
74 06-09-2019 14:45:17 16.8 C 59 %
75 06-09-2019 14:57:17 16.8 C 58 %
Sensor: Nr:Datum:Temp:Feuchte:
G-T/H 76 06-09-2019 15:09:18 17.2 C 55 %
77 06-09-2019 15:21:17 17.3 C 53 %
78 06-09-2019 15:33:18 17.5 C 51 %
79 06-09-2019 15:45:17 17.6 C 48 %
80 06-09-2019 15:57:17 17.7 C 47 %
81 06-09-2019 16:09:18 17.7 C 46 %
82 06-09-2019 16:21:17 17.7 C 46 %
83 06-09-2019 16:33:18 17.9 C 44 %
84 06-09-2019 16:45:17 18 C 43 %
85 06-09-2019 16:57:17 18.1 C 42 %
86 06-09-2019 17:09:18 18.2 C 41 %
87 06-09-2019 17:21:17 18.2 C 41 %
88 06-09-2019 17:33:18 18.5 C 42 %
89 06-09-2019 17:45:17 18.5 C 43 %
90 06-09-2019 17:57:17 18.4 C 44 %
91 06-09-2019 18:09:18 18.3 C 45 %
92 06-09-2019 18:21:17 18.3 C 46 %
93 06-09-2019 18:33:18 18.2 C 47 %
94 06-09-2019 18:45:17 18.2 C 48 %
95 06-09-2019 18:57:17 18.1 C 48 %
96 06-09-2019 19:09:17 18.1 C 49 %
97 06-09-2019 19:21:17 18.1 C 50 %
98 06-09-2019 19:33:17 18.1 C 50 %
99 06-09-2019 19:45:17 18 C 50 %
100 06-09-2019 19:57:18 18 C 51 %
Sensor: Nr:Datum:Temp:Feuchte:
G-T/H 101 06-09-2019 20:09:17 17.9 C 53 %
102 06-09-2019 20:21:17 17.9 C 53 %
103 06-09-2019 20:33:17 17.9 C 53 %
104 06-09-2019 20:45:18 17.9 C 54 %
105 06-09-2019 20:57:18 17.8 C 54 %
106 06-09-2019 21:09:17 17.8 C 54 %
107 06-09-2019 21:21:18 17.7 C 55 %
108 06-09-2019 21:33:17 17.8 C 55 %
109 06-09-2019 21:45:18 17.7 C 55 %
110 06-09-2019 21:57:18 17.7 C 55 %
111 06-09-2019 22:09:17 17.7 C 55 %
112 06-09-2019 22:21:17 17.7 C 55 %
113 06-09-2019 22:33:17 17.7 C 55 %
114 06-09-2019 22:45:17 17.7 C 55 %
115 06-09-2019 22:57:18 17.6 C 55 %
116 06-09-2019 23:09:17 17.6 C 55 %
117 06-09-2019 23:21:17 17.6 C 55 %
118 06-09-2019 23:33:18 17.6 C 55 %
119 06-09-2019 23:45:17 17.6 C 55 %
120 06-09-2019 23:57:17 17.6 C 55 %
121 07-09-2019 00:09:18 17.5 C 55 %
122 07-09-2019 00:21:17 17.5 C 55 %
123 07-09-2019 00:33:17 17.5 C 55 %
124 07-09-2019 00:45:17 17.5 C 55 %
125 07-09-2019 00:57:17 17.5 C 55 %
Sensor: Nr:Datum:Temp:Feuchte:
G-T/H 126 07-09-2019 01:09:17 17.5 C 55 %
127 07-09-2019 01:21:17 17.4 C 55 %
128 07-09-2019 01:33:17 17.4 C 56 %
129 07-09-2019 01:45:17 17.4 C 56 %
130 07-09-2019 01:57:17 17.4 C 56 %
131 07-09-2019 02:09:18 17.3 C 56 %
132 07-09-2019 02:21:17 17.3 C 56 %
133 07-09-2019 02:33:17 17.3 C 56 %
134 07-09-2019 02:45:17 17.3 C 56 %
135 07-09-2019 02:57:17 17.2 C 56 %
136 07-09-2019 03:09:18 17.2 C 56 %
137 07-09-2019 03:21:17 17.3 C 56 %
138 07-09-2019 03:33:18 17.2 C 56 %
139 07-09-2019 03:45:17 17.2 C 56 %
140 07-09-2019 03:57:17 17.2 C 56 %
141 07-09-2019 04:09:17 17.2 C 56 %
142 07-09-2019 04:21:17 17.2 C 57 %
143 07-09-2019 04:33:18 17.2 C 57 %
144 07-09-2019 04:45:17 17.2 C 57 %
145 07-09-2019 04:57:17 17.1 C 57 %
146 07-09-2019 05:09:17 17.1 C 57 %
147 07-09-2019 05:21:17 17.1 C 57 %
148 07-09-2019 05:33:17 17 C 57 %
149 07-09-2019 05:45:18 17 C 57 %
150 07-09-2019 05:57:18 17 C 57 %
Sensor: Nr:Datum:Temp:Feuchte:
G-T/H 151 07-09-2019 06:09:17 17 C 57 %
152 07-09-2019 06:21:17 17 C 57 %
153 07-09-2019 06:33:17 17 C 57 %
154 07-09-2019 06:45:17 17 C 57 %
155 07-09-2019 06:57:17 17 C 57 %
156 07-09-2019 07:09:17 16.9 C 58 %
157 07-09-2019 07:21:17 17 C 58 %
158 07-09-2019 07:33:17 16.9 C 59 %
159 07-09-2019 07:45:18 16.9 C 59 %
160 07-09-2019 07:57:18 16.9 C 59 %
161 07-09-2019 08:09:17 16.9 C 59 %
162 07-09-2019 08:21:17 16.9 C 59 %
163 07-09-2019 08:33:17 16.9 C 59 %
164 07-09-2019 08:45:18 16.9 C 59 %
165 07-09-2019 08:57:18 16.9 C 59 %
166 07-09-2019 09:09:17 16.8 C 60 %
167 07-09-2019 09:21:17 16.8 C 60 %
168 07-09-2019 09:33:17 16.3 C 60 %
169 07-09-2019 09:45:17 15.7 C 62 %
170 07-09-2019 09:57:17 15.4 C 64 %
171 07-09-2019 10:09:17 15.6 C 65 %
172 07-09-2019 10:21:17 15.9 C 65 %
173 07-09-2019 10:33:18 15.4 C 65 %
174 07-09-2019 10:45:17 15.2 C 66 %
175 07-09-2019 10:57:17 15.3 C 66 %
Sensor: Nr:Datum:Temp:Feuchte:
G-T/H 176 07-09-2019 11:09:17 15.6 C 67 %
177 07-09-2019 11:21:17 17 C 65 %
178 07-09-2019 11:33:18 17.7 C 63 %
179 07-09-2019 11:45:17 18.1 C 62 %
180 07-09-2019 11:57:17 18.2 C 61 %
181 07-09-2019 12:09:18 18.5 C 61 %
182 07-09-2019 12:21:17 18.7 C 61 %
183 07-09-2019 12:33:17 18.8 C 60 %
184 07-09-2019 12:45:17 18.8 C 60 %
185 07-09-2019 12:57:17 19 C 59 %
186 07-09-2019 13:09:18 18.9 C 60 %
187 07-09-2019 13:21:17 19 C 59 %
188 07-09-2019 13:33:17 19.1 C 59 %
189 07-09-2019 13:45:17 18.9 C 60 %
190 07-09-2019 13:57:17 19 C 59 %
191 07-09-2019 14:09:17 19.1 C 59 %
192 07-09-2019 14:21:17 19.1 C 59 %
193 07-09-2019 14:33:17 18.9 C 60 %
194 07-09-2019 14:45:17 19 C 59 %
195 07-09-2019 14:57:17 19 C 59 %
196 07-09-2019 15:09:18 18.8 C 60 %
197 07-09-2019 15:21:18 18.6 C 60 %
198 07-09-2019 15:33:17 18.3 C 60 %
199 07-09-2019 15:45:18 18.1 C 61 %
200 07-09-2019 15:57:18 18 C 61 %
Sensor: Nr:Datum:Temp:Feuchte:
G-T/H 201 07-09-2019 16:09:17 17.9 C 62 %
202 07-09-2019 16:21:17 17.8 C 62 %
203 07-09-2019 16:33:17 17.7 C 63 %
204 07-09-2019 16:45:17 17.6 C 63 %
205 07-09-2019 16:57:17 17.6 C 63 %
206 07-09-2019 17:09:17 17.5 C 63 %
207 07-09-2019 17:21:17 17.5 C 63 %
208 07-09-2019 17:33:17 17.4 C 64 %
209 07-09-2019 17:45:18 17.4 C 64 %
210 07-09-2019 17:57:18 17.4 C 64 %
211 07-09-2019 18:09:17 17.4 C 64 %
212 07-09-2019 18:21:18 17.4 C 64 %
213 07-09-2019 18:33:17 17.3 C 64 %
214 07-09-2019 18:45:18 17.3 C 64 %
215 07-09-2019 18:57:18 17.3 C 64 %
216 07-09-2019 19:09:17 17.3 C 64 %
217 07-09-2019 19:21:17 17.3 C 64 %
218 07-09-2019 19:33:18 17.2 C 64 %
219 07-09-2019 19:45:17 17.2 C 64 %
220 07-09-2019 19:57:17 17.2 C 64 %
221 07-09-2019 20:09:17 17.2 C 64 %
222 07-09-2019 20:21:17 17.2 C 64 %
223 07-09-2019 20:33:17 17.2 C 64 %
224 07-09-2019 20:45:18 17.2 C 64 %
225 07-09-2019 20:57:18 17.2 C 64 %
Sensor: Nr:Datum:Temp:Feuchte:
G-T/H 226 07-09-2019 21:09:17 17.2 C 64 %
227 07-09-2019 21:21:17 17.1 C 64 %
228 07-09-2019 21:33:17 17.2 C 64 %
229 07-09-2019 21:45:17 17.1 C 64 %
230 07-09-2019 21:57:17 17.1 C 64 %
231 07-09-2019 22:09:17 17.2 C 64 %
232 07-09-2019 22:21:18 17.1 C 64 %
233 07-09-2019 22:33:17 17.1 C 64 %
234 07-09-2019 22:45:17 17 C 64 %
235 07-09-2019 22:57:17 17.1 C 64 %
236 07-09-2019 23:09:17 17.1 C 64 %
237 07-09-2019 23:21:18 17 C 64 %
238 07-09-2019 23:33:17 17 C 64 %
239 07-09-2019 23:45:17 17 C 64 %
240 07-09-2019 23:57:18 17 C 64 %
241 08-09-2019 00:09:17 17 C 64 %
242 08-09-2019 00:21:18 17 C 64 %
243 08-09-2019 00:33:17 17 C 64 %
244 08-09-2019 00:45:17 16.9 C 65 %
245 08-09-2019 00:57:17 16.9 C 65 %
246 08-09-2019 01:09:17 16.9 C 65 %
247 08-09-2019 01:21:17 16.9 C 65 %
248 08-09-2019 01:33:17 16.9 C 65 %
249 08-09-2019 01:45:17 16.9 C 65 %
250 08-09-2019 01:57:17 16.9 C 65 %
Sensor: Nr:Datum:Temp:Feuchte:
G-T/H 251 08-09-2019 02:09:18 16.8 C 65 %
252 08-09-2019 02:21:17 16.9 C 65 %
253 08-09-2019 02:33:18 16.8 C 65 %
254 08-09-2019 02:45:17 16.8 C 65 %
255 08-09-2019 02:57:17 16.8 C 65 %
256 08-09-2019 03:09:18 16.8 C 65 %
257 08-09-2019 03:21:17 16.8 C 65 %
258 08-09-2019 03:33:18 16.8 C 65 %
259 08-09-2019 03:45:17 16.7 C 65 %
260 08-09-2019 03:57:17 16.7 C 65 %
261 08-09-2019 04:09:18 16.7 C 65 %
262 08-09-2019 04:21:17 16.7 C 65 %
263 08-09-2019 04:33:18 16.7 C 65 %
264 08-09-2019 04:45:17 16.7 C 65 %
265 08-09-2019 04:57:17 16.6 C 65 %
266 08-09-2019 05:09:18 16.6 C 65 %
267 08-09-2019 05:21:17 16.7 C 65 %
268 08-09-2019 05:33:17 16.6 C 65 %
269 08-09-2019 05:45:17 16.6 C 65 %
270 08-09-2019 05:57:17 16.6 C 65 %
271 08-09-2019 06:09:17 16.6 C 65 %
272 08-09-2019 06:21:17 16.6 C 65 %
273 08-09-2019 06:33:17 16.6 C 65 %
274 08-09-2019 06:45:18 16.6 C 65 %
275 08-09-2019 06:57:18 16.6 C 65 %
Sensor: Nr:Datum:Temp:Feuchte:
G-T/H 276 08-09-2019 07:09:17 16.6 C 65 %
277 08-09-2019 07:21:18 16.6 C 65 %
278 08-09-2019 07:33:17 16.6 C 65 %
279 08-09-2019 07:45:17 16.6 C 65 %
280 08-09-2019 07:57:17 16.6 C 65 %
281 08-09-2019 08:09:18 16.6 C 65 %
282 08-09-2019 08:21:17 16.6 C 66 %
283 08-09-2019 08:33:17 16.5 C 66 %
284 08-09-2019 08:45:17 16.5 C 66 %
285 08-09-2019 08:57:17 16.5 C 66 %
286 08-09-2019 09:09:17 16.5 C 66 %
287 08-09-2019 09:21:17 16.5 C 66 %
288 08-09-2019 09:33:17 16.5 C 66 %
289 08-09-2019 09:45:17 16.5 C 66 %
290 08-09-2019 09:57:17 16.5 C 66 %
291 08-09-2019 10:09:17 16.5 C 66 %
292 08-09-2019 10:21:17 16.5 C 66 %
293 08-09-2019 10:33:18 16.5 C 66 %
294 08-09-2019 10:45:17 16.4 C 66 %
295 08-09-2019 10:57:17 16.5 C 66 %
296 08-09-2019 11:09:18 16.4 C 66 %
297 08-09-2019 11:21:17 16.4 C 66 %
298 08-09-2019 11:33:18 16.4 C 66 %
299 08-09-2019 11:45:17 16.4 C 66 %
300 08-09-2019 11:57:17 16.4 C 66 %
Sensor: Nr:Datum:Temp:Feuchte:
G-T/H 301 08-09-2019 12:09:18 16.4 C 66 %
302 08-09-2019 12:21:17 16.4 C 66 %
303 08-09-2019 12:33:18 16.4 C 66 %
304 08-09-2019 12:45:17 16.4 C 66 %
305 08-09-2019 12:57:17 16.4 C 66 %
306 08-09-2019 13:09:18 16.4 C 66 %
307 08-09-2019 13:21:17 16.4 C 66 %
308 08-09-2019 13:34:03 16.4 C 66 %
309 08-09-2019 13:57:18 16.2 C 67 %
310 08-09-2019 14:08:17 16.3 C 67 %
311 08-09-2019 14:20:17 16.3 C 67 %
312 08-09-2019 14:30:17 16.3 C 66 %
313 08-09-2019 14:41:17 16.4 C 66 %
314 08-09-2019 14:52:18 16.4 C 66 %
315 08-09-2019 15:03:17 16.4 C 66 %
316 08-09-2019 15:14:17 16.4 C 65 %
317 08-09-2019 15:25:17 16.5 C 65 %
318 08-09-2019 15:36:18 16.5 C 66 %
319 08-09-2019 15:47:17 16.5 C 66 %
320 08-09-2019 15:58:17 16.5 C 66 %
321 08-09-2019 16:09:17 16.5 C 66 %
322 08-09-2019 16:20:18 16.5 C 66 %
323 08-09-2019 16:31:17 16.5 C 66 %
324 08-09-2019 16:42:17 16.5 C 66 %
325 08-09-2019 16:53:18 16.5 C 66 %
Sensor: Nr:Datum:Temp:Feuchte:
G-T/H 326 08-09-2019 17:04:17 16.5 C 66 %
327 08-09-2019 17:15:17 16.5 C 66 %
328 08-09-2019 17:26:17 16.4 C 66 %
329 08-09-2019 17:37:18 16.5 C 67 %
330 08-09-2019 17:48:18 16.5 C 67 %
331 08-09-2019 17:59:18 16.4 C 67 %
332 08-09-2019 18:11:17 16.4 C 67 %
333 08-09-2019 18:21:17 16.4 C 67 %
334 08-09-2019 18:32:17 16.4 C 67 %
335 08-09-2019 18:43:17 16.4 C 67 %
336 08-09-2019 18:54:17 16.4 C 67 %
337 08-09-2019 19:06:17 16.5 C 67 %
338 08-09-2019 19:16:18 16.5 C 67 %
339 08-09-2019 19:27:18 16.5 C 67 %
340 08-09-2019 19:38:17 16.4 C 67 %
341 08-09-2019 19:49:18 16.5 C 67 %
342 08-09-2019 20:00:17 16.5 C 67 %
343 08-09-2019 20:11:17 16.5 C 67 %
344 08-09-2019 20:23:17 16.5 C 67 %
345 08-09-2019 20:33:17 16.5 C 67 %
346 08-09-2019 20:44:18 16.4 C 67 %
347 08-09-2019 20:56:17 16.5 C 67 %
348 08-09-2019 21:06:18 16.5 C 67 %
349 08-09-2019 21:17:18 16.5 C 67 %
350 08-09-2019 21:28:18 16.5 C 67 %
Sensor: Nr:Datum:Temp:Feuchte:
G-T/H 351 08-09-2019 21:39:17 16.4 C 67 %
352 08-09-2019 21:50:18 16.5 C 67 %
353 08-09-2019 22:01:17 16.5 C 67 %
354 08-09-2019 22:12:17 16.4 C 67 %
355 08-09-2019 22:24:17 16.4 C 67 %
356 08-09-2019 22:34:17 16.4 C 67 %
357 08-09-2019 22:45:18 16.4 C 67 %
358 08-09-2019 22:56:18 16.4 C 67 %
359 08-09-2019 23:07:17 16.5 C 67 %
360 08-09-2019 23:19:17 16.4 C 67 %
361 08-09-2019 23:29:17 16.4 C 67 %
362 08-09-2019 23:40:17 16.4 C 67 %
363 08-09-2019 23:52:17 16.4 C 67 %
364 09-09-2019 00:03:17 16.4 C 67 %
365 09-09-2019 00:14:17 16.4 C 67 %
366 09-09-2019 00:25:17 16.4 C 67 %
367 09-09-2019 00:35:18 16.4 C 67 %
368 09-09-2019 00:47:17 16.4 C 67 %
369 09-09-2019 00:58:17 16.3 C 67 %
370 09-09-2019 01:09:17 16.3 C 67 %
371 09-09-2019 01:20:17 16.3 C 67 %
372 09-09-2019 01:31:17 16.3 C 67 %
373 09-09-2019 01:42:17 16.3 C 67 %
374 09-09-2019 01:53:17 16.3 C 67 %
375 09-09-2019 02:04:18 16.3 C 67 %
Sensor: Nr:Datum:Temp:Feuchte:
G-T/H 376 09-09-2019 02:15:17 16.3 C 67 %
377 09-09-2019 02:26:17 16.3 C 67 %
378 09-09-2019 02:37:17 16.3 C 67 %
379 09-09-2019 02:48:17 16.3 C 67 %
380 09-09-2019 02:59:17 16.2 C 67 %
381 09-09-2019 03:10:17 16.3 C 67 %
382 09-09-2019 03:21:18 16.2 C 67 %
383 09-09-2019 03:32:17 16.2 C 67 %
384 09-09-2019 03:43:17 16.2 C 67 %
385 09-09-2019 03:54:18 16.2 C 67 %
386 09-09-2019 04:05:17 16.2 C 67 %
387 09-09-2019 04:16:17 16.2 C 67 %
388 09-09-2019 04:27:17 16.2 C 67 %
389 09-09-2019 04:38:17 16.2 C 67 %
390 09-09-2019 04:49:18 16.2 C 67 %
391 09-09-2019 05:00:17 16.2 C 67 %
392 09-09-2019 05:11:17 16.2 C 67 %
393 09-09-2019 05:22:17 16.2 C 67 %
394 09-09-2019 05:33:17 16.2 C 67 %
395 09-09-2019 05:44:17 16.2 C 67 %
396 09-09-2019 05:55:17 16.2 C 67 %
397 09-09-2019 06:06:17 16.2 C 67 %
398 09-09-2019 06:17:17 16.2 C 67 %
399 09-09-2019 06:28:17 16.2 C 67 %
400 09-09-2019 06:39:18 16.2 C 67 %
Sensor: Nr:Datum:Temp:Feuchte:
G-T/H 401 09-09-2019 06:50:17 16.1 C 67 %
402 09-09-2019 07:01:17 16.1 C 67 %
403 09-09-2019 07:12:18 16.1 C 67 %
404 09-09-2019 07:23:17 16.1 C 67 %
405 09-09-2019 07:34:18 16.1 C 67 %
406 09-09-2019 07:45:17 16.1 C 67 %
407 09-09-2019 07:56:17 16.1 C 67 %
408 09-09-2019 08:07:18 16.1 C 67 %
409 09-09-2019 08:18:17 16 C 67 %
410 09-09-2019 08:29:17 16.1 C 67 %
411 09-09-2019 08:40:17 16.1 C 67 %
412 09-09-2019 08:51:17 16.1 C 67 %
413 09-09-2019 09:02:18 16 C 67 %
414 09-09-2019 09:13:18 16 C 67 %
415 09-09-2019 09:24:17 16 C 67 %
416 09-09-2019 09:35:17 16 C 68 %
417 09-09-2019 09:46:17 16 C 68 %
418 09-09-2019 09:57:17 16.1 C 68 %
419 09-09-2019 10:08:17 16 C 68 %
420 09-09-2019 10:19:18 16 C 68 %
421 09-09-2019 10:30:17 16 C 68 %
422 09-09-2019 10:41:17 16 C 68 %
423 09-09-2019 10:52:18 16 C 68 %
424 09-09-2019 11:03:17 16 C 68 %
425 09-09-2019 11:14:17 16 C 68 %
Sensor: Nr:Datum:Temp:Feuchte:
G-T/H 426 09-09-2019 11:25:17 16 C 68 %
427 09-09-2019 11:36:17 16 C 68 %
428 09-09-2019 11:47:18 16 C 68 %
429 09-09-2019 11:58:18 16 C 68 %
430 09-09-2019 12:09:17 16 C 68 %
431 09-09-2019 12:20:17 16 C 68 %
432 09-09-2019 12:31:17 16 C 68 %
433 09-09-2019 12:42:17 16 C 68 %
434 09-09-2019 12:53:18 16 C 68 %
435 09-09-2019 13:04:17 16 C 68 %
436 09-09-2019 13:15:18 16 C 68 %
437 09-09-2019 13:26:18 16 C 68 %
438 09-09-2019 13:37:17 16 C 68 %
439 09-09-2019 13:48:18 16.1 C 68 %
440 09-09-2019 13:59:18 16.1 C 68 %
441 09-09-2019 14:10:17 16 C 68 %
442 09-09-2019 14:21:18 16.1 C 68 %
443 09-09-2019 14:32:17 16.1 C 68 %
444 09-09-2019 14:43:17 16 C 68 %
445 09-09-2019 14:54:18 16.1 C 68 %
446 09-09-2019 15:05:17 16.1 C 68 %
447 09-09-2019 15:16:17 16.1 C 68 %
448 09-09-2019 15:27:17 16.1 C 68 %
449 09-09-2019 15:38:17 16.1 C 68 %
450 09-09-2019 15:49:17 16.1 C 68 %
Sensor: Nr:Datum:Temp:Feuchte:
G-T/H 451 09-09-2019 16:00:17 16.1 C 68 %
452 09-09-2019 16:11:17 16.1 C 68 %
453 09-09-2019 16:22:17 16.1 C 68 %
454 09-09-2019 16:46:17 16.2 C 68 %
455 09-09-2019 16:49:17 16.2 C 68 %
456 09-09-2019 16:52:17 16.2 C 68 %
457 09-09-2019 16:55:17 16.2 C 68 %
458 09-09-2019 16:58:18 16.2 C 68 %
459 09-09-2019 17:01:17 16.2 C 68 %
460 09-09-2019 17:04:17 16.2 C 68 %
461 09-09-2019 17:07:17 16.2 C 68 %
462 09-09-2019 17:10:17 16.2 C 68 %
463 09-09-2019 17:13:17 16.2 C 68 %
464 09-09-2019 17:16:17 16.2 C 68 %
465 09-09-2019 17:19:17 16.2 C 68 %
466 09-09-2019 17:22:17 16.2 C 67 %
467 09-09-2019 17:25:17 16.2 C 67 %
468 09-09-2019 17:28:17 16.2 C 67 %
469 09-09-2019 17:31:18 16.2 C 65 %
470 09-09-2019 17:34:18 16.2 C 65 %
471 09-09-2019 17:37:18 16.2 C 64 %
472 09-09-2019 17:40:18 16.2 C 64 %
473 09-09-2019 17:43:18 16.2 C 64 %
474 09-09-2019 17:46:17 16.2 C 64 %
475 09-09-2019 17:49:17 16.2 C 63 %
Sensor: Nr:Datum:Temp:Feuchte:
G-T/H 476 09-09-2019 17:52:17 16.2 C 63 %
477 09-09-2019 17:55:17 16.2 C 62 %
478 09-09-2019 17:58:17 16.2 C 62 %
479 09-09-2019 18:14:17 16.3 C 62 %
480 09-09-2019 18:24:17 16.4 C 61 %
481 09-09-2019 18:34:17 16.3 C 61 %
482 09-09-2019 18:44:18 16.4 C 61 %
483 09-09-2019 18:54:17 16.3 C 61 %
484 09-09-2019 19:04:18 16.2 C 63 %
485 09-09-2019 19:14:18 16 C 65 %
486 09-09-2019 19:24:17 15.9 C 66 %
487 09-09-2019 19:34:18 15.6 C 66 %
488 09-09-2019 19:44:18 15.6 C 66 %
489 09-09-2019 19:54:17 15.1 C 65 %
490 09-09-2019 20:04:18 14.8 C 67 %
491 09-09-2019 20:14:18 14.9 C 67 %
492 09-09-2019 20:24:17 14.7 C 66 %
493 09-09-2019 20:34:17 15.1 C 66 %
494 09-09-2019 20:44:17 15.4 C 66 %
495 09-09-2019 20:54:17 15.5 C 66 %
496 09-09-2019 21:04:17 15.5 C 66 %
497 09-09-2019 21:14:17 15.7 C 66 %
498 09-09-2019 21:24:17 15.7 C 66 %
499 09-09-2019 21:34:17 15.8 C 66 %
500 09-09-2019 21:44:17 15.8 C 66 %
Sensor: Nr:Datum:Temp:Feuchte:
G-T/H 501 09-09-2019 21:54:17 15.9 C 66 %
502 09-09-2019 22:04:17 15.9 C 66 %
503 09-09-2019 22:14:17 15.9 C 66 %
504 09-09-2019 22:24:18 15.9 C 66 %
505 09-09-2019 22:34:17 15.9 C 67 %
506 09-09-2019 22:44:17 15.9 C 67 %
507 09-09-2019 22:54:18 15.9 C 67 %
508 09-09-2019 23:04:17 16 C 66 %
509 09-09-2019 23:14:17 16 C 66 %
510 09-09-2019 23:24:17 15.9 C 67 %
511 09-09-2019 23:34:17 15.9 C 67 %
512 09-09-2019 23:44:17 16 C 66 %
513 09-09-2019 23:54:17 15.9 C 67 %
514 10-09-2019 00:04:17 15.9 C 67 %
515 10-09-2019 00:14:17 15.9 C 67 %
516 10-09-2019 00:24:17 15.9 C 67 %
517 10-09-2019 00:34:17 15.9 C 67 %
518 10-09-2019 00:44:17 15.9 C 67 %
519 10-09-2019 00:54:17 15.9 C 67 %
520 10-09-2019 01:04:17 15.9 C 67 %
521 10-09-2019 01:14:17 15.9 C 67 %
522 10-09-2019 01:24:17 15.8 C 67 %
523 10-09-2019 01:34:17 15.8 C 67 %
524 10-09-2019 01:44:17 15.8 C 67 %
525 10-09-2019 01:54:17 15.8 C 67 %
Sensor: Nr:Datum:Temp:Feuchte:
G-T/H 526 10-09-2019 02:04:18 15.8 C 67 %
527 10-09-2019 02:14:18 15.8 C 67 %
528 10-09-2019 02:24:17 15.8 C 67 %
529 10-09-2019 02:34:17 15.8 C 67 %
530 10-09-2019 02:44:17 15.8 C 67 %
531 10-09-2019 02:54:17 15.7 C 67 %
532 10-09-2019 03:04:17 15.7 C 67 %
533 10-09-2019 03:14:17 15.7 C 67 %
534 10-09-2019 03:24:17 15.7 C 67 %
535 10-09-2019 03:34:17 15.7 C 67 %
536 10-09-2019 03:44:17 15.7 C 67 %
537 10-09-2019 03:54:17 15.7 C 67 %
538 10-09-2019 04:04:18 15.7 C 67 %
539 10-09-2019 04:14:18 15.6 C 67 %
540 10-09-2019 04:24:17 15.6 C 67 %
541 10-09-2019 04:34:17 15.6 C 67 %
542 10-09-2019 04:44:17 15.6 C 67 %
543 10-09-2019 04:54:17 15.6 C 67 %
544 10-09-2019 05:04:17 15.6 C 67 %
545 10-09-2019 05:14:17 15.6 C 67 %
546 10-09-2019 05:24:17 15.6 C 67 %
547 10-09-2019 05:34:17 15.6 C 67 %
548 10-09-2019 05:44:17 15.6 C 67 %
549 10-09-2019 05:54:17 15.5 C 67 %
550 10-09-2019 06:04:18 15.5 C 67 %
Sensor: Nr:Datum:Temp:Feuchte:
G-T/H 551 10-09-2019 06:14:18 15.5 C 67 %
552 10-09-2019 06:24:17 15.5 C 67 %
553 10-09-2019 06:34:17 15.5 C 67 %
554 10-09-2019 06:44:17 15.4 C 67 %
555 10-09-2019 06:54:18 15.4 C 67 %
556 10-09-2019 07:04:17 15.4 C 67 %
557 10-09-2019 07:14:17 15.4 C 67 %
558 10-09-2019 07:24:17 14.6 C 64 %
559 10-09-2019 07:34:17 13.1 C 64 %
560 10-09-2019 07:44:17 12.7 C 65 %
561 10-09-2019 07:54:17 12.5 C 65 %
562 10-09-2019 08:04:17 12.1 C 66 %
563 10-09-2019 08:14:18 12 C 66 %
564 10-09-2019 08:24:17 11.9 C 68 %
565 10-09-2019 08:34:18 11.9 C 68 %
566 10-09-2019 08:44:18 11.8 C 68 %
567 10-09-2019 08:54:17 11.8 C 68 %
568 10-09-2019 09:04:18 11.7 C 69 %
569 10-09-2019 09:14:18 11.8 C 69 %
570 10-09-2019 09:24:17 11.7 C 69 %
571 10-09-2019 09:34:17 11.7 C 69 %
572 10-09-2019 09:44:17 11.8 C 69 %
573 10-09-2019 09:54:17 11.8 C 69 %
574 10-09-2019 10:04:17 11.8 C 69 %
575 10-09-2019 10:14:17 11.9 C 69 %
Sensor: Nr:Datum:Temp:Feuchte:
G-T/H 576 10-09-2019 10:24:17 11.9 C 69 %
577 10-09-2019 10:34:17 12 C 69 %
578 10-09-2019 10:44:17 12 C 69 %
579 10-09-2019 10:54:17 12.2 C 69 %
580 10-09-2019 11:04:17 12.3 C 69 %
581 10-09-2019 11:14:17 12.3 C 69 %
582 10-09-2019 11:24:17 12.6 C 69 %
583 10-09-2019 11:34:17 12.7 C 69 %
584 10-09-2019 11:44:17 12.9 C 70 %
585 10-09-2019 11:54:17 13.2 C 69 %
586 10-09-2019 12:04:17 13.4 C 68 %
587 10-09-2019 12:14:17 13.5 C 68 %
588 10-09-2019 12:24:17 13.8 C 68 %
589 10-09-2019 12:34:17 14.1 C 67 %
590 10-09-2019 12:44:17 14.2 C 67 %
591 10-09-2019 12:54:17 14.4 C 67 %
592 10-09-2019 13:04:17 14.5 C 67 %
593 10-09-2019 13:14:18 14.6 C 67 %
594 10-09-2019 13:24:17 14.8 C 66 %
595 10-09-2019 13:34:17 15 C 65 %
596 10-09-2019 13:44:17 15.1 C 64 %
597 10-09-2019 13:54:18 15.2 C 63 %
598 10-09-2019 14:04:17 15.3 C 62 %
599 10-09-2019 14:14:17 15.5 C 60 %
600 10-09-2019 14:24:17 15.5 C 60 %
Sensor: Nr:Datum:Temp:Feuchte:
G-T/H 601 10-09-2019 14:34:17 15.7 C 59 %
602 10-09-2019 14:44:17 15.8 C 58 %
603 10-09-2019 14:54:17 15.9 C 58 %
604 10-09-2019 15:04:17 16 C 57 %
605 10-09-2019 15:14:17 16 C 56 %
606 10-09-2019 15:24:17 16.1 C 56 %
607 10-09-2019 15:34:18 16.1 C 55 %
608 10-09-2019 15:44:18 16.2 C 54 %
609 10-09-2019 15:54:17 16.2 C 52 %
610 10-09-2019 16:04:17 16.3 C 52 %
611 10-09-2019 16:14:17 16.3 C 52 %
612 10-09-2019 16:24:18 16.4 C 52 %
613 10-09-2019 16:34:17 16.4 C 52 %
614 10-09-2019 16:44:17 16.8 C 52 %
615 10-09-2019 16:54:17 17.1 C 51 %
616 10-09-2019 17:04:18 17.1 C 50 %
617 10-09-2019 17:14:18 17 C 50 %
618 10-09-2019 17:24:17 16.8 C 53 %
619 10-09-2019 17:34:17 16.7 C 54 %
620 10-09-2019 17:44:17 16.6 C 56 %
621 10-09-2019 17:54:18 16.6 C 57 %
622 10-09-2019 18:04:17 16.7 C 58 %
623 10-09-2019 18:14:17 16.8 C 59 %
624 10-09-2019 18:24:17 16.7 C 59 %
625 10-09-2019 18:34:17 16.7 C 59 %
Sensor: Nr:Datum:Temp:Feuchte:
G-T/H 626 10-09-2019 18:44:17 16.7 C 60 %
627 10-09-2019 18:54:18 16.7 C 60 %
628 10-09-2019 19:04:17 17.1 C 60 %
629 10-09-2019 19:14:17 17.1 C 60 %
630 10-09-2019 19:24:17 17.1 C 60 %
631 10-09-2019 19:34:17 17 C 60 %
632 10-09-2019 19:44:17 17 C 60 %
633 10-09-2019 19:54:18 16.9 C 61 %
634 10-09-2019 20:04:17 16.8 C 61 %
635 10-09-2019 20:14:17 16.8 C 61 %
636 10-09-2019 20:24:17 16.7 C 61 %
637 10-09-2019 20:34:17 16.7 C 61 %
638 10-09-2019 20:44:17 16.6 C 61 %
639 10-09-2019 20:54:17 16.6 C 62 %
640 10-09-2019 21:04:17 16.6 C 62 %
641 10-09-2019 21:14:17 16.6 C 62 %
642 10-09-2019 21:24:17 16.5 C 62 %
643 10-09-2019 21:34:17 16.6 C 62 %
644 10-09-2019 21:44:17 16.5 C 62 %
645 10-09-2019 21:54:17 16.5 C 62 %
646 10-09-2019 22:04:17 16.4 C 62 %
647 10-09-2019 22:14:17 16.4 C 62 %
648 10-09-2019 22:24:17 16.4 C 62 %
649 10-09-2019 22:34:17 16.4 C 62 %
650 10-09-2019 22:44:17 16.3 C 62 %
Sensor: Nr:Datum:Temp:Feuchte:
G-T/H 651 10-09-2019 22:54:18 16.4 C 62 %
652 10-09-2019 23:04:17 16.3 C 62 %
653 10-09-2019 23:14:17 16.3 C 62 %
654 10-09-2019 23:24:18 16.2 C 62 %
655 10-09-2019 23:34:17 16.3 C 62 %
656 10-09-2019 23:44:17 16.2 C 62 %
657 10-09-2019 23:54:17 16.2 C 62 %
658 11-09-2019 00:04:17 16.2 C 62 %
659 11-09-2019 00:14:17 16.2 C 62 %
660 11-09-2019 00:24:17 16.2 C 62 %
661 11-09-2019 00:34:17 16.1 C 62 %
662 11-09-2019 00:44:17 16.1 C 62 %
663 11-09-2019 00:54:18 16 C 62 %
664 11-09-2019 01:04:17 16 C 62 %
665 11-09-2019 01:14:17 16 C 62 %
666 11-09-2019 01:24:18 16 C 62 %
667 11-09-2019 01:34:17 16 C 62 %
668 11-09-2019 01:44:17 15.9 C 63 %
669 11-09-2019 01:54:17 16 C 62 %
670 11-09-2019 02:04:17 15.9 C 63 %
671 11-09-2019 02:14:17 15.9 C 63 %
672 11-09-2019 02:24:17 15.8 C 63 %
673 11-09-2019 02:34:17 15.8 C 63 %
674 11-09-2019 02:44:17 15.8 C 63 %
675 11-09-2019 02:54:17 15.8 C 63 %